<?xml version="1.0" encoding="UTF-8" standalone="no" ?>
<gpx xmlns="http://www.topografix.com/GPX/1/1" xmlns:xsi="http://www.w3.org/2001/XMLSchema-instance" xsi:schemaLocation="http://www.topografix.com/GPX/1/1 http://www.topografix.com/GPX/1/1/gpx.xsd" version="1.1" creator="VisuGPX - https://www.visugpx.com">
  <metadata>
    <name>St Nizier - Tour sans Venin - La Poya</name>
    <desc><![CDATA[Une variante de plus]]></desc>
  </metadata>
  <trk>
    <name><![CDATA[Tour sans venin]]></name>
    <desc><![CDATA[]]></desc>
    <trkseg>
      <trkpt lat="45.1706" lon="5.62746">
        <ele>1235</ele>
        <time>2011-07-04T06:16:56Z</time>
      </trkpt>
      <trkpt lat="45.17054" lon="5.62748">
        <ele>1235</ele>
        <time>2011-07-04T06:17:27Z</time>
      </trkpt>
      <trkpt lat="45.1705" lon="5.6275">
        <ele>1234</ele>
        <time>2011-07-04T06:17:29Z</time>
      </trkpt>
      <trkpt lat="45.1705" lon="5.6275">
        <ele>1234</ele>
        <time>2011-07-04T06:17:29Z</time>
      </trkpt>
      <trkpt lat="45.1705" lon="5.6275">
        <ele>1234</ele>
        <time>2011-07-04T06:17:31Z</time>
      </trkpt>
      <trkpt lat="45.17053" lon="5.62773">
        <ele>1237</ele>
        <time>2011-07-04T06:17:33Z</time>
      </trkpt>
      <trkpt lat="45.17048" lon="5.62796">
        <ele>1235</ele>
        <time>2011-07-04T06:17:35Z</time>
      </trkpt>
      <trkpt lat="45.1705" lon="5.6282">
        <ele>1236</ele>
        <time>2011-07-04T06:17:37Z</time>
      </trkpt>
      <trkpt lat="45.17051" lon="5.62843">
        <ele>1236</ele>
        <time>2011-07-04T06:17:39Z</time>
      </trkpt>
      <trkpt lat="45.17053" lon="5.62866">
        <ele>1235</ele>
        <time>2011-07-04T06:17:41Z</time>
      </trkpt>
      <trkpt lat="45.17055" lon="5.62893">
        <ele>1235</ele>
        <time>2011-07-04T06:17:43Z</time>
      </trkpt>
      <trkpt lat="45.17054" lon="5.62916">
        <ele>1234</ele>
        <time>2011-07-04T06:17:45Z</time>
      </trkpt>
      <trkpt lat="45.17052" lon="5.62943">
        <ele>1234</ele>
        <time>2011-07-04T06:17:47Z</time>
      </trkpt>
      <trkpt lat="45.17053" lon="5.6297">
        <ele>1233</ele>
        <time>2011-07-04T06:17:49Z</time>
      </trkpt>
      <trkpt lat="45.17063" lon="5.6299">
        <ele>1232</ele>
        <time>2011-07-04T06:17:51Z</time>
      </trkpt>
      <trkpt lat="45.17075" lon="5.63009">
        <ele>1232</ele>
        <time>2011-07-04T06:17:53Z</time>
      </trkpt>
      <trkpt lat="45.17084" lon="5.63025">
        <ele>1231</ele>
        <time>2011-07-04T06:17:55Z</time>
      </trkpt>
      <trkpt lat="45.17095" lon="5.63042">
        <ele>1230</ele>
        <time>2011-07-04T06:17:57Z</time>
      </trkpt>
      <trkpt lat="45.17105" lon="5.63056">
        <ele>1230</ele>
        <time>2011-07-04T06:17:59Z</time>
      </trkpt>
      <trkpt lat="45.1712" lon="5.63074">
        <ele>1227</ele>
        <time>2011-07-04T06:18:01Z</time>
      </trkpt>
      <trkpt lat="45.17135" lon="5.63083">
        <ele>1228</ele>
        <time>2011-07-04T06:18:03Z</time>
      </trkpt>
      <trkpt lat="45.17152" lon="5.63096">
        <ele>1226</ele>
        <time>2011-07-04T06:18:05Z</time>
      </trkpt>
      <trkpt lat="45.1716" lon="5.63105">
        <ele>1224</ele>
        <time>2011-07-04T06:18:07Z</time>
      </trkpt>
      <trkpt lat="45.17169" lon="5.63117">
        <ele>1224</ele>
        <time>2011-07-04T06:18:09Z</time>
      </trkpt>
      <trkpt lat="45.17171" lon="5.63135">
        <ele>1223</ele>
        <time>2011-07-04T06:18:11Z</time>
      </trkpt>
      <trkpt lat="45.17174" lon="5.63148">
        <ele>1223</ele>
        <time>2011-07-04T06:18:13Z</time>
      </trkpt>
      <trkpt lat="45.17176" lon="5.63168">
        <ele>1223</ele>
        <time>2011-07-04T06:18:15Z</time>
      </trkpt>
      <trkpt lat="45.17178" lon="5.63188">
        <ele>1223</ele>
        <time>2011-07-04T06:18:17Z</time>
      </trkpt>
      <trkpt lat="45.17177" lon="5.63204">
        <ele>1223</ele>
        <time>2011-07-04T06:18:19Z</time>
      </trkpt>
      <trkpt lat="45.17176" lon="5.63218">
        <ele>1223</ele>
        <time>2011-07-04T06:18:21Z</time>
      </trkpt>
      <trkpt lat="45.17174" lon="5.63236">
        <ele>1223</ele>
        <time>2011-07-04T06:18:23Z</time>
      </trkpt>
      <trkpt lat="45.17172" lon="5.63261">
        <ele>1221</ele>
        <time>2011-07-04T06:18:25Z</time>
      </trkpt>
      <trkpt lat="45.17172" lon="5.63285">
        <ele>1221</ele>
        <time>2011-07-04T06:18:27Z</time>
      </trkpt>
      <trkpt lat="45.17176" lon="5.63308">
        <ele>1218</ele>
        <time>2011-07-04T06:18:29Z</time>
      </trkpt>
      <trkpt lat="45.17177" lon="5.6333">
        <ele>1218</ele>
        <time>2011-07-04T06:18:31Z</time>
      </trkpt>
      <trkpt lat="45.17177" lon="5.63356">
        <ele>1218</ele>
        <time>2011-07-04T06:18:33Z</time>
      </trkpt>
      <trkpt lat="45.17182" lon="5.63378">
        <ele>1218</ele>
        <time>2011-07-04T06:18:35Z</time>
      </trkpt>
      <trkpt lat="45.17185" lon="5.634">
        <ele>1218</ele>
        <time>2011-07-04T06:18:37Z</time>
      </trkpt>
      <trkpt lat="45.17194" lon="5.63424">
        <ele>1217</ele>
        <time>2011-07-04T06:18:39Z</time>
      </trkpt>
      <trkpt lat="45.17199" lon="5.6345">
        <ele>1215</ele>
        <time>2011-07-04T06:18:41Z</time>
      </trkpt>
      <trkpt lat="45.17196" lon="5.63474">
        <ele>1216</ele>
        <time>2011-07-04T06:18:43Z</time>
      </trkpt>
      <trkpt lat="45.17195" lon="5.63493">
        <ele>1215</ele>
        <time>2011-07-04T06:18:45Z</time>
      </trkpt>
      <trkpt lat="45.17188" lon="5.63521">
        <ele>1215</ele>
        <time>2011-07-04T06:18:48Z</time>
      </trkpt>
      <trkpt lat="45.17172" lon="5.63538">
        <ele>1214</ele>
        <time>2011-07-04T06:18:51Z</time>
      </trkpt>
      <trkpt lat="45.17148" lon="5.63546">
        <ele>1212</ele>
        <time>2011-07-04T06:18:54Z</time>
      </trkpt>
      <trkpt lat="45.17131" lon="5.6355">
        <ele>1210</ele>
        <time>2011-07-04T06:18:57Z</time>
      </trkpt>
      <trkpt lat="45.17114" lon="5.6356">
        <ele>1209</ele>
        <time>2011-07-04T06:19:00Z</time>
      </trkpt>
      <trkpt lat="45.17089" lon="5.63562">
        <ele>1209</ele>
        <time>2011-07-04T06:19:04Z</time>
      </trkpt>
      <trkpt lat="45.17012" lon="5.63645">
        <ele>1209</ele>
        <time>2011-07-04T06:19:15Z</time>
      </trkpt>
      <trkpt lat="45.17002" lon="5.6367">
        <ele>1209</ele>
        <time>2011-07-04T06:19:18Z</time>
      </trkpt>
      <trkpt lat="45.16986" lon="5.63688">
        <ele>1209</ele>
        <time>2011-07-04T06:19:21Z</time>
      </trkpt>
      <trkpt lat="45.16957" lon="5.63698">
        <ele>1208</ele>
        <time>2011-07-04T06:19:24Z</time>
      </trkpt>
      <trkpt lat="45.16931" lon="5.63709">
        <ele>1207</ele>
        <time>2011-07-04T06:19:27Z</time>
      </trkpt>
      <trkpt lat="45.16916" lon="5.63712">
        <ele>1206</ele>
        <time>2011-07-04T06:19:30Z</time>
      </trkpt>
      <trkpt lat="45.1692" lon="5.63721">
        <ele>1204</ele>
        <time>2011-07-04T06:19:36Z</time>
      </trkpt>
      <trkpt lat="45.16916" lon="5.63713">
        <ele>1204</ele>
        <time>2011-07-04T06:19:52Z</time>
      </trkpt>
      <trkpt lat="45.16926" lon="5.63713">
        <ele>1205</ele>
        <time>2011-07-04T06:19:57Z</time>
      </trkpt>
      <trkpt lat="45.16928" lon="5.63724">
        <ele>1205</ele>
        <time>2011-07-04T06:20:02Z</time>
      </trkpt>
      <trkpt lat="45.16924" lon="5.63721">
        <ele>1206</ele>
        <time>2011-07-04T06:20:05Z</time>
      </trkpt>
      <trkpt lat="45.1692" lon="5.63711">
        <ele>1205</ele>
        <time>2011-07-04T06:20:11Z</time>
      </trkpt>
      <trkpt lat="45.16914" lon="5.63713">
        <ele>1204</ele>
        <time>2011-07-04T06:20:17Z</time>
      </trkpt>
      <trkpt lat="45.16913" lon="5.63705">
        <ele>1204</ele>
        <time>2011-07-04T06:20:23Z</time>
      </trkpt>
      <trkpt lat="45.16913" lon="5.63713">
        <ele>1202</ele>
        <time>2011-07-04T06:20:26Z</time>
      </trkpt>
      <trkpt lat="45.16906" lon="5.63718">
        <ele>1195</ele>
        <time>2011-07-04T06:20:32Z</time>
      </trkpt>
      <trkpt lat="45.16906" lon="5.63718">
        <ele>1195</ele>
        <time>2011-07-04T06:20:32Z</time>
      </trkpt>
      <trkpt lat="45.16906" lon="5.63718">
        <ele>1195</ele>
        <time>2011-07-04T06:20:34Z</time>
      </trkpt>
      <trkpt lat="45.16904" lon="5.63724">
        <ele>1192</ele>
        <time>2011-07-04T06:20:44Z</time>
      </trkpt>
      <trkpt lat="45.16894" lon="5.63733">
        <ele>1192</ele>
        <time>2011-07-04T06:20:50Z</time>
      </trkpt>
      <trkpt lat="45.1688" lon="5.63736">
        <ele>1191</ele>
        <time>2011-07-04T06:20:54Z</time>
      </trkpt>
      <trkpt lat="45.16862" lon="5.63746">
        <ele>1191</ele>
        <time>2011-07-04T06:20:58Z</time>
      </trkpt>
      <trkpt lat="45.16832" lon="5.63746">
        <ele>1189</ele>
        <time>2011-07-04T06:21:03Z</time>
      </trkpt>
      <trkpt lat="45.16804" lon="5.63733">
        <ele>1190</ele>
        <time>2011-07-04T06:21:08Z</time>
      </trkpt>
      <trkpt lat="45.16784" lon="5.6372">
        <ele>1190</ele>
        <time>2011-07-04T06:21:12Z</time>
      </trkpt>
      <trkpt lat="45.16777" lon="5.63706">
        <ele>1190</ele>
        <time>2011-07-04T06:21:15Z</time>
      </trkpt>
      <trkpt lat="45.16766" lon="5.63703">
        <ele>1188</ele>
        <time>2011-07-04T06:21:18Z</time>
      </trkpt>
      <trkpt lat="45.16751" lon="5.63706">
        <ele>1188</ele>
        <time>2011-07-04T06:21:21Z</time>
      </trkpt>
      <trkpt lat="45.16746" lon="5.63705">
        <ele>1187</ele>
        <time>2011-07-04T06:21:23Z</time>
      </trkpt>
      <trkpt lat="45.16733" lon="5.63709">
        <ele>1189</ele>
        <time>2011-07-04T06:21:25Z</time>
      </trkpt>
      <trkpt lat="45.16725" lon="5.63711">
        <ele>1190</ele>
        <time>2011-07-04T06:21:27Z</time>
      </trkpt>
      <trkpt lat="45.16719" lon="5.63715">
        <ele>1188</ele>
        <time>2011-07-04T06:21:29Z</time>
      </trkpt>
      <trkpt lat="45.16707" lon="5.63725">
        <ele>1188</ele>
        <time>2011-07-04T06:21:32Z</time>
      </trkpt>
      <trkpt lat="45.16704" lon="5.6373">
        <ele>1188</ele>
        <time>2011-07-04T06:21:34Z</time>
      </trkpt>
      <trkpt lat="45.16703" lon="5.63738">
        <ele>1185</ele>
        <time>2011-07-04T06:21:36Z</time>
      </trkpt>
      <trkpt lat="45.16708" lon="5.6374">
        <ele>1186</ele>
        <time>2011-07-04T06:21:38Z</time>
      </trkpt>
      <trkpt lat="45.16716" lon="5.63742">
        <ele>1186</ele>
        <time>2011-07-04T06:21:40Z</time>
      </trkpt>
      <trkpt lat="45.16725" lon="5.63752">
        <ele>1185</ele>
        <time>2011-07-04T06:21:42Z</time>
      </trkpt>
      <trkpt lat="45.16743" lon="5.63771">
        <ele>1180</ele>
        <time>2011-07-04T06:21:45Z</time>
      </trkpt>
      <trkpt lat="45.1676" lon="5.63789">
        <ele>1175</ele>
        <time>2011-07-04T06:21:48Z</time>
      </trkpt>
      <trkpt lat="45.16771" lon="5.638">
        <ele>1174</ele>
        <time>2011-07-04T06:21:51Z</time>
      </trkpt>
      <trkpt lat="45.16775" lon="5.63806">
        <ele>1175</ele>
        <time>2011-07-04T06:21:53Z</time>
      </trkpt>
      <trkpt lat="45.16779" lon="5.6381">
        <ele>1175</ele>
        <time>2011-07-04T06:21:55Z</time>
      </trkpt>
      <trkpt lat="45.16793" lon="5.63833">
        <ele>1173</ele>
        <time>2011-07-04T06:22:00Z</time>
      </trkpt>
      <trkpt lat="45.16793" lon="5.63843">
        <ele>1173</ele>
        <time>2011-07-04T06:22:01Z</time>
      </trkpt>
      <trkpt lat="45.16794" lon="5.63854">
        <ele>1173</ele>
        <time>2011-07-04T06:22:02Z</time>
      </trkpt>
      <trkpt lat="45.16795" lon="5.63861">
        <ele>1174</ele>
        <time>2011-07-04T06:22:03Z</time>
      </trkpt>
      <trkpt lat="45.16798" lon="5.6387">
        <ele>1175</ele>
        <time>2011-07-04T06:22:04Z</time>
      </trkpt>
      <trkpt lat="45.16801" lon="5.63875">
        <ele>1175</ele>
        <time>2011-07-04T06:22:05Z</time>
      </trkpt>
      <trkpt lat="45.16803" lon="5.63883">
        <ele>1175</ele>
        <time>2011-07-04T06:22:06Z</time>
      </trkpt>
      <trkpt lat="45.16804" lon="5.63895">
        <ele>1174</ele>
        <time>2011-07-04T06:22:07Z</time>
      </trkpt>
      <trkpt lat="45.1681" lon="5.63906">
        <ele>1173</ele>
        <time>2011-07-04T06:22:08Z</time>
      </trkpt>
      <trkpt lat="45.16813" lon="5.63914">
        <ele>1173</ele>
        <time>2011-07-04T06:22:09Z</time>
      </trkpt>
      <trkpt lat="45.16817" lon="5.63923">
        <ele>1171</ele>
        <time>2011-07-04T06:22:11Z</time>
      </trkpt>
      <trkpt lat="45.16826" lon="5.63932">
        <ele>1166</ele>
        <time>2011-07-04T06:22:13Z</time>
      </trkpt>
      <trkpt lat="45.16832" lon="5.63939">
        <ele>1163</ele>
        <time>2011-07-04T06:22:15Z</time>
      </trkpt>
      <trkpt lat="45.16836" lon="5.63945">
        <ele>1162</ele>
        <time>2011-07-04T06:22:17Z</time>
      </trkpt>
      <trkpt lat="45.16836" lon="5.63952">
        <ele>1161</ele>
        <time>2011-07-04T06:22:19Z</time>
      </trkpt>
      <trkpt lat="45.1683" lon="5.63958">
        <ele>1160</ele>
        <time>2011-07-04T06:22:21Z</time>
      </trkpt>
      <trkpt lat="45.16827" lon="5.63969">
        <ele>1159</ele>
        <time>2011-07-04T06:22:23Z</time>
      </trkpt>
      <trkpt lat="45.16827" lon="5.63978">
        <ele>1159</ele>
        <time>2011-07-04T06:22:25Z</time>
      </trkpt>
      <trkpt lat="45.1683" lon="5.63989">
        <ele>1158</ele>
        <time>2011-07-04T06:22:27Z</time>
      </trkpt>
      <trkpt lat="45.16832" lon="5.64">
        <ele>1157</ele>
        <time>2011-07-04T06:22:29Z</time>
      </trkpt>
      <trkpt lat="45.16833" lon="5.64007">
        <ele>1156</ele>
        <time>2011-07-04T06:22:31Z</time>
      </trkpt>
      <trkpt lat="45.1683" lon="5.64015">
        <ele>1155</ele>
        <time>2011-07-04T06:22:55Z</time>
      </trkpt>
      <trkpt lat="45.16828" lon="5.64032">
        <ele>1153</ele>
        <time>2011-07-04T06:22:58Z</time>
      </trkpt>
      <trkpt lat="45.16831" lon="5.6404">
        <ele>1153</ele>
        <time>2011-07-04T06:23:00Z</time>
      </trkpt>
      <trkpt lat="45.16828" lon="5.64049">
        <ele>1151</ele>
        <time>2011-07-04T06:23:03Z</time>
      </trkpt>
      <trkpt lat="45.16826" lon="5.64056">
        <ele>1152</ele>
        <time>2011-07-04T06:23:05Z</time>
      </trkpt>
      <trkpt lat="45.16824" lon="5.64062">
        <ele>1152</ele>
        <time>2011-07-04T06:23:07Z</time>
      </trkpt>
      <trkpt lat="45.16821" lon="5.64066">
        <ele>1151</ele>
        <time>2011-07-04T06:23:09Z</time>
      </trkpt>
      <trkpt lat="45.16814" lon="5.64072">
        <ele>1150</ele>
        <time>2011-07-04T06:23:11Z</time>
      </trkpt>
      <trkpt lat="45.16809" lon="5.64075">
        <ele>1150</ele>
        <time>2011-07-04T06:23:13Z</time>
      </trkpt>
      <trkpt lat="45.16801" lon="5.64078">
        <ele>1149</ele>
        <time>2011-07-04T06:23:15Z</time>
      </trkpt>
      <trkpt lat="45.16794" lon="5.64084">
        <ele>1147</ele>
        <time>2011-07-04T06:23:17Z</time>
      </trkpt>
      <trkpt lat="45.16788" lon="5.64086">
        <ele>1146</ele>
        <time>2011-07-04T06:23:18Z</time>
      </trkpt>
      <trkpt lat="45.16784" lon="5.64088">
        <ele>1145</ele>
        <time>2011-07-04T06:23:19Z</time>
      </trkpt>
      <trkpt lat="45.16779" lon="5.64092">
        <ele>1145</ele>
        <time>2011-07-04T06:23:20Z</time>
      </trkpt>
      <trkpt lat="45.16771" lon="5.64095">
        <ele>1145</ele>
        <time>2011-07-04T06:23:22Z</time>
      </trkpt>
      <trkpt lat="45.16766" lon="5.64098">
        <ele>1145</ele>
        <time>2011-07-04T06:23:23Z</time>
      </trkpt>
      <trkpt lat="45.16762" lon="5.64104">
        <ele>1145</ele>
        <time>2011-07-04T06:23:24Z</time>
      </trkpt>
      <trkpt lat="45.16755" lon="5.64108">
        <ele>1145</ele>
        <time>2011-07-04T06:23:25Z</time>
      </trkpt>
      <trkpt lat="45.1675" lon="5.64112">
        <ele>1146</ele>
        <time>2011-07-04T06:23:26Z</time>
      </trkpt>
      <trkpt lat="45.16745" lon="5.64117">
        <ele>1146</ele>
        <time>2011-07-04T06:23:27Z</time>
      </trkpt>
      <trkpt lat="45.1674" lon="5.64122">
        <ele>1145</ele>
        <time>2011-07-04T06:23:28Z</time>
      </trkpt>
      <trkpt lat="45.16736" lon="5.64126">
        <ele>1145</ele>
        <time>2011-07-04T06:23:29Z</time>
      </trkpt>
      <trkpt lat="45.1673" lon="5.64135">
        <ele>1145</ele>
        <time>2011-07-04T06:23:32Z</time>
      </trkpt>
      <trkpt lat="45.16735" lon="5.64137">
        <ele>1143</ele>
        <time>2011-07-04T06:23:36Z</time>
      </trkpt>
      <trkpt lat="45.1674" lon="5.64144">
        <ele>1140</ele>
        <time>2011-07-04T06:23:48Z</time>
      </trkpt>
      <trkpt lat="45.16743" lon="5.64148">
        <ele>1139</ele>
        <time>2011-07-04T06:23:49Z</time>
      </trkpt>
      <trkpt lat="45.16748" lon="5.64155">
        <ele>1136</ele>
        <time>2011-07-04T06:23:51Z</time>
      </trkpt>
      <trkpt lat="45.16752" lon="5.64161">
        <ele>1135</ele>
        <time>2011-07-04T06:23:54Z</time>
      </trkpt>
      <trkpt lat="45.16757" lon="5.64168">
        <ele>1133</ele>
        <time>2011-07-04T06:23:58Z</time>
      </trkpt>
      <trkpt lat="45.16763" lon="5.64175">
        <ele>1132</ele>
        <time>2011-07-04T06:24:02Z</time>
      </trkpt>
      <trkpt lat="45.16768" lon="5.64178">
        <ele>1130</ele>
        <time>2011-07-04T06:24:06Z</time>
      </trkpt>
      <trkpt lat="45.16772" lon="5.64181">
        <ele>1129</ele>
        <time>2011-07-04T06:24:08Z</time>
      </trkpt>
      <trkpt lat="45.16776" lon="5.64186">
        <ele>1125</ele>
        <time>2011-07-04T06:24:12Z</time>
      </trkpt>
      <trkpt lat="45.16776" lon="5.64194">
        <ele>1123</ele>
        <time>2011-07-04T06:24:15Z</time>
      </trkpt>
      <trkpt lat="45.16778" lon="5.64202">
        <ele>1122</ele>
        <time>2011-07-04T06:24:18Z</time>
      </trkpt>
      <trkpt lat="45.1678" lon="5.64208">
        <ele>1121</ele>
        <time>2011-07-04T06:24:20Z</time>
      </trkpt>
      <trkpt lat="45.16785" lon="5.64216">
        <ele>1119</ele>
        <time>2011-07-04T06:24:22Z</time>
      </trkpt>
      <trkpt lat="45.16789" lon="5.64223">
        <ele>1119</ele>
        <time>2011-07-04T06:24:24Z</time>
      </trkpt>
      <trkpt lat="45.16794" lon="5.64232">
        <ele>1118</ele>
        <time>2011-07-04T06:24:26Z</time>
      </trkpt>
      <trkpt lat="45.16797" lon="5.64237">
        <ele>1118</ele>
        <time>2011-07-04T06:24:27Z</time>
      </trkpt>
      <trkpt lat="45.16798" lon="5.64244">
        <ele>1118</ele>
        <time>2011-07-04T06:24:29Z</time>
      </trkpt>
      <trkpt lat="45.16799" lon="5.64254">
        <ele>1118</ele>
        <time>2011-07-04T06:24:31Z</time>
      </trkpt>
      <trkpt lat="45.16803" lon="5.6426">
        <ele>1118</ele>
        <time>2011-07-04T06:24:33Z</time>
      </trkpt>
      <trkpt lat="45.16804" lon="5.64268">
        <ele>1117</ele>
        <time>2011-07-04T06:24:35Z</time>
      </trkpt>
      <trkpt lat="45.16807" lon="5.64278">
        <ele>1116</ele>
        <time>2011-07-04T06:24:37Z</time>
      </trkpt>
      <trkpt lat="45.16809" lon="5.64288">
        <ele>1115</ele>
        <time>2011-07-04T06:24:39Z</time>
      </trkpt>
      <trkpt lat="45.16808" lon="5.64296">
        <ele>1114</ele>
        <time>2011-07-04T06:24:41Z</time>
      </trkpt>
      <trkpt lat="45.16811" lon="5.64302">
        <ele>1114</ele>
        <time>2011-07-04T06:24:43Z</time>
      </trkpt>
      <trkpt lat="45.1681" lon="5.64312">
        <ele>1112</ele>
        <time>2011-07-04T06:24:46Z</time>
      </trkpt>
      <trkpt lat="45.1681" lon="5.64318">
        <ele>1112</ele>
        <time>2011-07-04T06:24:50Z</time>
      </trkpt>
      <trkpt lat="45.16812" lon="5.64326">
        <ele>1106</ele>
        <time>2011-07-04T06:25:00Z</time>
      </trkpt>
      <trkpt lat="45.16812" lon="5.64326">
        <ele>1106</ele>
        <time>2011-07-04T06:25:00Z</time>
      </trkpt>
      <trkpt lat="45.16812" lon="5.64326">
        <ele>1106</ele>
        <time>2011-07-04T06:25:02Z</time>
      </trkpt>
      <trkpt lat="45.16811" lon="5.64334">
        <ele>1106</ele>
        <time>2011-07-04T06:25:08Z</time>
      </trkpt>
      <trkpt lat="45.16813" lon="5.64345">
        <ele>1104</ele>
        <time>2011-07-04T06:25:11Z</time>
      </trkpt>
      <trkpt lat="45.16812" lon="5.64353">
        <ele>1103</ele>
        <time>2011-07-04T06:25:13Z</time>
      </trkpt>
      <trkpt lat="45.16812" lon="5.64361">
        <ele>1100</ele>
        <time>2011-07-04T06:25:16Z</time>
      </trkpt>
      <trkpt lat="45.16812" lon="5.64369">
        <ele>1099</ele>
        <time>2011-07-04T06:25:19Z</time>
      </trkpt>
      <trkpt lat="45.16808" lon="5.64377">
        <ele>1097</ele>
        <time>2011-07-04T06:25:22Z</time>
      </trkpt>
      <trkpt lat="45.16807" lon="5.64385">
        <ele>1095</ele>
        <time>2011-07-04T06:25:25Z</time>
      </trkpt>
      <trkpt lat="45.16808" lon="5.64391">
        <ele>1092</ele>
        <time>2011-07-04T06:25:28Z</time>
      </trkpt>
      <trkpt lat="45.1681" lon="5.64398">
        <ele>1089</ele>
        <time>2011-07-04T06:25:31Z</time>
      </trkpt>
      <trkpt lat="45.1681" lon="5.64405">
        <ele>1089</ele>
        <time>2011-07-04T06:25:35Z</time>
      </trkpt>
      <trkpt lat="45.16812" lon="5.64414">
        <ele>1088</ele>
        <time>2011-07-04T06:25:38Z</time>
      </trkpt>
      <trkpt lat="45.1681" lon="5.64421">
        <ele>1089</ele>
        <time>2011-07-04T06:25:40Z</time>
      </trkpt>
      <trkpt lat="45.16808" lon="5.64428">
        <ele>1089</ele>
        <time>2011-07-04T06:25:42Z</time>
      </trkpt>
      <trkpt lat="45.16807" lon="5.64435">
        <ele>1088</ele>
        <time>2011-07-04T06:25:45Z</time>
      </trkpt>
      <trkpt lat="45.16808" lon="5.64444">
        <ele>1088</ele>
        <time>2011-07-04T06:25:48Z</time>
      </trkpt>
      <trkpt lat="45.16807" lon="5.6445">
        <ele>1086</ele>
        <time>2011-07-04T06:25:50Z</time>
      </trkpt>
      <trkpt lat="45.16812" lon="5.64461">
        <ele>1085</ele>
        <time>2011-07-04T06:25:53Z</time>
      </trkpt>
      <trkpt lat="45.16814" lon="5.64466">
        <ele>1082</ele>
        <time>2011-07-04T06:25:56Z</time>
      </trkpt>
      <trkpt lat="45.16809" lon="5.64468">
        <ele>1080</ele>
        <time>2011-07-04T06:26:07Z</time>
      </trkpt>
      <trkpt lat="45.16805" lon="5.64472">
        <ele>1079</ele>
        <time>2011-07-04T06:26:09Z</time>
      </trkpt>
      <trkpt lat="45.16802" lon="5.64479">
        <ele>1077</ele>
        <time>2011-07-04T06:26:11Z</time>
      </trkpt>
      <trkpt lat="45.16799" lon="5.64486">
        <ele>1076</ele>
        <time>2011-07-04T06:26:13Z</time>
      </trkpt>
      <trkpt lat="45.16795" lon="5.64491">
        <ele>1076</ele>
        <time>2011-07-04T06:26:15Z</time>
      </trkpt>
      <trkpt lat="45.16791" lon="5.64498">
        <ele>1075</ele>
        <time>2011-07-04T06:26:17Z</time>
      </trkpt>
      <trkpt lat="45.16787" lon="5.64507">
        <ele>1074</ele>
        <time>2011-07-04T06:26:19Z</time>
      </trkpt>
      <trkpt lat="45.16783" lon="5.64515">
        <ele>1074</ele>
        <time>2011-07-04T06:26:21Z</time>
      </trkpt>
      <trkpt lat="45.1678" lon="5.64522">
        <ele>1073</ele>
        <time>2011-07-04T06:26:23Z</time>
      </trkpt>
      <trkpt lat="45.16776" lon="5.64528">
        <ele>1072</ele>
        <time>2011-07-04T06:26:25Z</time>
      </trkpt>
      <trkpt lat="45.16773" lon="5.64537">
        <ele>1072</ele>
        <time>2011-07-04T06:26:27Z</time>
      </trkpt>
      <trkpt lat="45.1677" lon="5.64546">
        <ele>1072</ele>
        <time>2011-07-04T06:26:29Z</time>
      </trkpt>
      <trkpt lat="45.16768" lon="5.64556">
        <ele>1071</ele>
        <time>2011-07-04T06:26:31Z</time>
      </trkpt>
      <trkpt lat="45.16769" lon="5.6457">
        <ele>1068</ele>
        <time>2011-07-04T06:26:33Z</time>
      </trkpt>
      <trkpt lat="45.16766" lon="5.64581">
        <ele>1067</ele>
        <time>2011-07-04T06:26:35Z</time>
      </trkpt>
      <trkpt lat="45.16766" lon="5.64587">
        <ele>1066</ele>
        <time>2011-07-04T06:26:36Z</time>
      </trkpt>
      <trkpt lat="45.16767" lon="5.64597">
        <ele>1064</ele>
        <time>2011-07-04T06:26:38Z</time>
      </trkpt>
      <trkpt lat="45.16763" lon="5.64608">
        <ele>1064</ele>
        <time>2011-07-04T06:26:40Z</time>
      </trkpt>
      <trkpt lat="45.16765" lon="5.64617">
        <ele>1063</ele>
        <time>2011-07-04T06:26:41Z</time>
      </trkpt>
      <trkpt lat="45.16764" lon="5.64627">
        <ele>1062</ele>
        <time>2011-07-04T06:26:43Z</time>
      </trkpt>
      <trkpt lat="45.16761" lon="5.64634">
        <ele>1062</ele>
        <time>2011-07-04T06:26:45Z</time>
      </trkpt>
      <trkpt lat="45.1676" lon="5.64643">
        <ele>1061</ele>
        <time>2011-07-04T06:26:47Z</time>
      </trkpt>
      <trkpt lat="45.1676" lon="5.6465">
        <ele>1060</ele>
        <time>2011-07-04T06:26:49Z</time>
      </trkpt>
      <trkpt lat="45.16762" lon="5.64665">
        <ele>1056</ele>
        <time>2011-07-04T06:26:51Z</time>
      </trkpt>
      <trkpt lat="45.16762" lon="5.64679">
        <ele>1052</ele>
        <time>2011-07-04T06:26:53Z</time>
      </trkpt>
      <trkpt lat="45.16764" lon="5.64685">
        <ele>1051</ele>
        <time>2011-07-04T06:26:54Z</time>
      </trkpt>
      <trkpt lat="45.16764" lon="5.64694">
        <ele>1051</ele>
        <time>2011-07-04T06:26:55Z</time>
      </trkpt>
      <trkpt lat="45.16765" lon="5.64702">
        <ele>1050</ele>
        <time>2011-07-04T06:26:56Z</time>
      </trkpt>
      <trkpt lat="45.16762" lon="5.64714">
        <ele>1050</ele>
        <time>2011-07-04T06:26:58Z</time>
      </trkpt>
      <trkpt lat="45.16758" lon="5.64726">
        <ele>1049</ele>
        <time>2011-07-04T06:27:00Z</time>
      </trkpt>
      <trkpt lat="45.16756" lon="5.64732">
        <ele>1049</ele>
        <time>2011-07-04T06:27:01Z</time>
      </trkpt>
      <trkpt lat="45.16754" lon="5.64737">
        <ele>1048</ele>
        <time>2011-07-04T06:27:02Z</time>
      </trkpt>
      <trkpt lat="45.16754" lon="5.64744">
        <ele>1048</ele>
        <time>2011-07-04T06:27:03Z</time>
      </trkpt>
      <trkpt lat="45.16753" lon="5.64754">
        <ele>1046</ele>
        <time>2011-07-04T06:27:04Z</time>
      </trkpt>
      <trkpt lat="45.16755" lon="5.64763">
        <ele>1043</ele>
        <time>2011-07-04T06:27:05Z</time>
      </trkpt>
      <trkpt lat="45.16757" lon="5.64772">
        <ele>1042</ele>
        <time>2011-07-04T06:27:06Z</time>
      </trkpt>
      <trkpt lat="45.16757" lon="5.64779">
        <ele>1041</ele>
        <time>2011-07-04T06:27:07Z</time>
      </trkpt>
      <trkpt lat="45.16764" lon="5.64794">
        <ele>1037</ele>
        <time>2011-07-04T06:27:08Z</time>
      </trkpt>
      <trkpt lat="45.16765" lon="5.64801">
        <ele>1036</ele>
        <time>2011-07-04T06:27:09Z</time>
      </trkpt>
      <trkpt lat="45.16765" lon="5.6481">
        <ele>1035</ele>
        <time>2011-07-04T06:27:10Z</time>
      </trkpt>
      <trkpt lat="45.16766" lon="5.64817">
        <ele>1034</ele>
        <time>2011-07-04T06:27:11Z</time>
      </trkpt>
      <trkpt lat="45.16766" lon="5.64823">
        <ele>1033</ele>
        <time>2011-07-04T06:27:12Z</time>
      </trkpt>
      <trkpt lat="45.16766" lon="5.64835">
        <ele>1032</ele>
        <time>2011-07-04T06:27:14Z</time>
      </trkpt>
      <trkpt lat="45.16766" lon="5.64843">
        <ele>1032</ele>
        <time>2011-07-04T06:27:16Z</time>
      </trkpt>
      <trkpt lat="45.16766" lon="5.64851">
        <ele>1029</ele>
        <time>2011-07-04T06:27:19Z</time>
      </trkpt>
      <trkpt lat="45.16764" lon="5.64857">
        <ele>1023</ele>
        <time>2011-07-04T06:27:21Z</time>
      </trkpt>
      <trkpt lat="45.16763" lon="5.64865">
        <ele>1023</ele>
        <time>2011-07-04T06:27:24Z</time>
      </trkpt>
      <trkpt lat="45.1676" lon="5.64874">
        <ele>1023</ele>
        <time>2011-07-04T06:27:27Z</time>
      </trkpt>
      <trkpt lat="45.16758" lon="5.64882">
        <ele>1023</ele>
        <time>2011-07-04T06:27:29Z</time>
      </trkpt>
      <trkpt lat="45.16759" lon="5.64891">
        <ele>1020</ele>
        <time>2011-07-04T06:27:32Z</time>
      </trkpt>
      <trkpt lat="45.16759" lon="5.64899">
        <ele>1018</ele>
        <time>2011-07-04T06:27:37Z</time>
      </trkpt>
      <trkpt lat="45.16763" lon="5.64904">
        <ele>1017</ele>
        <time>2011-07-04T06:27:40Z</time>
      </trkpt>
      <trkpt lat="45.16765" lon="5.64912">
        <ele>1016</ele>
        <time>2011-07-04T06:27:43Z</time>
      </trkpt>
      <trkpt lat="45.1677" lon="5.64921">
        <ele>1015</ele>
        <time>2011-07-04T06:27:46Z</time>
      </trkpt>
      <trkpt lat="45.16774" lon="5.64926">
        <ele>1014</ele>
        <time>2011-07-04T06:27:48Z</time>
      </trkpt>
      <trkpt lat="45.16778" lon="5.64931">
        <ele>1013</ele>
        <time>2011-07-04T06:27:49Z</time>
      </trkpt>
      <trkpt lat="45.16782" lon="5.64937">
        <ele>1013</ele>
        <time>2011-07-04T06:27:50Z</time>
      </trkpt>
      <trkpt lat="45.16785" lon="5.64945">
        <ele>1012</ele>
        <time>2011-07-04T06:27:52Z</time>
      </trkpt>
      <trkpt lat="45.16787" lon="5.64952">
        <ele>1011</ele>
        <time>2011-07-04T06:27:54Z</time>
      </trkpt>
      <trkpt lat="45.1679" lon="5.64957">
        <ele>1010</ele>
        <time>2011-07-04T06:27:56Z</time>
      </trkpt>
      <trkpt lat="45.16794" lon="5.64964">
        <ele>1009</ele>
        <time>2011-07-04T06:27:58Z</time>
      </trkpt>
      <trkpt lat="45.16797" lon="5.64972">
        <ele>1007</ele>
        <time>2011-07-04T06:28:00Z</time>
      </trkpt>
      <trkpt lat="45.16795" lon="5.64984">
        <ele>1003</ele>
        <time>2011-07-04T06:28:03Z</time>
      </trkpt>
      <trkpt lat="45.16796" lon="5.64992">
        <ele>999</ele>
        <time>2011-07-04T06:28:06Z</time>
      </trkpt>
      <trkpt lat="45.16798" lon="5.65">
        <ele>1000</ele>
        <time>2011-07-04T06:28:08Z</time>
      </trkpt>
      <trkpt lat="45.16795" lon="5.65009">
        <ele>999</ele>
        <time>2011-07-04T06:28:11Z</time>
      </trkpt>
      <trkpt lat="45.16793" lon="5.65015">
        <ele>999</ele>
        <time>2011-07-04T06:28:13Z</time>
      </trkpt>
      <trkpt lat="45.16791" lon="5.65023">
        <ele>1000</ele>
        <time>2011-07-04T06:28:14Z</time>
      </trkpt>
      <trkpt lat="45.16788" lon="5.65031">
        <ele>1000</ele>
        <time>2011-07-04T06:28:16Z</time>
      </trkpt>
      <trkpt lat="45.16785" lon="5.65038">
        <ele>1000</ele>
        <time>2011-07-04T06:28:17Z</time>
      </trkpt>
      <trkpt lat="45.16782" lon="5.65044">
        <ele>999</ele>
        <time>2011-07-04T06:28:18Z</time>
      </trkpt>
      <trkpt lat="45.16777" lon="5.65056">
        <ele>999</ele>
        <time>2011-07-04T06:28:20Z</time>
      </trkpt>
      <trkpt lat="45.16773" lon="5.65068">
        <ele>999</ele>
        <time>2011-07-04T06:28:22Z</time>
      </trkpt>
      <trkpt lat="45.16771" lon="5.65074">
        <ele>999</ele>
        <time>2011-07-04T06:28:23Z</time>
      </trkpt>
      <trkpt lat="45.16769" lon="5.65082">
        <ele>999</ele>
        <time>2011-07-04T06:28:24Z</time>
      </trkpt>
      <trkpt lat="45.16765" lon="5.65088">
        <ele>999</ele>
        <time>2011-07-04T06:28:25Z</time>
      </trkpt>
      <trkpt lat="45.16765" lon="5.65096">
        <ele>998</ele>
        <time>2011-07-04T06:28:26Z</time>
      </trkpt>
      <trkpt lat="45.16764" lon="5.65106">
        <ele>998</ele>
        <time>2011-07-04T06:28:27Z</time>
      </trkpt>
      <trkpt lat="45.16762" lon="5.65116">
        <ele>997</ele>
        <time>2011-07-04T06:28:28Z</time>
      </trkpt>
      <trkpt lat="45.16758" lon="5.65124">
        <ele>996</ele>
        <time>2011-07-04T06:28:29Z</time>
      </trkpt>
      <trkpt lat="45.1676" lon="5.65131">
        <ele>996</ele>
        <time>2011-07-04T06:28:30Z</time>
      </trkpt>
      <trkpt lat="45.1676" lon="5.65138">
        <ele>996</ele>
        <time>2011-07-04T06:28:31Z</time>
      </trkpt>
      <trkpt lat="45.1676" lon="5.65146">
        <ele>995</ele>
        <time>2011-07-04T06:28:32Z</time>
      </trkpt>
      <trkpt lat="45.1676" lon="5.65155">
        <ele>994</ele>
        <time>2011-07-04T06:28:34Z</time>
      </trkpt>
      <trkpt lat="45.16762" lon="5.65169">
        <ele>994</ele>
        <time>2011-07-04T06:28:36Z</time>
      </trkpt>
      <trkpt lat="45.16766" lon="5.65184">
        <ele>993</ele>
        <time>2011-07-04T06:28:38Z</time>
      </trkpt>
      <trkpt lat="45.16767" lon="5.65192">
        <ele>992</ele>
        <time>2011-07-04T06:28:39Z</time>
      </trkpt>
      <trkpt lat="45.16769" lon="5.65199">
        <ele>992</ele>
        <time>2011-07-04T06:28:40Z</time>
      </trkpt>
      <trkpt lat="45.16771" lon="5.65205">
        <ele>992</ele>
        <time>2011-07-04T06:28:41Z</time>
      </trkpt>
      <trkpt lat="45.16774" lon="5.6521">
        <ele>992</ele>
        <time>2011-07-04T06:28:42Z</time>
      </trkpt>
      <trkpt lat="45.16776" lon="5.65216">
        <ele>992</ele>
        <time>2011-07-04T06:28:43Z</time>
      </trkpt>
      <trkpt lat="45.16778" lon="5.65223">
        <ele>992</ele>
        <time>2011-07-04T06:28:44Z</time>
      </trkpt>
      <trkpt lat="45.16781" lon="5.65228">
        <ele>992</ele>
        <time>2011-07-04T06:28:45Z</time>
      </trkpt>
      <trkpt lat="45.16784" lon="5.65234">
        <ele>992</ele>
        <time>2011-07-04T06:28:46Z</time>
      </trkpt>
      <trkpt lat="45.16786" lon="5.65241">
        <ele>991</ele>
        <time>2011-07-04T06:28:47Z</time>
      </trkpt>
      <trkpt lat="45.16788" lon="5.65251">
        <ele>990</ele>
        <time>2011-07-04T06:28:48Z</time>
      </trkpt>
      <trkpt lat="45.16788" lon="5.65259">
        <ele>990</ele>
        <time>2011-07-04T06:28:49Z</time>
      </trkpt>
      <trkpt lat="45.16789" lon="5.65267">
        <ele>989</ele>
        <time>2011-07-04T06:28:50Z</time>
      </trkpt>
      <trkpt lat="45.16789" lon="5.65274">
        <ele>989</ele>
        <time>2011-07-04T06:28:51Z</time>
      </trkpt>
      <trkpt lat="45.1679" lon="5.65281">
        <ele>989</ele>
        <time>2011-07-04T06:28:52Z</time>
      </trkpt>
      <trkpt lat="45.16797" lon="5.65299">
        <ele>984</ele>
        <time>2011-07-04T06:28:54Z</time>
      </trkpt>
      <trkpt lat="45.16799" lon="5.65308">
        <ele>981</ele>
        <time>2011-07-04T06:28:55Z</time>
      </trkpt>
      <trkpt lat="45.16801" lon="5.65315">
        <ele>981</ele>
        <time>2011-07-04T06:28:56Z</time>
      </trkpt>
      <trkpt lat="45.16806" lon="5.65336">
        <ele>976</ele>
        <time>2011-07-04T06:28:58Z</time>
      </trkpt>
      <trkpt lat="45.16806" lon="5.65343">
        <ele>975</ele>
        <time>2011-07-04T06:28:59Z</time>
      </trkpt>
      <trkpt lat="45.16808" lon="5.65351">
        <ele>973</ele>
        <time>2011-07-04T06:29:00Z</time>
      </trkpt>
      <trkpt lat="45.1681" lon="5.65359">
        <ele>972</ele>
        <time>2011-07-04T06:29:01Z</time>
      </trkpt>
      <trkpt lat="45.16808" lon="5.65371">
        <ele>968</ele>
        <time>2011-07-04T06:29:03Z</time>
      </trkpt>
      <trkpt lat="45.16807" lon="5.65378">
        <ele>965</ele>
        <time>2011-07-04T06:29:04Z</time>
      </trkpt>
      <trkpt lat="45.16807" lon="5.65385">
        <ele>964</ele>
        <time>2011-07-04T06:29:05Z</time>
      </trkpt>
      <trkpt lat="45.1681" lon="5.65395">
        <ele>962</ele>
        <time>2011-07-04T06:29:07Z</time>
      </trkpt>
      <trkpt lat="45.16807" lon="5.65408">
        <ele>959</ele>
        <time>2011-07-04T06:29:09Z</time>
      </trkpt>
      <trkpt lat="45.16806" lon="5.65414">
        <ele>957</ele>
        <time>2011-07-04T06:29:10Z</time>
      </trkpt>
      <trkpt lat="45.168" lon="5.65423">
        <ele>954</ele>
        <time>2011-07-04T06:29:12Z</time>
      </trkpt>
      <trkpt lat="45.16795" lon="5.65433">
        <ele>953</ele>
        <time>2011-07-04T06:29:14Z</time>
      </trkpt>
      <trkpt lat="45.16792" lon="5.65444">
        <ele>953</ele>
        <time>2011-07-04T06:29:16Z</time>
      </trkpt>
      <trkpt lat="45.16788" lon="5.65454">
        <ele>953</ele>
        <time>2011-07-04T06:29:18Z</time>
      </trkpt>
      <trkpt lat="45.16785" lon="5.65461">
        <ele>953</ele>
        <time>2011-07-04T06:29:19Z</time>
      </trkpt>
      <trkpt lat="45.16781" lon="5.65466">
        <ele>953</ele>
        <time>2011-07-04T06:29:20Z</time>
      </trkpt>
      <trkpt lat="45.16779" lon="5.65473">
        <ele>953</ele>
        <time>2011-07-04T06:29:21Z</time>
      </trkpt>
      <trkpt lat="45.16776" lon="5.65485">
        <ele>953</ele>
        <time>2011-07-04T06:29:23Z</time>
      </trkpt>
      <trkpt lat="45.16775" lon="5.65493">
        <ele>953</ele>
        <time>2011-07-04T06:29:24Z</time>
      </trkpt>
      <trkpt lat="45.16776" lon="5.65504">
        <ele>953</ele>
        <time>2011-07-04T06:29:25Z</time>
      </trkpt>
      <trkpt lat="45.16778" lon="5.65513">
        <ele>953</ele>
        <time>2011-07-04T06:29:26Z</time>
      </trkpt>
      <trkpt lat="45.16782" lon="5.65523">
        <ele>954</ele>
        <time>2011-07-04T06:29:27Z</time>
      </trkpt>
      <trkpt lat="45.16783" lon="5.65532">
        <ele>954</ele>
        <time>2011-07-04T06:29:28Z</time>
      </trkpt>
      <trkpt lat="45.16785" lon="5.65542">
        <ele>953</ele>
        <time>2011-07-04T06:29:29Z</time>
      </trkpt>
      <trkpt lat="45.16789" lon="5.65548">
        <ele>953</ele>
        <time>2011-07-04T06:29:30Z</time>
      </trkpt>
      <trkpt lat="45.16794" lon="5.65557">
        <ele>954</ele>
        <time>2011-07-04T06:29:31Z</time>
      </trkpt>
      <trkpt lat="45.16801" lon="5.65566">
        <ele>953</ele>
        <time>2011-07-04T06:29:32Z</time>
      </trkpt>
      <trkpt lat="45.16804" lon="5.65572">
        <ele>953</ele>
        <time>2011-07-04T06:29:33Z</time>
      </trkpt>
      <trkpt lat="45.16809" lon="5.65583">
        <ele>952</ele>
        <time>2011-07-04T06:29:34Z</time>
      </trkpt>
      <trkpt lat="45.16809" lon="5.6559">
        <ele>952</ele>
        <time>2011-07-04T06:29:35Z</time>
      </trkpt>
      <trkpt lat="45.16813" lon="5.65596">
        <ele>951</ele>
        <time>2011-07-04T06:29:36Z</time>
      </trkpt>
      <trkpt lat="45.16815" lon="5.65604">
        <ele>951</ele>
        <time>2011-07-04T06:29:37Z</time>
      </trkpt>
      <trkpt lat="45.16815" lon="5.65615">
        <ele>950</ele>
        <time>2011-07-04T06:29:38Z</time>
      </trkpt>
      <trkpt lat="45.16816" lon="5.65624">
        <ele>951</ele>
        <time>2011-07-04T06:29:39Z</time>
      </trkpt>
      <trkpt lat="45.16821" lon="5.65631">
        <ele>950</ele>
        <time>2011-07-04T06:29:40Z</time>
      </trkpt>
      <trkpt lat="45.16826" lon="5.65642">
        <ele>949</ele>
        <time>2011-07-04T06:29:41Z</time>
      </trkpt>
      <trkpt lat="45.1683" lon="5.65649">
        <ele>949</ele>
        <time>2011-07-04T06:29:42Z</time>
      </trkpt>
      <trkpt lat="45.16835" lon="5.6566">
        <ele>949</ele>
        <time>2011-07-04T06:29:43Z</time>
      </trkpt>
      <trkpt lat="45.16839" lon="5.65668">
        <ele>949</ele>
        <time>2011-07-04T06:29:44Z</time>
      </trkpt>
      <trkpt lat="45.16842" lon="5.65676">
        <ele>948</ele>
        <time>2011-07-04T06:29:45Z</time>
      </trkpt>
      <trkpt lat="45.1684" lon="5.65684">
        <ele>947</ele>
        <time>2011-07-04T06:29:46Z</time>
      </trkpt>
      <trkpt lat="45.16842" lon="5.6569">
        <ele>947</ele>
        <time>2011-07-04T06:29:47Z</time>
      </trkpt>
      <trkpt lat="45.16844" lon="5.65699">
        <ele>947</ele>
        <time>2011-07-04T06:29:48Z</time>
      </trkpt>
      <trkpt lat="45.16847" lon="5.65708">
        <ele>946</ele>
        <time>2011-07-04T06:29:49Z</time>
      </trkpt>
      <trkpt lat="45.1685" lon="5.65716">
        <ele>945</ele>
        <time>2011-07-04T06:29:50Z</time>
      </trkpt>
      <trkpt lat="45.16856" lon="5.6573">
        <ele>945</ele>
        <time>2011-07-04T06:29:52Z</time>
      </trkpt>
      <trkpt lat="45.1686" lon="5.65737">
        <ele>944</ele>
        <time>2011-07-04T06:29:53Z</time>
      </trkpt>
      <trkpt lat="45.16863" lon="5.65743">
        <ele>944</ele>
        <time>2011-07-04T06:29:54Z</time>
      </trkpt>
      <trkpt lat="45.16866" lon="5.65753">
        <ele>944</ele>
        <time>2011-07-04T06:29:55Z</time>
      </trkpt>
      <trkpt lat="45.16873" lon="5.6576">
        <ele>943</ele>
        <time>2011-07-04T06:29:56Z</time>
      </trkpt>
      <trkpt lat="45.16879" lon="5.65771">
        <ele>943</ele>
        <time>2011-07-04T06:29:58Z</time>
      </trkpt>
      <trkpt lat="45.16881" lon="5.65781">
        <ele>942</ele>
        <time>2011-07-04T06:30:00Z</time>
      </trkpt>
      <trkpt lat="45.16881" lon="5.65788">
        <ele>942</ele>
        <time>2011-07-04T06:30:01Z</time>
      </trkpt>
      <trkpt lat="45.16884" lon="5.65799">
        <ele>941</ele>
        <time>2011-07-04T06:30:03Z</time>
      </trkpt>
      <trkpt lat="45.16883" lon="5.65807">
        <ele>941</ele>
        <time>2011-07-04T06:30:04Z</time>
      </trkpt>
      <trkpt lat="45.16882" lon="5.65814">
        <ele>940</ele>
        <time>2011-07-04T06:30:05Z</time>
      </trkpt>
      <trkpt lat="45.16876" lon="5.65822">
        <ele>940</ele>
        <time>2011-07-04T06:30:06Z</time>
      </trkpt>
      <trkpt lat="45.16872" lon="5.65828">
        <ele>940</ele>
        <time>2011-07-04T06:30:07Z</time>
      </trkpt>
      <trkpt lat="45.16874" lon="5.65836">
        <ele>940</ele>
        <time>2011-07-04T06:30:08Z</time>
      </trkpt>
      <trkpt lat="45.16873" lon="5.65843">
        <ele>939</ele>
        <time>2011-07-04T06:30:09Z</time>
      </trkpt>
      <trkpt lat="45.16875" lon="5.65856">
        <ele>938</ele>
        <time>2011-07-04T06:30:11Z</time>
      </trkpt>
      <trkpt lat="45.16879" lon="5.65863">
        <ele>936</ele>
        <time>2011-07-04T06:30:13Z</time>
      </trkpt>
      <trkpt lat="45.16882" lon="5.65873">
        <ele>935</ele>
        <time>2011-07-04T06:30:15Z</time>
      </trkpt>
      <trkpt lat="45.16886" lon="5.65883">
        <ele>934</ele>
        <time>2011-07-04T06:30:17Z</time>
      </trkpt>
      <trkpt lat="45.16889" lon="5.65889">
        <ele>933</ele>
        <time>2011-07-04T06:30:18Z</time>
      </trkpt>
      <trkpt lat="45.16896" lon="5.65899">
        <ele>932</ele>
        <time>2011-07-04T06:30:20Z</time>
      </trkpt>
      <trkpt lat="45.169" lon="5.65906">
        <ele>930</ele>
        <time>2011-07-04T06:30:22Z</time>
      </trkpt>
      <trkpt lat="45.16904" lon="5.65916">
        <ele>929</ele>
        <time>2011-07-04T06:30:24Z</time>
      </trkpt>
      <trkpt lat="45.16908" lon="5.65922">
        <ele>928</ele>
        <time>2011-07-04T06:30:26Z</time>
      </trkpt>
      <trkpt lat="45.16911" lon="5.65933">
        <ele>925</ele>
        <time>2011-07-04T06:30:28Z</time>
      </trkpt>
      <trkpt lat="45.16914" lon="5.65938">
        <ele>922</ele>
        <time>2011-07-04T06:30:30Z</time>
      </trkpt>
      <trkpt lat="45.16919" lon="5.65947">
        <ele>921</ele>
        <time>2011-07-04T06:30:32Z</time>
      </trkpt>
      <trkpt lat="45.16921" lon="5.65954">
        <ele>920</ele>
        <time>2011-07-04T06:30:33Z</time>
      </trkpt>
      <trkpt lat="45.16922" lon="5.65962">
        <ele>918</ele>
        <time>2011-07-04T06:30:35Z</time>
      </trkpt>
      <trkpt lat="45.16922" lon="5.65969">
        <ele>917</ele>
        <time>2011-07-04T06:30:36Z</time>
      </trkpt>
      <trkpt lat="45.16926" lon="5.65978">
        <ele>914</ele>
        <time>2011-07-04T06:30:38Z</time>
      </trkpt>
      <trkpt lat="45.1693" lon="5.65987">
        <ele>912</ele>
        <time>2011-07-04T06:30:40Z</time>
      </trkpt>
      <trkpt lat="45.16934" lon="5.65998">
        <ele>910</ele>
        <time>2011-07-04T06:30:42Z</time>
      </trkpt>
      <trkpt lat="45.16936" lon="5.66006">
        <ele>907</ele>
        <time>2011-07-04T06:30:43Z</time>
      </trkpt>
      <trkpt lat="45.16938" lon="5.66012">
        <ele>906</ele>
        <time>2011-07-04T06:30:44Z</time>
      </trkpt>
      <trkpt lat="45.16941" lon="5.66021">
        <ele>902</ele>
        <time>2011-07-04T06:30:46Z</time>
      </trkpt>
      <trkpt lat="45.16944" lon="5.66026">
        <ele>898</ele>
        <time>2011-07-04T06:30:47Z</time>
      </trkpt>
      <trkpt lat="45.16948" lon="5.66036">
        <ele>893</ele>
        <time>2011-07-04T06:30:49Z</time>
      </trkpt>
      <trkpt lat="45.16952" lon="5.66042">
        <ele>889</ele>
        <time>2011-07-04T06:30:52Z</time>
      </trkpt>
      <trkpt lat="45.16949" lon="5.66049">
        <ele>884</ele>
        <time>2011-07-04T06:31:01Z</time>
      </trkpt>
      <trkpt lat="45.16947" lon="5.66057">
        <ele>884</ele>
        <time>2011-07-04T06:31:04Z</time>
      </trkpt>
      <trkpt lat="45.16946" lon="5.66068">
        <ele>883</ele>
        <time>2011-07-04T06:31:06Z</time>
      </trkpt>
      <trkpt lat="45.16948" lon="5.66079">
        <ele>882</ele>
        <time>2011-07-04T06:31:08Z</time>
      </trkpt>
      <trkpt lat="45.16955" lon="5.66089">
        <ele>881</ele>
        <time>2011-07-04T06:31:10Z</time>
      </trkpt>
      <trkpt lat="45.16956" lon="5.66096">
        <ele>880</ele>
        <time>2011-07-04T06:31:12Z</time>
      </trkpt>
      <trkpt lat="45.16955" lon="5.66104">
        <ele>877</ele>
        <time>2011-07-04T06:31:15Z</time>
      </trkpt>
      <trkpt lat="45.16956" lon="5.66116">
        <ele>876</ele>
        <time>2011-07-04T06:31:17Z</time>
      </trkpt>
      <trkpt lat="45.16959" lon="5.66127">
        <ele>875</ele>
        <time>2011-07-04T06:31:19Z</time>
      </trkpt>
      <trkpt lat="45.16965" lon="5.66132">
        <ele>873</ele>
        <time>2011-07-04T06:31:21Z</time>
      </trkpt>
      <trkpt lat="45.16968" lon="5.66141">
        <ele>871</ele>
        <time>2011-07-04T06:31:22Z</time>
      </trkpt>
      <trkpt lat="45.1697" lon="5.66147">
        <ele>870</ele>
        <time>2011-07-04T06:31:23Z</time>
      </trkpt>
      <trkpt lat="45.16973" lon="5.66153">
        <ele>869</ele>
        <time>2011-07-04T06:31:24Z</time>
      </trkpt>
      <trkpt lat="45.16971" lon="5.66162">
        <ele>868</ele>
        <time>2011-07-04T06:31:26Z</time>
      </trkpt>
      <trkpt lat="45.16969" lon="5.66169">
        <ele>866</ele>
        <time>2011-07-04T06:31:30Z</time>
      </trkpt>
      <trkpt lat="45.16964" lon="5.66175">
        <ele>863</ele>
        <time>2011-07-04T06:31:34Z</time>
      </trkpt>
      <trkpt lat="45.16969" lon="5.66185">
        <ele>859</ele>
        <time>2011-07-04T06:31:52Z</time>
      </trkpt>
      <trkpt lat="45.16971" lon="5.66199">
        <ele>855</ele>
        <time>2011-07-04T06:31:54Z</time>
      </trkpt>
      <trkpt lat="45.1697" lon="5.66206">
        <ele>856</ele>
        <time>2011-07-04T06:31:55Z</time>
      </trkpt>
      <trkpt lat="45.16972" lon="5.66219">
        <ele>857</ele>
        <time>2011-07-04T06:31:58Z</time>
      </trkpt>
      <trkpt lat="45.16976" lon="5.66224">
        <ele>856</ele>
        <time>2011-07-04T06:32:00Z</time>
      </trkpt>
      <trkpt lat="45.16979" lon="5.6623">
        <ele>855</ele>
        <time>2011-07-04T06:32:02Z</time>
      </trkpt>
      <trkpt lat="45.16983" lon="5.66234">
        <ele>855</ele>
        <time>2011-07-04T06:32:04Z</time>
      </trkpt>
      <trkpt lat="45.1699" lon="5.66244">
        <ele>854</ele>
        <time>2011-07-04T06:32:07Z</time>
      </trkpt>
      <trkpt lat="45.16992" lon="5.66252">
        <ele>853</ele>
        <time>2011-07-04T06:32:10Z</time>
      </trkpt>
      <trkpt lat="45.16996" lon="5.66259">
        <ele>851</ele>
        <time>2011-07-04T06:32:12Z</time>
      </trkpt>
      <trkpt lat="45.16999" lon="5.66267">
        <ele>849</ele>
        <time>2011-07-04T06:32:16Z</time>
      </trkpt>
      <trkpt lat="45.17004" lon="5.66273">
        <ele>847</ele>
        <time>2011-07-04T06:32:19Z</time>
      </trkpt>
      <trkpt lat="45.17007" lon="5.66281">
        <ele>845</ele>
        <time>2011-07-04T06:32:22Z</time>
      </trkpt>
      <trkpt lat="45.17009" lon="5.66286">
        <ele>844</ele>
        <time>2011-07-04T06:32:24Z</time>
      </trkpt>
      <trkpt lat="45.17014" lon="5.66293">
        <ele>841</ele>
        <time>2011-07-04T06:32:26Z</time>
      </trkpt>
      <trkpt lat="45.17019" lon="5.66298">
        <ele>840</ele>
        <time>2011-07-04T06:32:29Z</time>
      </trkpt>
      <trkpt lat="45.1702" lon="5.66304">
        <ele>839</ele>
        <time>2011-07-04T06:32:31Z</time>
      </trkpt>
      <trkpt lat="45.17024" lon="5.6631">
        <ele>837</ele>
        <time>2011-07-04T06:32:34Z</time>
      </trkpt>
      <trkpt lat="45.17027" lon="5.66318">
        <ele>836</ele>
        <time>2011-07-04T06:32:36Z</time>
      </trkpt>
      <trkpt lat="45.1703" lon="5.66323">
        <ele>834</ele>
        <time>2011-07-04T06:32:38Z</time>
      </trkpt>
      <trkpt lat="45.17031" lon="5.6633">
        <ele>833</ele>
        <time>2011-07-04T06:32:41Z</time>
      </trkpt>
      <trkpt lat="45.17034" lon="5.66335">
        <ele>832</ele>
        <time>2011-07-04T06:32:43Z</time>
      </trkpt>
      <trkpt lat="45.17038" lon="5.66342">
        <ele>833</ele>
        <time>2011-07-04T06:32:45Z</time>
      </trkpt>
      <trkpt lat="45.17042" lon="5.66347">
        <ele>830</ele>
        <time>2011-07-04T06:32:51Z</time>
      </trkpt>
      <trkpt lat="45.17044" lon="5.66354">
        <ele>831</ele>
        <time>2011-07-04T06:32:55Z</time>
      </trkpt>
      <trkpt lat="45.1705" lon="5.66359">
        <ele>831</ele>
        <time>2011-07-04T06:32:58Z</time>
      </trkpt>
      <trkpt lat="45.17053" lon="5.66364">
        <ele>830</ele>
        <time>2011-07-04T06:33:02Z</time>
      </trkpt>
      <trkpt lat="45.17054" lon="5.6637">
        <ele>826</ele>
        <time>2011-07-04T06:33:08Z</time>
      </trkpt>
      <trkpt lat="45.17078" lon="5.66358">
        <ele>821</ele>
        <time>2011-07-04T06:33:47Z</time>
      </trkpt>
      <trkpt lat="45.17094" lon="5.6635">
        <ele>812</ele>
        <time>2011-07-04T06:33:50Z</time>
      </trkpt>
      <trkpt lat="45.17102" lon="5.66351">
        <ele>807</ele>
        <time>2011-07-04T06:33:53Z</time>
      </trkpt>
      <trkpt lat="45.17113" lon="5.66353">
        <ele>803</ele>
        <time>2011-07-04T06:33:56Z</time>
      </trkpt>
      <trkpt lat="45.17127" lon="5.66355">
        <ele>802</ele>
        <time>2011-07-04T06:34:00Z</time>
      </trkpt>
      <trkpt lat="45.17133" lon="5.66355">
        <ele>799</ele>
        <time>2011-07-04T06:34:02Z</time>
      </trkpt>
      <trkpt lat="45.17141" lon="5.66357">
        <ele>798</ele>
        <time>2011-07-04T06:34:04Z</time>
      </trkpt>
      <trkpt lat="45.17147" lon="5.66356">
        <ele>797</ele>
        <time>2011-07-04T06:34:06Z</time>
      </trkpt>
      <trkpt lat="45.17146" lon="5.66366">
        <ele>794</ele>
        <time>2011-07-04T06:34:10Z</time>
      </trkpt>
      <trkpt lat="45.17148" lon="5.66356">
        <ele>791</ele>
        <time>2011-07-04T06:34:12Z</time>
      </trkpt>
      <trkpt lat="45.17143" lon="5.66356">
        <ele>791</ele>
        <time>2011-07-04T06:34:13Z</time>
      </trkpt>
      <trkpt lat="45.17135" lon="5.66358">
        <ele>788</ele>
        <time>2011-07-04T06:34:15Z</time>
      </trkpt>
      <trkpt lat="45.1713" lon="5.66363">
        <ele>787</ele>
        <time>2011-07-04T06:34:17Z</time>
      </trkpt>
      <trkpt lat="45.17125" lon="5.66367">
        <ele>787</ele>
        <time>2011-07-04T06:34:18Z</time>
      </trkpt>
      <trkpt lat="45.1712" lon="5.66372">
        <ele>786</ele>
        <time>2011-07-04T06:34:20Z</time>
      </trkpt>
      <trkpt lat="45.17116" lon="5.6638">
        <ele>786</ele>
        <time>2011-07-04T06:34:21Z</time>
      </trkpt>
      <trkpt lat="45.17111" lon="5.66386">
        <ele>786</ele>
        <time>2011-07-04T06:34:22Z</time>
      </trkpt>
      <trkpt lat="45.17108" lon="5.664">
        <ele>786</ele>
        <time>2011-07-04T06:34:24Z</time>
      </trkpt>
      <trkpt lat="45.17102" lon="5.6641">
        <ele>786</ele>
        <time>2011-07-04T06:34:25Z</time>
      </trkpt>
      <trkpt lat="45.17099" lon="5.66418">
        <ele>785</ele>
        <time>2011-07-04T06:34:26Z</time>
      </trkpt>
      <trkpt lat="45.17097" lon="5.66428">
        <ele>783</ele>
        <time>2011-07-04T06:34:27Z</time>
      </trkpt>
      <trkpt lat="45.17092" lon="5.66434">
        <ele>783</ele>
        <time>2011-07-04T06:34:28Z</time>
      </trkpt>
      <trkpt lat="45.17088" lon="5.66438">
        <ele>782</ele>
        <time>2011-07-04T06:34:29Z</time>
      </trkpt>
      <trkpt lat="45.17087" lon="5.66447">
        <ele>776</ele>
        <time>2011-07-04T06:34:32Z</time>
      </trkpt>
      <trkpt lat="45.17084" lon="5.66453">
        <ele>773</ele>
        <time>2011-07-04T06:34:33Z</time>
      </trkpt>
      <trkpt lat="45.17076" lon="5.6646">
        <ele>772</ele>
        <time>2011-07-04T06:34:35Z</time>
      </trkpt>
      <trkpt lat="45.1707" lon="5.66466">
        <ele>771</ele>
        <time>2011-07-04T06:34:37Z</time>
      </trkpt>
      <trkpt lat="45.17068" lon="5.66473">
        <ele>770</ele>
        <time>2011-07-04T06:34:40Z</time>
      </trkpt>
      <trkpt lat="45.17072" lon="5.66478">
        <ele>769</ele>
        <time>2011-07-04T06:34:42Z</time>
      </trkpt>
      <trkpt lat="45.17077" lon="5.66481">
        <ele>768</ele>
        <time>2011-07-04T06:34:43Z</time>
      </trkpt>
      <trkpt lat="45.17084" lon="5.66486">
        <ele>766</ele>
        <time>2011-07-04T06:34:45Z</time>
      </trkpt>
      <trkpt lat="45.17091" lon="5.66491">
        <ele>763</ele>
        <time>2011-07-04T06:34:47Z</time>
      </trkpt>
      <trkpt lat="45.17095" lon="5.66496">
        <ele>760</ele>
        <time>2011-07-04T06:34:48Z</time>
      </trkpt>
      <trkpt lat="45.17099" lon="5.66499">
        <ele>760</ele>
        <time>2011-07-04T06:34:49Z</time>
      </trkpt>
      <trkpt lat="45.17103" lon="5.66504">
        <ele>759</ele>
        <time>2011-07-04T06:34:51Z</time>
      </trkpt>
      <trkpt lat="45.17108" lon="5.66505">
        <ele>758</ele>
        <time>2011-07-04T06:34:52Z</time>
      </trkpt>
      <trkpt lat="45.17112" lon="5.66511">
        <ele>756</ele>
        <time>2011-07-04T06:34:54Z</time>
      </trkpt>
      <trkpt lat="45.17118" lon="5.66514">
        <ele>754</ele>
        <time>2011-07-04T06:34:58Z</time>
      </trkpt>
      <trkpt lat="45.17118" lon="5.66521">
        <ele>748</ele>
        <time>2011-07-04T06:35:04Z</time>
      </trkpt>
      <trkpt lat="45.17117" lon="5.66529">
        <ele>747</ele>
        <time>2011-07-04T06:35:06Z</time>
      </trkpt>
      <trkpt lat="45.17116" lon="5.66539">
        <ele>746</ele>
        <time>2011-07-04T06:35:08Z</time>
      </trkpt>
      <trkpt lat="45.17114" lon="5.66547">
        <ele>746</ele>
        <time>2011-07-04T06:35:09Z</time>
      </trkpt>
      <trkpt lat="45.1711" lon="5.66555">
        <ele>746</ele>
        <time>2011-07-04T06:35:10Z</time>
      </trkpt>
      <trkpt lat="45.17107" lon="5.66561">
        <ele>746</ele>
        <time>2011-07-04T06:35:11Z</time>
      </trkpt>
      <trkpt lat="45.17103" lon="5.66568">
        <ele>745</ele>
        <time>2011-07-04T06:35:12Z</time>
      </trkpt>
      <trkpt lat="45.17101" lon="5.66577">
        <ele>745</ele>
        <time>2011-07-04T06:35:13Z</time>
      </trkpt>
      <trkpt lat="45.17101" lon="5.66587">
        <ele>745</ele>
        <time>2011-07-04T06:35:14Z</time>
      </trkpt>
      <trkpt lat="45.17102" lon="5.66598">
        <ele>745</ele>
        <time>2011-07-04T06:35:15Z</time>
      </trkpt>
      <trkpt lat="45.17104" lon="5.66608">
        <ele>745</ele>
        <time>2011-07-04T06:35:16Z</time>
      </trkpt>
      <trkpt lat="45.17108" lon="5.66616">
        <ele>744</ele>
        <time>2011-07-04T06:35:17Z</time>
      </trkpt>
      <trkpt lat="45.17112" lon="5.66624">
        <ele>743</ele>
        <time>2011-07-04T06:35:18Z</time>
      </trkpt>
      <trkpt lat="45.17118" lon="5.66631">
        <ele>743</ele>
        <time>2011-07-04T06:35:19Z</time>
      </trkpt>
      <trkpt lat="45.17123" lon="5.66642">
        <ele>742</ele>
        <time>2011-07-04T06:35:20Z</time>
      </trkpt>
      <trkpt lat="45.17128" lon="5.66654">
        <ele>742</ele>
        <time>2011-07-04T06:35:21Z</time>
      </trkpt>
      <trkpt lat="45.17131" lon="5.66664">
        <ele>742</ele>
        <time>2011-07-04T06:35:22Z</time>
      </trkpt>
      <trkpt lat="45.17134" lon="5.66674">
        <ele>741</ele>
        <time>2011-07-04T06:35:23Z</time>
      </trkpt>
      <trkpt lat="45.1714" lon="5.66682">
        <ele>740</ele>
        <time>2011-07-04T06:35:24Z</time>
      </trkpt>
      <trkpt lat="45.17145" lon="5.66688">
        <ele>739</ele>
        <time>2011-07-04T06:35:25Z</time>
      </trkpt>
      <trkpt lat="45.1715" lon="5.66695">
        <ele>739</ele>
        <time>2011-07-04T06:35:26Z</time>
      </trkpt>
      <trkpt lat="45.17155" lon="5.66698">
        <ele>739</ele>
        <time>2011-07-04T06:35:27Z</time>
      </trkpt>
      <trkpt lat="45.1717" lon="5.66689">
        <ele>739</ele>
        <time>2011-07-04T06:35:28Z</time>
      </trkpt>
      <trkpt lat="45.17169" lon="5.66696">
        <ele>734</ele>
        <time>2011-07-04T06:35:35Z</time>
      </trkpt>
      <trkpt lat="45.17175" lon="5.66696">
        <ele>732</ele>
        <time>2011-07-04T06:35:39Z</time>
      </trkpt>
      <trkpt lat="45.17175" lon="5.66696">
        <ele>732</ele>
        <time>2011-07-04T06:35:39Z</time>
      </trkpt>
      <trkpt lat="45.17175" lon="5.66696">
        <ele>732</ele>
        <time>2011-07-04T06:35:40Z</time>
      </trkpt>
      <trkpt lat="45.17175" lon="5.66686">
        <ele>733</ele>
        <time>2011-07-04T06:35:43Z</time>
      </trkpt>
      <trkpt lat="45.17174" lon="5.66679">
        <ele>733</ele>
        <time>2011-07-04T06:35:45Z</time>
      </trkpt>
      <trkpt lat="45.17176" lon="5.66671">
        <ele>733</ele>
        <time>2011-07-04T06:35:47Z</time>
      </trkpt>
      <trkpt lat="45.17174" lon="5.66663">
        <ele>733</ele>
        <time>2011-07-04T06:35:48Z</time>
      </trkpt>
      <trkpt lat="45.17173" lon="5.66655">
        <ele>733</ele>
        <time>2011-07-04T06:35:49Z</time>
      </trkpt>
      <trkpt lat="45.17174" lon="5.66647">
        <ele>732</ele>
        <time>2011-07-04T06:35:50Z</time>
      </trkpt>
      <trkpt lat="45.17174" lon="5.66638">
        <ele>732</ele>
        <time>2011-07-04T06:35:51Z</time>
      </trkpt>
      <trkpt lat="45.17194" lon="5.66591">
        <ele>732</ele>
        <time>2011-07-04T06:35:54Z</time>
      </trkpt>
      <trkpt lat="45.172" lon="5.66583">
        <ele>733</ele>
        <time>2011-07-04T06:35:55Z</time>
      </trkpt>
      <trkpt lat="45.1721" lon="5.66568">
        <ele>733</ele>
        <time>2011-07-04T06:35:58Z</time>
      </trkpt>
      <trkpt lat="45.17213" lon="5.66561">
        <ele>733</ele>
        <time>2011-07-04T06:35:59Z</time>
      </trkpt>
      <trkpt lat="45.17218" lon="5.66556">
        <ele>732</ele>
        <time>2011-07-04T06:36:02Z</time>
      </trkpt>
      <trkpt lat="45.17222" lon="5.66551">
        <ele>732</ele>
        <time>2011-07-04T06:36:03Z</time>
      </trkpt>
      <trkpt lat="45.17226" lon="5.66547">
        <ele>731</ele>
        <time>2011-07-04T06:36:04Z</time>
      </trkpt>
      <trkpt lat="45.17231" lon="5.6654">
        <ele>730</ele>
        <time>2011-07-04T06:36:05Z</time>
      </trkpt>
      <trkpt lat="45.17236" lon="5.66527">
        <ele>729</ele>
        <time>2011-07-04T06:36:06Z</time>
      </trkpt>
      <trkpt lat="45.17244" lon="5.66518">
        <ele>727</ele>
        <time>2011-07-04T06:36:08Z</time>
      </trkpt>
      <trkpt lat="45.17249" lon="5.66512">
        <ele>725</ele>
        <time>2011-07-04T06:36:10Z</time>
      </trkpt>
      <trkpt lat="45.17254" lon="5.6651">
        <ele>723</ele>
        <time>2011-07-04T06:36:11Z</time>
      </trkpt>
      <trkpt lat="45.17259" lon="5.66508">
        <ele>723</ele>
        <time>2011-07-04T06:36:13Z</time>
      </trkpt>
      <trkpt lat="45.17264" lon="5.66507">
        <ele>721</ele>
        <time>2011-07-04T06:36:14Z</time>
      </trkpt>
      <trkpt lat="45.17272" lon="5.66506">
        <ele>719</ele>
        <time>2011-07-04T06:36:16Z</time>
      </trkpt>
      <trkpt lat="45.17278" lon="5.665">
        <ele>719</ele>
        <time>2011-07-04T06:36:17Z</time>
      </trkpt>
      <trkpt lat="45.17286" lon="5.66495">
        <ele>719</ele>
        <time>2011-07-04T06:36:19Z</time>
      </trkpt>
      <trkpt lat="45.17293" lon="5.66494">
        <ele>716</ele>
        <time>2011-07-04T06:36:21Z</time>
      </trkpt>
      <trkpt lat="45.17306" lon="5.66488">
        <ele>715</ele>
        <time>2011-07-04T06:36:23Z</time>
      </trkpt>
      <trkpt lat="45.17315" lon="5.66485">
        <ele>714</ele>
        <time>2011-07-04T06:36:25Z</time>
      </trkpt>
      <trkpt lat="45.1732" lon="5.66481">
        <ele>713</ele>
        <time>2011-07-04T06:36:26Z</time>
      </trkpt>
      <trkpt lat="45.17327" lon="5.66478">
        <ele>712</ele>
        <time>2011-07-04T06:36:28Z</time>
      </trkpt>
      <trkpt lat="45.17333" lon="5.66473">
        <ele>712</ele>
        <time>2011-07-04T06:36:30Z</time>
      </trkpt>
      <trkpt lat="45.17335" lon="5.66462">
        <ele>712</ele>
        <time>2011-07-04T06:36:32Z</time>
      </trkpt>
      <trkpt lat="45.17337" lon="5.66453">
        <ele>712</ele>
        <time>2011-07-04T06:36:33Z</time>
      </trkpt>
      <trkpt lat="45.1734" lon="5.66444">
        <ele>712</ele>
        <time>2011-07-04T06:36:34Z</time>
      </trkpt>
      <trkpt lat="45.17344" lon="5.66437">
        <ele>711</ele>
        <time>2011-07-04T06:36:35Z</time>
      </trkpt>
      <trkpt lat="45.17351" lon="5.6643">
        <ele>711</ele>
        <time>2011-07-04T06:36:37Z</time>
      </trkpt>
      <trkpt lat="45.17356" lon="5.66425">
        <ele>712</ele>
        <time>2011-07-04T06:36:38Z</time>
      </trkpt>
      <trkpt lat="45.1736" lon="5.6642">
        <ele>711</ele>
        <time>2011-07-04T06:36:39Z</time>
      </trkpt>
      <trkpt lat="45.17365" lon="5.66414">
        <ele>710</ele>
        <time>2011-07-04T06:36:41Z</time>
      </trkpt>
      <trkpt lat="45.17372" lon="5.66408">
        <ele>710</ele>
        <time>2011-07-04T06:36:43Z</time>
      </trkpt>
      <trkpt lat="45.17379" lon="5.66402">
        <ele>710</ele>
        <time>2011-07-04T06:36:45Z</time>
      </trkpt>
      <trkpt lat="45.17383" lon="5.664">
        <ele>710</ele>
        <time>2011-07-04T06:36:46Z</time>
      </trkpt>
      <trkpt lat="45.17391" lon="5.66393">
        <ele>710</ele>
        <time>2011-07-04T06:36:48Z</time>
      </trkpt>
      <trkpt lat="45.17398" lon="5.66389">
        <ele>708</ele>
        <time>2011-07-04T06:36:50Z</time>
      </trkpt>
      <trkpt lat="45.17407" lon="5.66384">
        <ele>708</ele>
        <time>2011-07-04T06:36:52Z</time>
      </trkpt>
      <trkpt lat="45.17411" lon="5.66392">
        <ele>706</ele>
        <time>2011-07-04T06:36:58Z</time>
      </trkpt>
      <trkpt lat="45.17416" lon="5.66395">
        <ele>707</ele>
        <time>2011-07-04T06:37:00Z</time>
      </trkpt>
      <trkpt lat="45.17422" lon="5.66398">
        <ele>708</ele>
        <time>2011-07-04T06:37:02Z</time>
      </trkpt>
      <trkpt lat="45.17428" lon="5.664">
        <ele>707</ele>
        <time>2011-07-04T06:37:05Z</time>
      </trkpt>
      <trkpt lat="45.17432" lon="5.66407">
        <ele>707</ele>
        <time>2011-07-04T06:37:07Z</time>
      </trkpt>
      <trkpt lat="45.17438" lon="5.66408">
        <ele>707</ele>
        <time>2011-07-04T06:37:09Z</time>
      </trkpt>
      <trkpt lat="45.17443" lon="5.66408">
        <ele>707</ele>
        <time>2011-07-04T06:37:10Z</time>
      </trkpt>
      <trkpt lat="45.17454" lon="5.66406">
        <ele>707</ele>
        <time>2011-07-04T06:37:12Z</time>
      </trkpt>
      <trkpt lat="45.17455" lon="5.66413">
        <ele>709</ele>
        <time>2011-07-04T06:37:14Z</time>
      </trkpt>
      <trkpt lat="45.17463" lon="5.6641">
        <ele>708</ele>
        <time>2011-07-04T06:37:16Z</time>
      </trkpt>
      <trkpt lat="45.17468" lon="5.66412">
        <ele>708</ele>
        <time>2011-07-04T06:37:18Z</time>
      </trkpt>
      <trkpt lat="45.17474" lon="5.66413">
        <ele>709</ele>
        <time>2011-07-04T06:37:21Z</time>
      </trkpt>
      <trkpt lat="45.17482" lon="5.66411">
        <ele>709</ele>
        <time>2011-07-04T06:37:23Z</time>
      </trkpt>
      <trkpt lat="45.17487" lon="5.66411">
        <ele>709</ele>
        <time>2011-07-04T06:37:24Z</time>
      </trkpt>
      <trkpt lat="45.17496" lon="5.66408">
        <ele>709</ele>
        <time>2011-07-04T06:37:26Z</time>
      </trkpt>
      <trkpt lat="45.17501" lon="5.66405">
        <ele>709</ele>
        <time>2011-07-04T06:37:27Z</time>
      </trkpt>
      <trkpt lat="45.17506" lon="5.66404">
        <ele>709</ele>
        <time>2011-07-04T06:37:28Z</time>
      </trkpt>
      <trkpt lat="45.17512" lon="5.66403">
        <ele>709</ele>
        <time>2011-07-04T06:37:29Z</time>
      </trkpt>
      <trkpt lat="45.17524" lon="5.66398">
        <ele>707</ele>
        <time>2011-07-04T06:37:30Z</time>
      </trkpt>
      <trkpt lat="45.17531" lon="5.66397">
        <ele>707</ele>
        <time>2011-07-04T06:37:31Z</time>
      </trkpt>
      <trkpt lat="45.17549" lon="5.66392">
        <ele>708</ele>
        <time>2011-07-04T06:37:34Z</time>
      </trkpt>
      <trkpt lat="45.17553" lon="5.66391">
        <ele>708</ele>
        <time>2011-07-04T06:37:35Z</time>
      </trkpt>
      <trkpt lat="45.1756" lon="5.66387">
        <ele>708</ele>
        <time>2011-07-04T06:37:36Z</time>
      </trkpt>
      <trkpt lat="45.17568" lon="5.66382">
        <ele>708</ele>
        <time>2011-07-04T06:37:37Z</time>
      </trkpt>
      <trkpt lat="45.17575" lon="5.66372">
        <ele>708</ele>
        <time>2011-07-04T06:37:38Z</time>
      </trkpt>
      <trkpt lat="45.17583" lon="5.66358">
        <ele>706</ele>
        <time>2011-07-04T06:37:39Z</time>
      </trkpt>
      <trkpt lat="45.17589" lon="5.66352">
        <ele>706</ele>
        <time>2011-07-04T06:37:40Z</time>
      </trkpt>
      <trkpt lat="45.17594" lon="5.66346">
        <ele>707</ele>
        <time>2011-07-04T06:37:41Z</time>
      </trkpt>
      <trkpt lat="45.17599" lon="5.66338">
        <ele>707</ele>
        <time>2011-07-04T06:37:42Z</time>
      </trkpt>
      <trkpt lat="45.17604" lon="5.66332">
        <ele>707</ele>
        <time>2011-07-04T06:37:43Z</time>
      </trkpt>
      <trkpt lat="45.17617" lon="5.66318">
        <ele>707</ele>
        <time>2011-07-04T06:37:45Z</time>
      </trkpt>
      <trkpt lat="45.17624" lon="5.66314">
        <ele>707</ele>
        <time>2011-07-04T06:37:46Z</time>
      </trkpt>
      <trkpt lat="45.17631" lon="5.66308">
        <ele>707</ele>
        <time>2011-07-04T06:37:47Z</time>
      </trkpt>
      <trkpt lat="45.17636" lon="5.66302">
        <ele>707</ele>
        <time>2011-07-04T06:37:48Z</time>
      </trkpt>
      <trkpt lat="45.17642" lon="5.66297">
        <ele>707</ele>
        <time>2011-07-04T06:37:49Z</time>
      </trkpt>
      <trkpt lat="45.1765" lon="5.66295">
        <ele>707</ele>
        <time>2011-07-04T06:37:50Z</time>
      </trkpt>
      <trkpt lat="45.17658" lon="5.66295">
        <ele>707</ele>
        <time>2011-07-04T06:37:51Z</time>
      </trkpt>
      <trkpt lat="45.17668" lon="5.66292">
        <ele>707</ele>
        <time>2011-07-04T06:37:52Z</time>
      </trkpt>
      <trkpt lat="45.17674" lon="5.66286">
        <ele>707</ele>
        <time>2011-07-04T06:37:53Z</time>
      </trkpt>
      <trkpt lat="45.1767" lon="5.66294">
        <ele>706</ele>
        <time>2011-07-04T06:37:54Z</time>
      </trkpt>
      <trkpt lat="45.17676" lon="5.66297">
        <ele>706</ele>
        <time>2011-07-04T06:37:55Z</time>
      </trkpt>
      <trkpt lat="45.17681" lon="5.66298">
        <ele>706</ele>
        <time>2011-07-04T06:37:56Z</time>
      </trkpt>
      <trkpt lat="45.1768" lon="5.66304">
        <ele>705</ele>
        <time>2011-07-04T06:37:58Z</time>
      </trkpt>
      <trkpt lat="45.17686" lon="5.66305">
        <ele>706</ele>
        <time>2011-07-04T06:37:59Z</time>
      </trkpt>
      <trkpt lat="45.1769" lon="5.66309">
        <ele>706</ele>
        <time>2011-07-04T06:38:00Z</time>
      </trkpt>
      <trkpt lat="45.17695" lon="5.6631">
        <ele>706</ele>
        <time>2011-07-04T06:38:01Z</time>
      </trkpt>
      <trkpt lat="45.17699" lon="5.66313">
        <ele>706</ele>
        <time>2011-07-04T06:38:02Z</time>
      </trkpt>
      <trkpt lat="45.17705" lon="5.66308">
        <ele>706</ele>
        <time>2011-07-04T06:38:03Z</time>
      </trkpt>
      <trkpt lat="45.1771" lon="5.66306">
        <ele>706</ele>
        <time>2011-07-04T06:38:04Z</time>
      </trkpt>
      <trkpt lat="45.17714" lon="5.66302">
        <ele>706</ele>
        <time>2011-07-04T06:38:05Z</time>
      </trkpt>
      <trkpt lat="45.17719" lon="5.66296">
        <ele>705</ele>
        <time>2011-07-04T06:38:06Z</time>
      </trkpt>
      <trkpt lat="45.17726" lon="5.66293">
        <ele>704</ele>
        <time>2011-07-04T06:38:08Z</time>
      </trkpt>
      <trkpt lat="45.17733" lon="5.66289">
        <ele>704</ele>
        <time>2011-07-04T06:38:10Z</time>
      </trkpt>
      <trkpt lat="45.17737" lon="5.66293">
        <ele>704</ele>
        <time>2011-07-04T06:38:12Z</time>
      </trkpt>
      <trkpt lat="45.17744" lon="5.66295">
        <ele>703</ele>
        <time>2011-07-04T06:38:15Z</time>
      </trkpt>
      <trkpt lat="45.17748" lon="5.66301">
        <ele>702</ele>
        <time>2011-07-04T06:38:18Z</time>
      </trkpt>
      <trkpt lat="45.17755" lon="5.66308">
        <ele>703</ele>
        <time>2011-07-04T06:38:20Z</time>
      </trkpt>
      <trkpt lat="45.17761" lon="5.66314">
        <ele>702</ele>
        <time>2011-07-04T06:38:21Z</time>
      </trkpt>
      <trkpt lat="45.17767" lon="5.66317">
        <ele>701</ele>
        <time>2011-07-04T06:38:22Z</time>
      </trkpt>
      <trkpt lat="45.17773" lon="5.66323">
        <ele>700</ele>
        <time>2011-07-04T06:38:23Z</time>
      </trkpt>
      <trkpt lat="45.17778" lon="5.66329">
        <ele>700</ele>
        <time>2011-07-04T06:38:24Z</time>
      </trkpt>
      <trkpt lat="45.17782" lon="5.66333">
        <ele>700</ele>
        <time>2011-07-04T06:38:25Z</time>
      </trkpt>
      <trkpt lat="45.17788" lon="5.66335">
        <ele>699</ele>
        <time>2011-07-04T06:38:26Z</time>
      </trkpt>
      <trkpt lat="45.17792" lon="5.66339">
        <ele>699</ele>
        <time>2011-07-04T06:38:27Z</time>
      </trkpt>
      <trkpt lat="45.17797" lon="5.66342">
        <ele>698</ele>
        <time>2011-07-04T06:38:28Z</time>
      </trkpt>
      <trkpt lat="45.17803" lon="5.66346">
        <ele>698</ele>
        <time>2011-07-04T06:38:29Z</time>
      </trkpt>
      <trkpt lat="45.17808" lon="5.66348">
        <ele>699</ele>
        <time>2011-07-04T06:38:30Z</time>
      </trkpt>
      <trkpt lat="45.17815" lon="5.66348">
        <ele>698</ele>
        <time>2011-07-04T06:38:31Z</time>
      </trkpt>
      <trkpt lat="45.1782" lon="5.6635">
        <ele>698</ele>
        <time>2011-07-04T06:38:32Z</time>
      </trkpt>
      <trkpt lat="45.17828" lon="5.6635">
        <ele>698</ele>
        <time>2011-07-04T06:38:34Z</time>
      </trkpt>
      <trkpt lat="45.17836" lon="5.66342">
        <ele>698</ele>
        <time>2011-07-04T06:38:35Z</time>
      </trkpt>
      <trkpt lat="45.17842" lon="5.66336">
        <ele>698</ele>
        <time>2011-07-04T06:38:36Z</time>
      </trkpt>
      <trkpt lat="45.17842" lon="5.66336">
        <ele>698</ele>
        <time>2011-07-04T06:38:36Z</time>
      </trkpt>
      <trkpt lat="45.17842" lon="5.66336">
        <ele>698</ele>
        <time>2011-07-04T06:38:38Z</time>
      </trkpt>
      <trkpt lat="45.17849" lon="5.66332">
        <ele>697</ele>
        <time>2011-07-04T06:38:40Z</time>
      </trkpt>
      <trkpt lat="45.17854" lon="5.66326">
        <ele>698</ele>
        <time>2011-07-04T06:38:42Z</time>
      </trkpt>
      <trkpt lat="45.17859" lon="5.66325">
        <ele>697</ele>
        <time>2011-07-04T06:38:43Z</time>
      </trkpt>
      <trkpt lat="45.17866" lon="5.66322">
        <ele>695</ele>
        <time>2011-07-04T06:38:44Z</time>
      </trkpt>
      <trkpt lat="45.17871" lon="5.66317">
        <ele>695</ele>
        <time>2011-07-04T06:38:46Z</time>
      </trkpt>
      <trkpt lat="45.17876" lon="5.66311">
        <ele>695</ele>
        <time>2011-07-04T06:38:47Z</time>
      </trkpt>
      <trkpt lat="45.1788" lon="5.66303">
        <ele>694</ele>
        <time>2011-07-04T06:38:49Z</time>
      </trkpt>
      <trkpt lat="45.17883" lon="5.66297">
        <ele>694</ele>
        <time>2011-07-04T06:38:51Z</time>
      </trkpt>
      <trkpt lat="45.17892" lon="5.66291">
        <ele>694</ele>
        <time>2011-07-04T06:38:53Z</time>
      </trkpt>
      <trkpt lat="45.17898" lon="5.6629">
        <ele>694</ele>
        <time>2011-07-04T06:38:54Z</time>
      </trkpt>
      <trkpt lat="45.17903" lon="5.66288">
        <ele>694</ele>
        <time>2011-07-04T06:38:55Z</time>
      </trkpt>
      <trkpt lat="45.17913" lon="5.66281">
        <ele>694</ele>
        <time>2011-07-04T06:38:56Z</time>
      </trkpt>
      <trkpt lat="45.17919" lon="5.66278">
        <ele>693</ele>
        <time>2011-07-04T06:38:58Z</time>
      </trkpt>
      <trkpt lat="45.17925" lon="5.66273">
        <ele>693</ele>
        <time>2011-07-04T06:39:00Z</time>
      </trkpt>
      <trkpt lat="45.1793" lon="5.66268">
        <ele>693</ele>
        <time>2011-07-04T06:39:03Z</time>
      </trkpt>
      <trkpt lat="45.17937" lon="5.66268">
        <ele>692</ele>
        <time>2011-07-04T06:39:06Z</time>
      </trkpt>
      <trkpt lat="45.17941" lon="5.66265">
        <ele>692</ele>
        <time>2011-07-04T06:39:08Z</time>
      </trkpt>
      <trkpt lat="45.17951" lon="5.6626">
        <ele>693</ele>
        <time>2011-07-04T06:39:10Z</time>
      </trkpt>
      <trkpt lat="45.1796" lon="5.66256">
        <ele>693</ele>
        <time>2011-07-04T06:39:12Z</time>
      </trkpt>
      <trkpt lat="45.17971" lon="5.66252">
        <ele>693</ele>
        <time>2011-07-04T06:39:14Z</time>
      </trkpt>
      <trkpt lat="45.17976" lon="5.66252">
        <ele>692</ele>
        <time>2011-07-04T06:39:19Z</time>
      </trkpt>
      <trkpt lat="45.17979" lon="5.66244">
        <ele>692</ele>
        <time>2011-07-04T06:39:22Z</time>
      </trkpt>
      <trkpt lat="45.1798" lon="5.66237">
        <ele>691</ele>
        <time>2011-07-04T06:39:23Z</time>
      </trkpt>
      <trkpt lat="45.17979" lon="5.6623">
        <ele>691</ele>
        <time>2011-07-04T06:39:24Z</time>
      </trkpt>
      <trkpt lat="45.17985" lon="5.6622">
        <ele>691</ele>
        <time>2011-07-04T06:39:25Z</time>
      </trkpt>
      <trkpt lat="45.17985" lon="5.66211">
        <ele>690</ele>
        <time>2011-07-04T06:39:26Z</time>
      </trkpt>
      <trkpt lat="45.17985" lon="5.66202">
        <ele>690</ele>
        <time>2011-07-04T06:39:27Z</time>
      </trkpt>
      <trkpt lat="45.17985" lon="5.66193">
        <ele>691</ele>
        <time>2011-07-04T06:39:28Z</time>
      </trkpt>
      <trkpt lat="45.17984" lon="5.66184">
        <ele>691</ele>
        <time>2011-07-04T06:39:29Z</time>
      </trkpt>
      <trkpt lat="45.17986" lon="5.66177">
        <ele>690</ele>
        <time>2011-07-04T06:39:30Z</time>
      </trkpt>
      <trkpt lat="45.17989" lon="5.66171">
        <ele>690</ele>
        <time>2011-07-04T06:39:31Z</time>
      </trkpt>
      <trkpt lat="45.17988" lon="5.66162">
        <ele>690</ele>
        <time>2011-07-04T06:39:33Z</time>
      </trkpt>
      <trkpt lat="45.17991" lon="5.66156">
        <ele>690</ele>
        <time>2011-07-04T06:39:35Z</time>
      </trkpt>
      <trkpt lat="45.17996" lon="5.66151">
        <ele>690</ele>
        <time>2011-07-04T06:39:37Z</time>
      </trkpt>
      <trkpt lat="45.18003" lon="5.66139">
        <ele>689</ele>
        <time>2011-07-04T06:39:39Z</time>
      </trkpt>
      <trkpt lat="45.1801" lon="5.66127">
        <ele>688</ele>
        <time>2011-07-04T06:39:41Z</time>
      </trkpt>
      <trkpt lat="45.18013" lon="5.66118">
        <ele>687</ele>
        <time>2011-07-04T06:39:43Z</time>
      </trkpt>
      <trkpt lat="45.18013" lon="5.66111">
        <ele>686</ele>
        <time>2011-07-04T06:39:44Z</time>
      </trkpt>
      <trkpt lat="45.18013" lon="5.66099">
        <ele>685</ele>
        <time>2011-07-04T06:39:46Z</time>
      </trkpt>
      <trkpt lat="45.18014" lon="5.6609">
        <ele>685</ele>
        <time>2011-07-04T06:39:48Z</time>
      </trkpt>
      <trkpt lat="45.18017" lon="5.66083">
        <ele>686</ele>
        <time>2011-07-04T06:39:50Z</time>
      </trkpt>
      <trkpt lat="45.18022" lon="5.66074">
        <ele>686</ele>
        <time>2011-07-04T06:39:52Z</time>
      </trkpt>
      <trkpt lat="45.18024" lon="5.66065">
        <ele>685</ele>
        <time>2011-07-04T06:39:54Z</time>
      </trkpt>
      <trkpt lat="45.18026" lon="5.66058">
        <ele>686</ele>
        <time>2011-07-04T06:39:56Z</time>
      </trkpt>
      <trkpt lat="45.18028" lon="5.6605">
        <ele>685</ele>
        <time>2011-07-04T06:39:58Z</time>
      </trkpt>
      <trkpt lat="45.1803" lon="5.66043">
        <ele>685</ele>
        <time>2011-07-04T06:40:00Z</time>
      </trkpt>
      <trkpt lat="45.18032" lon="5.66038">
        <ele>683</ele>
        <time>2011-07-04T06:40:02Z</time>
      </trkpt>
      <trkpt lat="45.18039" lon="5.66035">
        <ele>683</ele>
        <time>2011-07-04T06:40:04Z</time>
      </trkpt>
      <trkpt lat="45.18046" lon="5.66033">
        <ele>683</ele>
        <time>2011-07-04T06:40:06Z</time>
      </trkpt>
      <trkpt lat="45.18052" lon="5.66032">
        <ele>683</ele>
        <time>2011-07-04T06:40:07Z</time>
      </trkpt>
      <trkpt lat="45.18057" lon="5.66032">
        <ele>684</ele>
        <time>2011-07-04T06:40:08Z</time>
      </trkpt>
      <trkpt lat="45.18065" lon="5.66032">
        <ele>685</ele>
        <time>2011-07-04T06:40:10Z</time>
      </trkpt>
      <trkpt lat="45.1807" lon="5.66035">
        <ele>684</ele>
        <time>2011-07-04T06:40:11Z</time>
      </trkpt>
      <trkpt lat="45.18074" lon="5.66038">
        <ele>684</ele>
        <time>2011-07-04T06:40:12Z</time>
      </trkpt>
      <trkpt lat="45.1808" lon="5.66043">
        <ele>684</ele>
        <time>2011-07-04T06:40:13Z</time>
      </trkpt>
      <trkpt lat="45.18085" lon="5.66047">
        <ele>683</ele>
        <time>2011-07-04T06:40:14Z</time>
      </trkpt>
      <trkpt lat="45.18092" lon="5.66047">
        <ele>682</ele>
        <time>2011-07-04T06:40:15Z</time>
      </trkpt>
      <trkpt lat="45.18098" lon="5.66051">
        <ele>681</ele>
        <time>2011-07-04T06:40:16Z</time>
      </trkpt>
      <trkpt lat="45.18103" lon="5.66058">
        <ele>680</ele>
        <time>2011-07-04T06:40:17Z</time>
      </trkpt>
      <trkpt lat="45.1811" lon="5.66061">
        <ele>680</ele>
        <time>2011-07-04T06:40:18Z</time>
      </trkpt>
      <trkpt lat="45.18117" lon="5.66065">
        <ele>680</ele>
        <time>2011-07-04T06:40:19Z</time>
      </trkpt>
      <trkpt lat="45.18125" lon="5.6607">
        <ele>680</ele>
        <time>2011-07-04T06:40:20Z</time>
      </trkpt>
      <trkpt lat="45.18132" lon="5.66075">
        <ele>680</ele>
        <time>2011-07-04T06:40:21Z</time>
      </trkpt>
      <trkpt lat="45.18139" lon="5.66083">
        <ele>680</ele>
        <time>2011-07-04T06:40:22Z</time>
      </trkpt>
      <trkpt lat="45.18145" lon="5.66089">
        <ele>680</ele>
        <time>2011-07-04T06:40:23Z</time>
      </trkpt>
      <trkpt lat="45.18148" lon="5.66098">
        <ele>678</ele>
        <time>2011-07-04T06:40:24Z</time>
      </trkpt>
      <trkpt lat="45.18153" lon="5.66106">
        <ele>678</ele>
        <time>2011-07-04T06:40:25Z</time>
      </trkpt>
      <trkpt lat="45.18158" lon="5.66113">
        <ele>677</ele>
        <time>2011-07-04T06:40:26Z</time>
      </trkpt>
      <trkpt lat="45.18164" lon="5.6612">
        <ele>677</ele>
        <time>2011-07-04T06:40:27Z</time>
      </trkpt>
      <trkpt lat="45.18171" lon="5.66129">
        <ele>676</ele>
        <time>2011-07-04T06:40:28Z</time>
      </trkpt>
      <trkpt lat="45.18178" lon="5.66134">
        <ele>675</ele>
        <time>2011-07-04T06:40:29Z</time>
      </trkpt>
      <trkpt lat="45.18182" lon="5.66145">
        <ele>675</ele>
        <time>2011-07-04T06:40:30Z</time>
      </trkpt>
      <trkpt lat="45.18188" lon="5.66144">
        <ele>675</ele>
        <time>2011-07-04T06:40:31Z</time>
      </trkpt>
      <trkpt lat="45.18194" lon="5.66149">
        <ele>675</ele>
        <time>2011-07-04T06:40:33Z</time>
      </trkpt>
      <trkpt lat="45.18194" lon="5.66155">
        <ele>675</ele>
        <time>2011-07-04T06:40:36Z</time>
      </trkpt>
      <trkpt lat="45.182" lon="5.6616">
        <ele>675</ele>
        <time>2011-07-04T06:40:39Z</time>
      </trkpt>
      <trkpt lat="45.18205" lon="5.6616">
        <ele>675</ele>
        <time>2011-07-04T06:40:42Z</time>
      </trkpt>
      <trkpt lat="45.18212" lon="5.6616">
        <ele>675</ele>
        <time>2011-07-04T06:40:45Z</time>
      </trkpt>
      <trkpt lat="45.1822" lon="5.66168">
        <ele>674</ele>
        <time>2011-07-04T06:40:47Z</time>
      </trkpt>
      <trkpt lat="45.18224" lon="5.6617">
        <ele>671</ele>
        <time>2011-07-04T06:40:51Z</time>
      </trkpt>
      <trkpt lat="45.18231" lon="5.66171">
        <ele>671</ele>
        <time>2011-07-04T06:40:54Z</time>
      </trkpt>
      <trkpt lat="45.18245" lon="5.66164">
        <ele>670</ele>
        <time>2011-07-04T06:40:58Z</time>
      </trkpt>
      <trkpt lat="45.1825" lon="5.66162">
        <ele>670</ele>
        <time>2011-07-04T06:41:00Z</time>
      </trkpt>
      <trkpt lat="45.18255" lon="5.66159">
        <ele>670</ele>
        <time>2011-07-04T06:41:02Z</time>
      </trkpt>
      <trkpt lat="45.18259" lon="5.66154">
        <ele>669</ele>
        <time>2011-07-04T06:41:04Z</time>
      </trkpt>
      <trkpt lat="45.18264" lon="5.66147">
        <ele>669</ele>
        <time>2011-07-04T06:41:08Z</time>
      </trkpt>
      <trkpt lat="45.18267" lon="5.6614">
        <ele>669</ele>
        <time>2011-07-04T06:41:10Z</time>
      </trkpt>
      <trkpt lat="45.18271" lon="5.66136">
        <ele>669</ele>
        <time>2011-07-04T06:41:11Z</time>
      </trkpt>
      <trkpt lat="45.18277" lon="5.66133">
        <ele>669</ele>
        <time>2011-07-04T06:41:13Z</time>
      </trkpt>
      <trkpt lat="45.18282" lon="5.66132">
        <ele>669</ele>
        <time>2011-07-04T06:41:14Z</time>
      </trkpt>
      <trkpt lat="45.18285" lon="5.66127">
        <ele>669</ele>
        <time>2011-07-04T06:41:16Z</time>
      </trkpt>
      <trkpt lat="45.18291" lon="5.66126">
        <ele>668</ele>
        <time>2011-07-04T06:41:17Z</time>
      </trkpt>
      <trkpt lat="45.18299" lon="5.66128">
        <ele>666</ele>
        <time>2011-07-04T06:41:19Z</time>
      </trkpt>
      <trkpt lat="45.18306" lon="5.66125">
        <ele>664</ele>
        <time>2011-07-04T06:41:23Z</time>
      </trkpt>
      <trkpt lat="45.18312" lon="5.66114">
        <ele>662</ele>
        <time>2011-07-04T06:41:25Z</time>
      </trkpt>
      <trkpt lat="45.18317" lon="5.66106">
        <ele>661</ele>
        <time>2011-07-04T06:41:27Z</time>
      </trkpt>
      <trkpt lat="45.18321" lon="5.66094">
        <ele>661</ele>
        <time>2011-07-04T06:41:29Z</time>
      </trkpt>
      <trkpt lat="45.18324" lon="5.66088">
        <ele>661</ele>
        <time>2011-07-04T06:41:30Z</time>
      </trkpt>
      <trkpt lat="45.18329" lon="5.66081">
        <ele>661</ele>
        <time>2011-07-04T06:41:32Z</time>
      </trkpt>
      <trkpt lat="45.18337" lon="5.66076">
        <ele>661</ele>
        <time>2011-07-04T06:41:34Z</time>
      </trkpt>
      <trkpt lat="45.18342" lon="5.66076">
        <ele>660</ele>
        <time>2011-07-04T06:41:35Z</time>
      </trkpt>
      <trkpt lat="45.18349" lon="5.66075">
        <ele>660</ele>
        <time>2011-07-04T06:41:38Z</time>
      </trkpt>
      <trkpt lat="45.18356" lon="5.66072">
        <ele>659</ele>
        <time>2011-07-04T06:41:40Z</time>
      </trkpt>
      <trkpt lat="45.18363" lon="5.66067">
        <ele>659</ele>
        <time>2011-07-04T06:41:42Z</time>
      </trkpt>
      <trkpt lat="45.18367" lon="5.6607">
        <ele>658</ele>
        <time>2011-07-04T06:41:44Z</time>
      </trkpt>
      <trkpt lat="45.18373" lon="5.66074">
        <ele>654</ele>
        <time>2011-07-04T06:41:48Z</time>
      </trkpt>
      <trkpt lat="45.18372" lon="5.66084">
        <ele>653</ele>
        <time>2011-07-04T06:41:50Z</time>
      </trkpt>
      <trkpt lat="45.18374" lon="5.66091">
        <ele>652</ele>
        <time>2011-07-04T06:41:51Z</time>
      </trkpt>
      <trkpt lat="45.18375" lon="5.661">
        <ele>652</ele>
        <time>2011-07-04T06:41:53Z</time>
      </trkpt>
      <trkpt lat="45.18378" lon="5.66106">
        <ele>651</ele>
        <time>2011-07-04T06:41:55Z</time>
      </trkpt>
      <trkpt lat="45.18382" lon="5.66111">
        <ele>649</ele>
        <time>2011-07-04T06:41:56Z</time>
      </trkpt>
      <trkpt lat="45.18391" lon="5.66117">
        <ele>648</ele>
        <time>2011-07-04T06:41:58Z</time>
      </trkpt>
      <trkpt lat="45.18395" lon="5.6612">
        <ele>647</ele>
        <time>2011-07-04T06:41:59Z</time>
      </trkpt>
      <trkpt lat="45.18398" lon="5.66125">
        <ele>646</ele>
        <time>2011-07-04T06:42:00Z</time>
      </trkpt>
      <trkpt lat="45.18405" lon="5.66128">
        <ele>646</ele>
        <time>2011-07-04T06:42:02Z</time>
      </trkpt>
      <trkpt lat="45.18412" lon="5.66128">
        <ele>642</ele>
        <time>2011-07-04T06:42:06Z</time>
      </trkpt>
      <trkpt lat="45.18419" lon="5.6613">
        <ele>639</ele>
        <time>2011-07-04T06:42:09Z</time>
      </trkpt>
      <trkpt lat="45.18423" lon="5.66134">
        <ele>637</ele>
        <time>2011-07-04T06:42:11Z</time>
      </trkpt>
      <trkpt lat="45.18428" lon="5.66135">
        <ele>635</ele>
        <time>2011-07-04T06:42:13Z</time>
      </trkpt>
      <trkpt lat="45.18434" lon="5.66136">
        <ele>633</ele>
        <time>2011-07-04T06:42:16Z</time>
      </trkpt>
      <trkpt lat="45.18439" lon="5.66134">
        <ele>631</ele>
        <time>2011-07-04T06:42:18Z</time>
      </trkpt>
      <trkpt lat="45.18444" lon="5.66135">
        <ele>628</ele>
        <time>2011-07-04T06:42:21Z</time>
      </trkpt>
      <trkpt lat="45.1845" lon="5.66139">
        <ele>626</ele>
        <time>2011-07-04T06:42:25Z</time>
      </trkpt>
      <trkpt lat="45.18455" lon="5.66138">
        <ele>623</ele>
        <time>2011-07-04T06:42:28Z</time>
      </trkpt>
      <trkpt lat="45.18461" lon="5.6614">
        <ele>619</ele>
        <time>2011-07-04T06:42:31Z</time>
      </trkpt>
      <trkpt lat="45.18466" lon="5.66144">
        <ele>617</ele>
        <time>2011-07-04T06:42:34Z</time>
      </trkpt>
      <trkpt lat="45.18471" lon="5.66149">
        <ele>615</ele>
        <time>2011-07-04T06:42:38Z</time>
      </trkpt>
      <trkpt lat="45.18476" lon="5.66152">
        <ele>614</ele>
        <time>2011-07-04T06:42:42Z</time>
      </trkpt>
      <trkpt lat="45.1848" lon="5.66148">
        <ele>613</ele>
        <time>2011-07-04T06:42:45Z</time>
      </trkpt>
      <trkpt lat="45.18486" lon="5.66146">
        <ele>612</ele>
        <time>2011-07-04T06:42:47Z</time>
      </trkpt>
      <trkpt lat="45.18492" lon="5.66146">
        <ele>611</ele>
        <time>2011-07-04T06:42:51Z</time>
      </trkpt>
      <trkpt lat="45.18492" lon="5.66146">
        <ele>611</ele>
        <time>2011-07-04T06:42:51Z</time>
      </trkpt>
      <trkpt lat="45.18492" lon="5.66146">
        <ele>611</ele>
        <time>2011-07-04T06:42:54Z</time>
      </trkpt>
      <trkpt lat="45.18495" lon="5.6615">
        <ele>606</ele>
        <time>2011-07-04T06:43:07Z</time>
      </trkpt>
      <trkpt lat="45.18499" lon="5.66155">
        <ele>606</ele>
        <time>2011-07-04T06:43:10Z</time>
      </trkpt>
      <trkpt lat="45.18504" lon="5.66155">
        <ele>605</ele>
        <time>2011-07-04T06:43:12Z</time>
      </trkpt>
      <trkpt lat="45.18503" lon="5.66164">
        <ele>605</ele>
        <time>2011-07-04T06:43:18Z</time>
      </trkpt>
      <trkpt lat="45.18502" lon="5.66171">
        <ele>604</ele>
        <time>2011-07-04T06:43:22Z</time>
      </trkpt>
      <trkpt lat="45.185" lon="5.66179">
        <ele>602</ele>
        <time>2011-07-04T06:43:24Z</time>
      </trkpt>
      <trkpt lat="45.18503" lon="5.66188">
        <ele>599</ele>
        <time>2011-07-04T06:43:25Z</time>
      </trkpt>
      <trkpt lat="45.18507" lon="5.66193">
        <ele>597</ele>
        <time>2011-07-04T06:43:27Z</time>
      </trkpt>
      <trkpt lat="45.18507" lon="5.662">
        <ele>595</ele>
        <time>2011-07-04T06:43:29Z</time>
      </trkpt>
      <trkpt lat="45.18513" lon="5.66202">
        <ele>595</ele>
        <time>2011-07-04T06:43:31Z</time>
      </trkpt>
      <trkpt lat="45.1851" lon="5.6621">
        <ele>592</ele>
        <time>2011-07-04T06:43:36Z</time>
      </trkpt>
      <trkpt lat="45.18512" lon="5.6622">
        <ele>591</ele>
        <time>2011-07-04T06:43:40Z</time>
      </trkpt>
      <trkpt lat="45.18514" lon="5.66228">
        <ele>591</ele>
        <time>2011-07-04T06:43:42Z</time>
      </trkpt>
      <trkpt lat="45.18519" lon="5.66237">
        <ele>591</ele>
        <time>2011-07-04T06:43:44Z</time>
      </trkpt>
      <trkpt lat="45.18522" lon="5.66245">
        <ele>591</ele>
        <time>2011-07-04T06:43:46Z</time>
      </trkpt>
      <trkpt lat="45.18526" lon="5.6625">
        <ele>591</ele>
        <time>2011-07-04T06:43:47Z</time>
      </trkpt>
      <trkpt lat="45.18531" lon="5.66257">
        <ele>590</ele>
        <time>2011-07-04T06:43:48Z</time>
      </trkpt>
      <trkpt lat="45.18537" lon="5.66268">
        <ele>588</ele>
        <time>2011-07-04T06:43:50Z</time>
      </trkpt>
      <trkpt lat="45.18542" lon="5.66274">
        <ele>588</ele>
        <time>2011-07-04T06:43:52Z</time>
      </trkpt>
      <trkpt lat="45.18547" lon="5.66277">
        <ele>588</ele>
        <time>2011-07-04T06:43:53Z</time>
      </trkpt>
      <trkpt lat="45.18551" lon="5.66282">
        <ele>587</ele>
        <time>2011-07-04T06:43:54Z</time>
      </trkpt>
      <trkpt lat="45.1856" lon="5.66282">
        <ele>588</ele>
        <time>2011-07-04T06:43:56Z</time>
      </trkpt>
      <trkpt lat="45.18565" lon="5.66286">
        <ele>587</ele>
        <time>2011-07-04T06:43:58Z</time>
      </trkpt>
      <trkpt lat="45.18576" lon="5.66286">
        <ele>584</ele>
        <time>2011-07-04T06:44:00Z</time>
      </trkpt>
      <trkpt lat="45.18575" lon="5.66294">
        <ele>581</ele>
        <time>2011-07-04T06:44:02Z</time>
      </trkpt>
      <trkpt lat="45.18581" lon="5.66298">
        <ele>580</ele>
        <time>2011-07-04T06:44:04Z</time>
      </trkpt>
      <trkpt lat="45.18583" lon="5.66306">
        <ele>574</ele>
        <time>2011-07-04T06:44:08Z</time>
      </trkpt>
      <trkpt lat="45.18587" lon="5.66309">
        <ele>572</ele>
        <time>2011-07-04T06:44:10Z</time>
      </trkpt>
      <trkpt lat="45.1859" lon="5.66314">
        <ele>570</ele>
        <time>2011-07-04T06:44:15Z</time>
      </trkpt>
      <trkpt lat="45.18587" lon="5.66319">
        <ele>568</ele>
        <time>2011-07-04T06:44:17Z</time>
      </trkpt>
      <trkpt lat="45.18584" lon="5.66326">
        <ele>568</ele>
        <time>2011-07-04T06:44:19Z</time>
      </trkpt>
      <trkpt lat="45.1858" lon="5.6633">
        <ele>570</ele>
        <time>2011-07-04T06:44:24Z</time>
      </trkpt>
      <trkpt lat="45.18578" lon="5.66336">
        <ele>569</ele>
        <time>2011-07-04T06:44:27Z</time>
      </trkpt>
      <trkpt lat="45.18577" lon="5.66343">
        <ele>568</ele>
        <time>2011-07-04T06:44:29Z</time>
      </trkpt>
      <trkpt lat="45.18574" lon="5.66351">
        <ele>567</ele>
        <time>2011-07-04T06:44:34Z</time>
      </trkpt>
      <trkpt lat="45.18572" lon="5.66358">
        <ele>566</ele>
        <time>2011-07-04T06:44:36Z</time>
      </trkpt>
      <trkpt lat="45.18564" lon="5.66361">
        <ele>563</ele>
        <time>2011-07-04T06:44:41Z</time>
      </trkpt>
      <trkpt lat="45.18556" lon="5.66363">
        <ele>562</ele>
        <time>2011-07-04T06:44:43Z</time>
      </trkpt>
      <trkpt lat="45.18551" lon="5.66368">
        <ele>562</ele>
        <time>2011-07-04T06:44:45Z</time>
      </trkpt>
      <trkpt lat="45.18546" lon="5.66374">
        <ele>561</ele>
        <time>2011-07-04T06:44:47Z</time>
      </trkpt>
      <trkpt lat="45.18548" lon="5.66383">
        <ele>560</ele>
        <time>2011-07-04T06:44:49Z</time>
      </trkpt>
      <trkpt lat="45.18547" lon="5.66391">
        <ele>560</ele>
        <time>2011-07-04T06:44:50Z</time>
      </trkpt>
      <trkpt lat="45.18551" lon="5.66401">
        <ele>558</ele>
        <time>2011-07-04T06:44:52Z</time>
      </trkpt>
      <trkpt lat="45.18552" lon="5.6641">
        <ele>557</ele>
        <time>2011-07-04T06:44:54Z</time>
      </trkpt>
      <trkpt lat="45.1855" lon="5.66416">
        <ele>556</ele>
        <time>2011-07-04T06:44:58Z</time>
      </trkpt>
      <trkpt lat="45.18546" lon="5.66422">
        <ele>555</ele>
        <time>2011-07-04T06:45:02Z</time>
      </trkpt>
      <trkpt lat="45.1855" lon="5.6643">
        <ele>555</ele>
        <time>2011-07-04T06:45:04Z</time>
      </trkpt>
      <trkpt lat="45.18552" lon="5.66437">
        <ele>554</ele>
        <time>2011-07-04T06:45:05Z</time>
      </trkpt>
      <trkpt lat="45.18552" lon="5.66443">
        <ele>554</ele>
        <time>2011-07-04T06:45:07Z</time>
      </trkpt>
      <trkpt lat="45.18551" lon="5.66452">
        <ele>554</ele>
        <time>2011-07-04T06:45:09Z</time>
      </trkpt>
      <trkpt lat="45.18551" lon="5.66459">
        <ele>553</ele>
        <time>2011-07-04T06:45:11Z</time>
      </trkpt>
      <trkpt lat="45.18552" lon="5.6647">
        <ele>551</ele>
        <time>2011-07-04T06:45:13Z</time>
      </trkpt>
      <trkpt lat="45.18553" lon="5.66478">
        <ele>549</ele>
        <time>2011-07-04T06:45:15Z</time>
      </trkpt>
      <trkpt lat="45.18556" lon="5.66484">
        <ele>547</ele>
        <time>2011-07-04T06:45:17Z</time>
      </trkpt>
      <trkpt lat="45.18545" lon="5.66503">
        <ele>546</ele>
        <time>2011-07-04T06:46:05Z</time>
      </trkpt>
      <trkpt lat="45.1854" lon="5.66537">
        <ele>547</ele>
        <time>2011-07-04T06:46:09Z</time>
      </trkpt>
      <trkpt lat="45.18573" lon="5.6659">
        <ele>529</ele>
        <time>2011-07-04T06:46:13Z</time>
      </trkpt>
      <trkpt lat="45.18574" lon="5.66612">
        <ele>521</ele>
        <time>2011-07-04T06:46:16Z</time>
      </trkpt>
      <trkpt lat="45.1857" lon="5.66628">
        <ele>521</ele>
        <time>2011-07-04T06:46:18Z</time>
      </trkpt>
      <trkpt lat="45.18571" lon="5.6664">
        <ele>520</ele>
        <time>2011-07-04T06:46:22Z</time>
      </trkpt>
      <trkpt lat="45.18572" lon="5.6665">
        <ele>519</ele>
        <time>2011-07-04T06:46:24Z</time>
      </trkpt>
      <trkpt lat="45.18574" lon="5.66661">
        <ele>518</ele>
        <time>2011-07-04T06:46:26Z</time>
      </trkpt>
      <trkpt lat="45.18578" lon="5.6667">
        <ele>518</ele>
        <time>2011-07-04T06:46:28Z</time>
      </trkpt>
      <trkpt lat="45.1858" lon="5.66679">
        <ele>516</ele>
        <time>2011-07-04T06:46:30Z</time>
      </trkpt>
      <trkpt lat="45.18579" lon="5.66688">
        <ele>517</ele>
        <time>2011-07-04T06:46:32Z</time>
      </trkpt>
      <trkpt lat="45.18578" lon="5.66699">
        <ele>516</ele>
        <time>2011-07-04T06:46:34Z</time>
      </trkpt>
      <trkpt lat="45.18579" lon="5.66713">
        <ele>511</ele>
        <time>2011-07-04T06:46:36Z</time>
      </trkpt>
      <trkpt lat="45.1858" lon="5.66727">
        <ele>508</ele>
        <time>2011-07-04T06:46:38Z</time>
      </trkpt>
      <trkpt lat="45.18583" lon="5.6674">
        <ele>504</ele>
        <time>2011-07-04T06:46:40Z</time>
      </trkpt>
      <trkpt lat="45.18587" lon="5.66752">
        <ele>503</ele>
        <time>2011-07-04T06:46:42Z</time>
      </trkpt>
      <trkpt lat="45.18588" lon="5.66759">
        <ele>500</ele>
        <time>2011-07-04T06:46:44Z</time>
      </trkpt>
      <trkpt lat="45.18594" lon="5.66766">
        <ele>498</ele>
        <time>2011-07-04T06:46:46Z</time>
      </trkpt>
      <trkpt lat="45.18604" lon="5.66765">
        <ele>495</ele>
        <time>2011-07-04T06:46:50Z</time>
      </trkpt>
      <trkpt lat="45.1861" lon="5.66765">
        <ele>494</ele>
        <time>2011-07-04T06:46:52Z</time>
      </trkpt>
      <trkpt lat="45.18621" lon="5.66769">
        <ele>492</ele>
        <time>2011-07-04T06:46:54Z</time>
      </trkpt>
      <trkpt lat="45.18633" lon="5.6677">
        <ele>492</ele>
        <time>2011-07-04T06:46:56Z</time>
      </trkpt>
      <trkpt lat="45.18653" lon="5.66772">
        <ele>491</ele>
        <time>2011-07-04T06:47:00Z</time>
      </trkpt>
      <trkpt lat="45.18661" lon="5.66774">
        <ele>492</ele>
        <time>2011-07-04T06:47:01Z</time>
      </trkpt>
      <trkpt lat="45.18668" lon="5.66779">
        <ele>491</ele>
        <time>2011-07-04T06:47:02Z</time>
      </trkpt>
      <trkpt lat="45.18676" lon="5.66785">
        <ele>491</ele>
        <time>2011-07-04T06:47:03Z</time>
      </trkpt>
      <trkpt lat="45.18684" lon="5.66789">
        <ele>492</ele>
        <time>2011-07-04T06:47:04Z</time>
      </trkpt>
      <trkpt lat="45.1869" lon="5.66792">
        <ele>492</ele>
        <time>2011-07-04T06:47:05Z</time>
      </trkpt>
      <trkpt lat="45.18697" lon="5.66796">
        <ele>492</ele>
        <time>2011-07-04T06:47:06Z</time>
      </trkpt>
      <trkpt lat="45.18702" lon="5.66801">
        <ele>492</ele>
        <time>2011-07-04T06:47:07Z</time>
      </trkpt>
      <trkpt lat="45.18709" lon="5.66804">
        <ele>492</ele>
        <time>2011-07-04T06:47:08Z</time>
      </trkpt>
      <trkpt lat="45.18713" lon="5.6681">
        <ele>491</ele>
        <time>2011-07-04T06:47:09Z</time>
      </trkpt>
      <trkpt lat="45.18717" lon="5.66814">
        <ele>491</ele>
        <time>2011-07-04T06:47:10Z</time>
      </trkpt>
      <trkpt lat="45.18725" lon="5.66817">
        <ele>491</ele>
        <time>2011-07-04T06:47:11Z</time>
      </trkpt>
      <trkpt lat="45.1873" lon="5.6682">
        <ele>491</ele>
        <time>2011-07-04T06:47:12Z</time>
      </trkpt>
      <trkpt lat="45.1874" lon="5.66809">
        <ele>492</ele>
        <time>2011-07-04T06:47:13Z</time>
      </trkpt>
      <trkpt lat="45.18746" lon="5.66807">
        <ele>492</ele>
        <time>2011-07-04T06:47:16Z</time>
      </trkpt>
      <trkpt lat="45.1875" lon="5.66809">
        <ele>492</ele>
        <time>2011-07-04T06:47:17Z</time>
      </trkpt>
      <trkpt lat="45.18756" lon="5.66811">
        <ele>492</ele>
        <time>2011-07-04T06:47:18Z</time>
      </trkpt>
      <trkpt lat="45.18759" lon="5.66807">
        <ele>490</ele>
        <time>2011-07-04T06:47:22Z</time>
      </trkpt>
      <trkpt lat="45.18757" lon="5.66822">
        <ele>488</ele>
        <time>2011-07-04T06:47:25Z</time>
      </trkpt>
      <trkpt lat="45.18755" lon="5.66828">
        <ele>487</ele>
        <time>2011-07-04T06:47:27Z</time>
      </trkpt>
      <trkpt lat="45.18749" lon="5.66838">
        <ele>483</ele>
        <time>2011-07-04T06:47:33Z</time>
      </trkpt>
      <trkpt lat="45.18754" lon="5.66836">
        <ele>482</ele>
        <time>2011-07-04T06:47:35Z</time>
      </trkpt>
      <trkpt lat="45.1876" lon="5.66834">
        <ele>478</ele>
        <time>2011-07-04T06:47:52Z</time>
      </trkpt>
      <trkpt lat="45.18765" lon="5.66828">
        <ele>477</ele>
        <time>2011-07-04T06:47:55Z</time>
      </trkpt>
      <trkpt lat="45.1877" lon="5.66827">
        <ele>474</ele>
        <time>2011-07-04T06:47:57Z</time>
      </trkpt>
      <trkpt lat="45.18775" lon="5.66819">
        <ele>472</ele>
        <time>2011-07-04T06:47:59Z</time>
      </trkpt>
      <trkpt lat="45.18783" lon="5.66816">
        <ele>471</ele>
        <time>2011-07-04T06:48:02Z</time>
      </trkpt>
      <trkpt lat="45.18789" lon="5.66815">
        <ele>469</ele>
        <time>2011-07-04T06:48:06Z</time>
      </trkpt>
      <trkpt lat="45.18794" lon="5.66814">
        <ele>469</ele>
        <time>2011-07-04T06:48:09Z</time>
      </trkpt>
      <trkpt lat="45.188" lon="5.66812">
        <ele>468</ele>
        <time>2011-07-04T06:48:12Z</time>
      </trkpt>
      <trkpt lat="45.18805" lon="5.66816">
        <ele>465</ele>
        <time>2011-07-04T06:48:14Z</time>
      </trkpt>
      <trkpt lat="45.18809" lon="5.66821">
        <ele>462</ele>
        <time>2011-07-04T06:48:16Z</time>
      </trkpt>
      <trkpt lat="45.18816" lon="5.66817">
        <ele>462</ele>
        <time>2011-07-04T06:48:18Z</time>
      </trkpt>
      <trkpt lat="45.18822" lon="5.66817">
        <ele>462</ele>
        <time>2011-07-04T06:48:21Z</time>
      </trkpt>
      <trkpt lat="45.1883" lon="5.66822">
        <ele>460</ele>
        <time>2011-07-04T06:48:27Z</time>
      </trkpt>
      <trkpt lat="45.18837" lon="5.66825">
        <ele>460</ele>
        <time>2011-07-04T06:48:29Z</time>
      </trkpt>
      <trkpt lat="45.18845" lon="5.66828">
        <ele>464</ele>
        <time>2011-07-04T06:48:32Z</time>
      </trkpt>
      <trkpt lat="45.18849" lon="5.66831">
        <ele>464</ele>
        <time>2011-07-04T06:48:34Z</time>
      </trkpt>
      <trkpt lat="45.18855" lon="5.66833">
        <ele>465</ele>
        <time>2011-07-04T06:48:36Z</time>
      </trkpt>
      <trkpt lat="45.1886" lon="5.66841">
        <ele>465</ele>
        <time>2011-07-04T06:48:38Z</time>
      </trkpt>
      <trkpt lat="45.18868" lon="5.66842">
        <ele>464</ele>
        <time>2011-07-04T06:48:40Z</time>
      </trkpt>
      <trkpt lat="45.18875" lon="5.66848">
        <ele>464</ele>
        <time>2011-07-04T06:48:43Z</time>
      </trkpt>
      <trkpt lat="45.1888" lon="5.66849">
        <ele>465</ele>
        <time>2011-07-04T06:48:45Z</time>
      </trkpt>
      <trkpt lat="45.18888" lon="5.66853">
        <ele>464</ele>
        <time>2011-07-04T06:48:47Z</time>
      </trkpt>
      <trkpt lat="45.18893" lon="5.66858">
        <ele>464</ele>
        <time>2011-07-04T06:48:49Z</time>
      </trkpt>
      <trkpt lat="45.18899" lon="5.66861">
        <ele>463</ele>
        <time>2011-07-04T06:48:51Z</time>
      </trkpt>
      <trkpt lat="45.18903" lon="5.66865">
        <ele>462</ele>
        <time>2011-07-04T06:48:53Z</time>
      </trkpt>
      <trkpt lat="45.18908" lon="5.66867">
        <ele>461</ele>
        <time>2011-07-04T06:48:55Z</time>
      </trkpt>
      <trkpt lat="45.1891" lon="5.66874">
        <ele>462</ele>
        <time>2011-07-04T06:48:59Z</time>
      </trkpt>
      <trkpt lat="45.18917" lon="5.66873">
        <ele>460</ele>
        <time>2011-07-04T06:50:08Z</time>
      </trkpt>
      <trkpt lat="45.18924" lon="5.66879">
        <ele>459</ele>
        <time>2011-07-04T06:50:10Z</time>
      </trkpt>
      <trkpt lat="45.18934" lon="5.66878">
        <ele>460</ele>
        <time>2011-07-04T06:50:12Z</time>
      </trkpt>
      <trkpt lat="45.18943" lon="5.6688">
        <ele>457</ele>
        <time>2011-07-04T06:50:14Z</time>
      </trkpt>
      <trkpt lat="45.1895" lon="5.6688">
        <ele>455</ele>
        <time>2011-07-04T06:50:18Z</time>
      </trkpt>
      <trkpt lat="45.18958" lon="5.66882">
        <ele>454</ele>
        <time>2011-07-04T06:50:22Z</time>
      </trkpt>
      <trkpt lat="45.18968" lon="5.66881">
        <ele>453</ele>
        <time>2011-07-04T06:50:26Z</time>
      </trkpt>
      <trkpt lat="45.18976" lon="5.66879">
        <ele>453</ele>
        <time>2011-07-04T06:50:28Z</time>
      </trkpt>
      <trkpt lat="45.18983" lon="5.66876">
        <ele>453</ele>
        <time>2011-07-04T06:50:30Z</time>
      </trkpt>
      <trkpt lat="45.18987" lon="5.66871">
        <ele>453</ele>
        <time>2011-07-04T06:50:32Z</time>
      </trkpt>
      <trkpt lat="45.18993" lon="5.66873">
        <ele>452</ele>
        <time>2011-07-04T06:50:34Z</time>
      </trkpt>
      <trkpt lat="45.19002" lon="5.66873">
        <ele>452</ele>
        <time>2011-07-04T06:50:36Z</time>
      </trkpt>
      <trkpt lat="45.19011" lon="5.66877">
        <ele>452</ele>
        <time>2011-07-04T06:50:40Z</time>
      </trkpt>
      <trkpt lat="45.19016" lon="5.66878">
        <ele>451</ele>
        <time>2011-07-04T06:50:42Z</time>
      </trkpt>
      <trkpt lat="45.19022" lon="5.66882">
        <ele>451</ele>
        <time>2011-07-04T06:50:44Z</time>
      </trkpt>
      <trkpt lat="45.19029" lon="5.66885">
        <ele>451</ele>
        <time>2011-07-04T06:50:46Z</time>
      </trkpt>
      <trkpt lat="45.19036" lon="5.66892">
        <ele>450</ele>
        <time>2011-07-04T06:50:49Z</time>
      </trkpt>
      <trkpt lat="45.19051" lon="5.66885">
        <ele>448</ele>
        <time>2011-07-04T06:50:52Z</time>
      </trkpt>
      <trkpt lat="45.19059" lon="5.66886">
        <ele>447</ele>
        <time>2011-07-04T06:50:54Z</time>
      </trkpt>
      <trkpt lat="45.19068" lon="5.6688">
        <ele>447</ele>
        <time>2011-07-04T06:50:56Z</time>
      </trkpt>
      <trkpt lat="45.19082" lon="5.66878">
        <ele>447</ele>
        <time>2011-07-04T06:51:01Z</time>
      </trkpt>
      <trkpt lat="45.19087" lon="5.66871">
        <ele>446</ele>
        <time>2011-07-04T06:51:04Z</time>
      </trkpt>
      <trkpt lat="45.19092" lon="5.66865">
        <ele>446</ele>
        <time>2011-07-04T06:51:07Z</time>
      </trkpt>
      <trkpt lat="45.19097" lon="5.66858">
        <ele>446</ele>
        <time>2011-07-04T06:51:10Z</time>
      </trkpt>
      <trkpt lat="45.19101" lon="5.66855">
        <ele>446</ele>
        <time>2011-07-04T06:51:12Z</time>
      </trkpt>
      <trkpt lat="45.191" lon="5.66846">
        <ele>446</ele>
        <time>2011-07-04T06:51:14Z</time>
      </trkpt>
      <trkpt lat="45.1911" lon="5.66834">
        <ele>446</ele>
        <time>2011-07-04T06:51:16Z</time>
      </trkpt>
      <trkpt lat="45.1912" lon="5.66821">
        <ele>445</ele>
        <time>2011-07-04T06:51:17Z</time>
      </trkpt>
      <trkpt lat="45.1912" lon="5.66812">
        <ele>443</ele>
        <time>2011-07-04T06:51:19Z</time>
      </trkpt>
      <trkpt lat="45.19114" lon="5.6681">
        <ele>442</ele>
        <time>2011-07-04T06:51:23Z</time>
      </trkpt>
      <trkpt lat="45.19114" lon="5.66817">
        <ele>441</ele>
        <time>2011-07-04T06:51:29Z</time>
      </trkpt>
      <trkpt lat="45.19119" lon="5.66819">
        <ele>440</ele>
        <time>2011-07-04T06:52:30Z</time>
      </trkpt>
      <trkpt lat="45.19124" lon="5.66822">
        <ele>438</ele>
        <time>2011-07-04T06:52:34Z</time>
      </trkpt>
      <trkpt lat="45.19133" lon="5.66817">
        <ele>438</ele>
        <time>2011-07-04T06:52:36Z</time>
      </trkpt>
      <trkpt lat="45.19139" lon="5.66815">
        <ele>438</ele>
        <time>2011-07-04T06:52:38Z</time>
      </trkpt>
      <trkpt lat="45.19146" lon="5.66812">
        <ele>437</ele>
        <time>2011-07-04T06:52:40Z</time>
      </trkpt>
      <trkpt lat="45.19172" lon="5.668">
        <ele>432</ele>
        <time>2011-07-04T06:52:48Z</time>
      </trkpt>
      <trkpt lat="45.19177" lon="5.66801">
        <ele>432</ele>
        <time>2011-07-04T06:52:49Z</time>
      </trkpt>
      <trkpt lat="45.19182" lon="5.66804">
        <ele>425</ele>
        <time>2011-07-04T06:52:51Z</time>
      </trkpt>
      <trkpt lat="45.19185" lon="5.6681">
        <ele>417</ele>
        <time>2011-07-04T06:52:53Z</time>
      </trkpt>
      <trkpt lat="45.1919" lon="5.66812">
        <ele>415</ele>
        <time>2011-07-04T06:52:56Z</time>
      </trkpt>
      <trkpt lat="45.19194" lon="5.66808">
        <ele>412</ele>
        <time>2011-07-04T06:53:04Z</time>
      </trkpt>
      <trkpt lat="45.19199" lon="5.66806">
        <ele>411</ele>
        <time>2011-07-04T06:53:06Z</time>
      </trkpt>
      <trkpt lat="45.19204" lon="5.6681">
        <ele>406</ele>
        <time>2011-07-04T06:53:08Z</time>
      </trkpt>
      <trkpt lat="45.19207" lon="5.66814">
        <ele>401</ele>
        <time>2011-07-04T06:53:11Z</time>
      </trkpt>
      <trkpt lat="45.19213" lon="5.66813">
        <ele>398</ele>
        <time>2011-07-04T06:53:15Z</time>
      </trkpt>
      <trkpt lat="45.19217" lon="5.66816">
        <ele>398</ele>
        <time>2011-07-04T06:53:19Z</time>
      </trkpt>
      <trkpt lat="45.19223" lon="5.66815">
        <ele>391</ele>
        <time>2011-07-04T06:53:27Z</time>
      </trkpt>
      <trkpt lat="45.1923" lon="5.66816">
        <ele>390</ele>
        <time>2011-07-04T06:53:29Z</time>
      </trkpt>
      <trkpt lat="45.19235" lon="5.66813">
        <ele>389</ele>
        <time>2011-07-04T06:53:31Z</time>
      </trkpt>
      <trkpt lat="45.19241" lon="5.6681">
        <ele>387</ele>
        <time>2011-07-04T06:53:33Z</time>
      </trkpt>
      <trkpt lat="45.19246" lon="5.66806">
        <ele>386</ele>
        <time>2011-07-04T06:53:35Z</time>
      </trkpt>
      <trkpt lat="45.19248" lon="5.66798">
        <ele>383</ele>
        <time>2011-07-04T06:53:38Z</time>
      </trkpt>
      <trkpt lat="45.1925" lon="5.66788">
        <ele>380</ele>
        <time>2011-07-04T06:53:41Z</time>
      </trkpt>
      <trkpt lat="45.19254" lon="5.66783">
        <ele>378</ele>
        <time>2011-07-04T06:53:44Z</time>
      </trkpt>
      <trkpt lat="45.19256" lon="5.66776">
        <ele>377</ele>
        <time>2011-07-04T06:53:48Z</time>
      </trkpt>
      <trkpt lat="45.1926" lon="5.66772">
        <ele>377</ele>
        <time>2011-07-04T06:53:52Z</time>
      </trkpt>
      <trkpt lat="45.19262" lon="5.66765">
        <ele>377</ele>
        <time>2011-07-04T06:53:58Z</time>
      </trkpt>
      <trkpt lat="45.19274" lon="5.66771">
        <ele>377</ele>
        <time>2011-07-04T06:54:13Z</time>
      </trkpt>
      <trkpt lat="45.19268" lon="5.66763">
        <ele>378</ele>
        <time>2011-07-04T06:54:51Z</time>
      </trkpt>
      <trkpt lat="45.19268" lon="5.66763">
        <ele>378</ele>
        <time>2011-07-04T06:54:51Z</time>
      </trkpt>
      <trkpt lat="45.19268" lon="5.66763">
        <ele>378</ele>
        <time>2011-07-04T06:54:59Z</time>
      </trkpt>
      <trkpt lat="45.19278" lon="5.66756">
        <ele>378</ele>
        <time>2011-07-04T06:55:08Z</time>
      </trkpt>
      <trkpt lat="45.19281" lon="5.66751">
        <ele>379</ele>
        <time>2011-07-04T06:55:10Z</time>
      </trkpt>
      <trkpt lat="45.19286" lon="5.6675">
        <ele>378</ele>
        <time>2011-07-04T06:55:11Z</time>
      </trkpt>
      <trkpt lat="45.19292" lon="5.66747">
        <ele>378</ele>
        <time>2011-07-04T06:55:12Z</time>
      </trkpt>
      <trkpt lat="45.19305" lon="5.66739">
        <ele>376</ele>
        <time>2011-07-04T06:55:13Z</time>
      </trkpt>
      <trkpt lat="45.19312" lon="5.66733">
        <ele>375</ele>
        <time>2011-07-04T06:55:14Z</time>
      </trkpt>
      <trkpt lat="45.1932" lon="5.6673">
        <ele>375</ele>
        <time>2011-07-04T06:55:15Z</time>
      </trkpt>
      <trkpt lat="45.19325" lon="5.66728">
        <ele>375</ele>
        <time>2011-07-04T06:55:16Z</time>
      </trkpt>
      <trkpt lat="45.19336" lon="5.66719">
        <ele>374</ele>
        <time>2011-07-04T06:55:17Z</time>
      </trkpt>
      <trkpt lat="45.19341" lon="5.66712">
        <ele>374</ele>
        <time>2011-07-04T06:55:18Z</time>
      </trkpt>
      <trkpt lat="45.19334" lon="5.66708">
        <ele>376</ele>
        <time>2011-07-04T06:55:19Z</time>
      </trkpt>
      <trkpt lat="45.19339" lon="5.66706">
        <ele>376</ele>
        <time>2011-07-04T06:55:20Z</time>
      </trkpt>
      <trkpt lat="45.19346" lon="5.66707">
        <ele>376</ele>
        <time>2011-07-04T06:55:21Z</time>
      </trkpt>
      <trkpt lat="45.19351" lon="5.66708">
        <ele>376</ele>
        <time>2011-07-04T06:55:22Z</time>
      </trkpt>
      <trkpt lat="45.19356" lon="5.66707">
        <ele>376</ele>
        <time>2011-07-04T06:55:23Z</time>
      </trkpt>
      <trkpt lat="45.19364" lon="5.66709">
        <ele>376</ele>
        <time>2011-07-04T06:55:24Z</time>
      </trkpt>
      <trkpt lat="45.19369" lon="5.6671">
        <ele>374</ele>
        <time>2011-07-04T06:55:25Z</time>
      </trkpt>
      <trkpt lat="45.19374" lon="5.66713">
        <ele>374</ele>
        <time>2011-07-04T06:55:26Z</time>
      </trkpt>
      <trkpt lat="45.19382" lon="5.66713">
        <ele>371</ele>
        <time>2011-07-04T06:55:28Z</time>
      </trkpt>
      <trkpt lat="45.19386" lon="5.66714">
        <ele>370</ele>
        <time>2011-07-04T06:55:29Z</time>
      </trkpt>
      <trkpt lat="45.19392" lon="5.66712">
        <ele>368</ele>
        <time>2011-07-04T06:55:30Z</time>
      </trkpt>
      <trkpt lat="45.19397" lon="5.66716">
        <ele>366</ele>
        <time>2011-07-04T06:55:31Z</time>
      </trkpt>
      <trkpt lat="45.19401" lon="5.66718">
        <ele>365</ele>
        <time>2011-07-04T06:55:32Z</time>
      </trkpt>
      <trkpt lat="45.19406" lon="5.66718">
        <ele>364</ele>
        <time>2011-07-04T06:55:33Z</time>
      </trkpt>
      <trkpt lat="45.19411" lon="5.66727">
        <ele>362</ele>
        <time>2011-07-04T06:55:35Z</time>
      </trkpt>
      <trkpt lat="45.19417" lon="5.66728">
        <ele>360</ele>
        <time>2011-07-04T06:55:37Z</time>
      </trkpt>
      <trkpt lat="45.19422" lon="5.66722">
        <ele>359</ele>
        <time>2011-07-04T06:55:38Z</time>
      </trkpt>
      <trkpt lat="45.19428" lon="5.66715">
        <ele>357</ele>
        <time>2011-07-04T06:55:39Z</time>
      </trkpt>
      <trkpt lat="45.19433" lon="5.66713">
        <ele>357</ele>
        <time>2011-07-04T06:55:41Z</time>
      </trkpt>
      <trkpt lat="45.19439" lon="5.66712">
        <ele>351</ele>
        <time>2011-07-04T06:55:45Z</time>
      </trkpt>
      <trkpt lat="45.19444" lon="5.66706">
        <ele>349</ele>
        <time>2011-07-04T06:55:47Z</time>
      </trkpt>
      <trkpt lat="45.1945" lon="5.66708">
        <ele>347</ele>
        <time>2011-07-04T06:55:51Z</time>
      </trkpt>
      <trkpt lat="45.19454" lon="5.66706">
        <ele>345</ele>
        <time>2011-07-04T06:55:53Z</time>
      </trkpt>
      <trkpt lat="45.19458" lon="5.66713">
        <ele>333</ele>
        <time>2011-07-04T06:55:55Z</time>
      </trkpt>
      <trkpt lat="45.19462" lon="5.66716">
        <ele>333</ele>
        <time>2011-07-04T06:55:56Z</time>
      </trkpt>
      <trkpt lat="45.19469" lon="5.66723">
        <ele>329</ele>
        <time>2011-07-04T06:55:58Z</time>
      </trkpt>
      <trkpt lat="45.19473" lon="5.66727">
        <ele>325</ele>
        <time>2011-07-04T06:55:59Z</time>
      </trkpt>
      <trkpt lat="45.19479" lon="5.66733">
        <ele>323</ele>
        <time>2011-07-04T06:56:00Z</time>
      </trkpt>
      <trkpt lat="45.19483" lon="5.66738">
        <ele>322</ele>
        <time>2011-07-04T06:56:01Z</time>
      </trkpt>
      <trkpt lat="45.19486" lon="5.66744">
        <ele>321</ele>
        <time>2011-07-04T06:56:02Z</time>
      </trkpt>
      <trkpt lat="45.19491" lon="5.6675">
        <ele>318</ele>
        <time>2011-07-04T06:56:04Z</time>
      </trkpt>
      <trkpt lat="45.19494" lon="5.66755">
        <ele>317</ele>
        <time>2011-07-04T06:56:05Z</time>
      </trkpt>
      <trkpt lat="45.19496" lon="5.66761">
        <ele>315</ele>
        <time>2011-07-04T06:56:07Z</time>
      </trkpt>
      <trkpt lat="45.19501" lon="5.66769">
        <ele>314</ele>
        <time>2011-07-04T06:56:09Z</time>
      </trkpt>
      <trkpt lat="45.19501" lon="5.66779">
        <ele>314</ele>
        <time>2011-07-04T06:56:11Z</time>
      </trkpt>
      <trkpt lat="45.19502" lon="5.66788">
        <ele>313</ele>
        <time>2011-07-04T06:56:12Z</time>
      </trkpt>
      <trkpt lat="45.19506" lon="5.66797">
        <ele>312</ele>
        <time>2011-07-04T06:56:13Z</time>
      </trkpt>
      <trkpt lat="45.19511" lon="5.66807">
        <ele>311</ele>
        <time>2011-07-04T06:56:14Z</time>
      </trkpt>
      <trkpt lat="45.19514" lon="5.66814">
        <ele>309</ele>
        <time>2011-07-04T06:56:15Z</time>
      </trkpt>
      <trkpt lat="45.1952" lon="5.6682">
        <ele>309</ele>
        <time>2011-07-04T06:56:16Z</time>
      </trkpt>
      <trkpt lat="45.19523" lon="5.66828">
        <ele>308</ele>
        <time>2011-07-04T06:56:17Z</time>
      </trkpt>
      <trkpt lat="45.19528" lon="5.66832">
        <ele>308</ele>
        <time>2011-07-04T06:56:18Z</time>
      </trkpt>
      <trkpt lat="45.19529" lon="5.66838">
        <ele>308</ele>
        <time>2011-07-04T06:56:20Z</time>
      </trkpt>
      <trkpt lat="45.19525" lon="5.66843">
        <ele>303</ele>
        <time>2011-07-04T06:56:23Z</time>
      </trkpt>
      <trkpt lat="45.19522" lon="5.66848">
        <ele>297</ele>
        <time>2011-07-04T06:56:27Z</time>
      </trkpt>
      <trkpt lat="45.19522" lon="5.66848">
        <ele>297</ele>
        <time>2011-07-04T06:56:27Z</time>
      </trkpt>
      <trkpt lat="45.19522" lon="5.66848">
        <ele>297</ele>
        <time>2011-07-04T06:56:31Z</time>
      </trkpt>
      <trkpt lat="45.19546" lon="5.66876">
        <ele>294</ele>
        <time>2011-07-04T06:58:35Z</time>
      </trkpt>
      <trkpt lat="45.19682" lon="5.66916">
        <ele>277</ele>
        <time>2011-07-04T06:58:59Z</time>
      </trkpt>
      <trkpt lat="45.19699" lon="5.66913">
        <ele>275</ele>
        <time>2011-07-04T06:59:02Z</time>
      </trkpt>
      <trkpt lat="45.19716" lon="5.66909">
        <ele>271</ele>
        <time>2011-07-04T06:59:04Z</time>
      </trkpt>
      <trkpt lat="45.1973" lon="5.6691">
        <ele>269</ele>
        <time>2011-07-04T06:59:06Z</time>
      </trkpt>
      <trkpt lat="45.19744" lon="5.66924">
        <ele>272</ele>
        <time>2011-07-04T06:59:11Z</time>
      </trkpt>
      <trkpt lat="45.19754" lon="5.66938">
        <ele>269</ele>
        <time>2011-07-04T06:59:14Z</time>
      </trkpt>
      <trkpt lat="45.19769" lon="5.66951">
        <ele>267</ele>
        <time>2011-07-04T06:59:17Z</time>
      </trkpt>
      <trkpt lat="45.19786" lon="5.66969">
        <ele>268</ele>
        <time>2011-07-04T06:59:20Z</time>
      </trkpt>
      <trkpt lat="45.19801" lon="5.66979">
        <ele>268</ele>
        <time>2011-07-04T06:59:24Z</time>
      </trkpt>
      <trkpt lat="45.19816" lon="5.66995">
        <ele>267</ele>
        <time>2011-07-04T06:59:27Z</time>
      </trkpt>
      <trkpt lat="45.19832" lon="5.67005">
        <ele>265</ele>
        <time>2011-07-04T06:59:30Z</time>
      </trkpt>
      <trkpt lat="45.19848" lon="5.67022">
        <ele>263</ele>
        <time>2011-07-04T06:59:34Z</time>
      </trkpt>
      <trkpt lat="45.19863" lon="5.6704">
        <ele>262</ele>
        <time>2011-07-04T06:59:37Z</time>
      </trkpt>
      <trkpt lat="45.19874" lon="5.67044">
        <ele>262</ele>
        <time>2011-07-04T06:59:40Z</time>
      </trkpt>
      <trkpt lat="45.19878" lon="5.6705">
        <ele>262</ele>
        <time>2011-07-04T06:59:44Z</time>
      </trkpt>
      <trkpt lat="45.19891" lon="5.67061">
        <ele>265</ele>
        <time>2011-07-04T07:00:00Z</time>
      </trkpt>
      <trkpt lat="45.19894" lon="5.67067">
        <ele>266</ele>
        <time>2011-07-04T07:00:01Z</time>
      </trkpt>
      <trkpt lat="45.19901" lon="5.67076">
        <ele>268</ele>
        <time>2011-07-04T07:00:03Z</time>
      </trkpt>
      <trkpt lat="45.19906" lon="5.67082">
        <ele>268</ele>
        <time>2011-07-04T07:00:04Z</time>
      </trkpt>
      <trkpt lat="45.1991" lon="5.67089">
        <ele>269</ele>
        <time>2011-07-04T07:00:05Z</time>
      </trkpt>
      <trkpt lat="45.19913" lon="5.67092">
        <ele>268</ele>
        <time>2011-07-04T07:00:06Z</time>
      </trkpt>
      <trkpt lat="45.19921" lon="5.671">
        <ele>269</ele>
        <time>2011-07-04T07:00:08Z</time>
      </trkpt>
      <trkpt lat="45.1993" lon="5.67106">
        <ele>268</ele>
        <time>2011-07-04T07:00:10Z</time>
      </trkpt>
      <trkpt lat="45.19935" lon="5.67109">
        <ele>269</ele>
        <time>2011-07-04T07:00:11Z</time>
      </trkpt>
      <trkpt lat="45.19939" lon="5.67114">
        <ele>269</ele>
        <time>2011-07-04T07:00:12Z</time>
      </trkpt>
      <trkpt lat="45.19943" lon="5.67119">
        <ele>269</ele>
        <time>2011-07-04T07:00:13Z</time>
      </trkpt>
      <trkpt lat="45.19949" lon="5.67124">
        <ele>268</ele>
        <time>2011-07-04T07:00:14Z</time>
      </trkpt>
      <trkpt lat="45.19954" lon="5.67126">
        <ele>267</ele>
        <time>2011-07-04T07:00:15Z</time>
      </trkpt>
      <trkpt lat="45.19959" lon="5.67129">
        <ele>267</ele>
        <time>2011-07-04T07:00:16Z</time>
      </trkpt>
      <trkpt lat="45.19962" lon="5.67135">
        <ele>266</ele>
        <time>2011-07-04T07:00:17Z</time>
      </trkpt>
      <trkpt lat="45.19965" lon="5.67143">
        <ele>265</ele>
        <time>2011-07-04T07:00:18Z</time>
      </trkpt>
      <trkpt lat="45.1997" lon="5.67151">
        <ele>264</ele>
        <time>2011-07-04T07:00:19Z</time>
      </trkpt>
      <trkpt lat="45.19975" lon="5.67161">
        <ele>264</ele>
        <time>2011-07-04T07:00:21Z</time>
      </trkpt>
      <trkpt lat="45.19978" lon="5.67166">
        <ele>264</ele>
        <time>2011-07-04T07:00:22Z</time>
      </trkpt>
      <trkpt lat="45.19982" lon="5.67172">
        <ele>264</ele>
        <time>2011-07-04T07:00:23Z</time>
      </trkpt>
      <trkpt lat="45.19985" lon="5.67179">
        <ele>264</ele>
        <time>2011-07-04T07:00:24Z</time>
      </trkpt>
      <trkpt lat="45.19986" lon="5.67186">
        <ele>264</ele>
        <time>2011-07-04T07:00:25Z</time>
      </trkpt>
      <trkpt lat="45.19989" lon="5.67192">
        <ele>264</ele>
        <time>2011-07-04T07:00:26Z</time>
      </trkpt>
      <trkpt lat="45.19993" lon="5.67204">
        <ele>264</ele>
        <time>2011-07-04T07:00:28Z</time>
      </trkpt>
      <trkpt lat="45.19996" lon="5.6721">
        <ele>264</ele>
        <time>2011-07-04T07:00:29Z</time>
      </trkpt>
      <trkpt lat="45.19999" lon="5.67218">
        <ele>264</ele>
        <time>2011-07-04T07:00:30Z</time>
      </trkpt>
      <trkpt lat="45.20001" lon="5.67226">
        <ele>264</ele>
        <time>2011-07-04T07:00:31Z</time>
      </trkpt>
      <trkpt lat="45.20003" lon="5.67234">
        <ele>264</ele>
        <time>2011-07-04T07:00:32Z</time>
      </trkpt>
      <trkpt lat="45.20005" lon="5.67242">
        <ele>264</ele>
        <time>2011-07-04T07:00:33Z</time>
      </trkpt>
      <trkpt lat="45.20008" lon="5.67249">
        <ele>264</ele>
        <time>2011-07-04T07:00:34Z</time>
      </trkpt>
      <trkpt lat="45.20009" lon="5.67257">
        <ele>264</ele>
        <time>2011-07-04T07:00:35Z</time>
      </trkpt>
      <trkpt lat="45.2001" lon="5.67265">
        <ele>264</ele>
        <time>2011-07-04T07:00:36Z</time>
      </trkpt>
      <trkpt lat="45.2001" lon="5.67272">
        <ele>263</ele>
        <time>2011-07-04T07:00:37Z</time>
      </trkpt>
      <trkpt lat="45.20011" lon="5.67279">
        <ele>264</ele>
        <time>2011-07-04T07:00:38Z</time>
      </trkpt>
      <trkpt lat="45.20011" lon="5.67287">
        <ele>262</ele>
        <time>2011-07-04T07:00:39Z</time>
      </trkpt>
      <trkpt lat="45.2001" lon="5.67295">
        <ele>262</ele>
        <time>2011-07-04T07:00:40Z</time>
      </trkpt>
      <trkpt lat="45.20011" lon="5.67307">
        <ele>261</ele>
        <time>2011-07-04T07:00:42Z</time>
      </trkpt>
      <trkpt lat="45.20012" lon="5.67314">
        <ele>261</ele>
        <time>2011-07-04T07:00:43Z</time>
      </trkpt>
      <trkpt lat="45.20014" lon="5.67322">
        <ele>262</ele>
        <time>2011-07-04T07:00:44Z</time>
      </trkpt>
      <trkpt lat="45.20017" lon="5.6733">
        <ele>261</ele>
        <time>2011-07-04T07:00:45Z</time>
      </trkpt>
      <trkpt lat="45.20019" lon="5.67339">
        <ele>262</ele>
        <time>2011-07-04T07:00:46Z</time>
      </trkpt>
      <trkpt lat="45.20022" lon="5.67347">
        <ele>263</ele>
        <time>2011-07-04T07:00:47Z</time>
      </trkpt>
      <trkpt lat="45.20027" lon="5.67354">
        <ele>263</ele>
        <time>2011-07-04T07:00:48Z</time>
      </trkpt>
      <trkpt lat="45.20031" lon="5.6736">
        <ele>262</ele>
        <time>2011-07-04T07:00:49Z</time>
      </trkpt>
      <trkpt lat="45.20037" lon="5.67364">
        <ele>262</ele>
        <time>2011-07-04T07:00:50Z</time>
      </trkpt>
      <trkpt lat="45.20041" lon="5.6737">
        <ele>262</ele>
        <time>2011-07-04T07:00:51Z</time>
      </trkpt>
      <trkpt lat="45.20045" lon="5.67376">
        <ele>262</ele>
        <time>2011-07-04T07:00:52Z</time>
      </trkpt>
      <trkpt lat="45.2005" lon="5.6738">
        <ele>262</ele>
        <time>2011-07-04T07:00:53Z</time>
      </trkpt>
      <trkpt lat="45.20054" lon="5.67385">
        <ele>262</ele>
        <time>2011-07-04T07:00:54Z</time>
      </trkpt>
      <trkpt lat="45.20059" lon="5.6739">
        <ele>262</ele>
        <time>2011-07-04T07:00:55Z</time>
      </trkpt>
      <trkpt lat="45.20067" lon="5.67399">
        <ele>263</ele>
        <time>2011-07-04T07:00:57Z</time>
      </trkpt>
      <trkpt lat="45.20071" lon="5.67406">
        <ele>263</ele>
        <time>2011-07-04T07:00:58Z</time>
      </trkpt>
      <trkpt lat="45.20075" lon="5.6741">
        <ele>263</ele>
        <time>2011-07-04T07:00:59Z</time>
      </trkpt>
      <trkpt lat="45.2008" lon="5.67414">
        <ele>263</ele>
        <time>2011-07-04T07:01:00Z</time>
      </trkpt>
      <trkpt lat="45.20086" lon="5.6742">
        <ele>264</ele>
        <time>2011-07-04T07:01:01Z</time>
      </trkpt>
      <trkpt lat="45.20092" lon="5.67423">
        <ele>265</ele>
        <time>2011-07-04T07:01:02Z</time>
      </trkpt>
      <trkpt lat="45.20097" lon="5.67428">
        <ele>265</ele>
        <time>2011-07-04T07:01:03Z</time>
      </trkpt>
      <trkpt lat="45.20103" lon="5.67433">
        <ele>265</ele>
        <time>2011-07-04T07:01:04Z</time>
      </trkpt>
      <trkpt lat="45.2011" lon="5.67436">
        <ele>265</ele>
        <time>2011-07-04T07:01:05Z</time>
      </trkpt>
      <trkpt lat="45.20116" lon="5.67441">
        <ele>264</ele>
        <time>2011-07-04T07:01:06Z</time>
      </trkpt>
      <trkpt lat="45.20124" lon="5.67444">
        <ele>263</ele>
        <time>2011-07-04T07:01:07Z</time>
      </trkpt>
      <trkpt lat="45.20131" lon="5.67445">
        <ele>262</ele>
        <time>2011-07-04T07:01:08Z</time>
      </trkpt>
      <trkpt lat="45.20136" lon="5.67449">
        <ele>261</ele>
        <time>2011-07-04T07:01:09Z</time>
      </trkpt>
      <trkpt lat="45.20142" lon="5.67452">
        <ele>260</ele>
        <time>2011-07-04T07:01:10Z</time>
      </trkpt>
      <trkpt lat="45.20147" lon="5.67456">
        <ele>261</ele>
        <time>2011-07-04T07:01:11Z</time>
      </trkpt>
      <trkpt lat="45.20153" lon="5.67458">
        <ele>260</ele>
        <time>2011-07-04T07:01:12Z</time>
      </trkpt>
      <trkpt lat="45.20158" lon="5.67463">
        <ele>260</ele>
        <time>2011-07-04T07:01:13Z</time>
      </trkpt>
      <trkpt lat="45.20164" lon="5.67467">
        <ele>260</ele>
        <time>2011-07-04T07:01:14Z</time>
      </trkpt>
      <trkpt lat="45.20169" lon="5.67474">
        <ele>260</ele>
        <time>2011-07-04T07:01:15Z</time>
      </trkpt>
      <trkpt lat="45.20174" lon="5.6748">
        <ele>260</ele>
        <time>2011-07-04T07:01:16Z</time>
      </trkpt>
      <trkpt lat="45.20178" lon="5.67487">
        <ele>260</ele>
        <time>2011-07-04T07:01:17Z</time>
      </trkpt>
      <trkpt lat="45.20181" lon="5.67495">
        <ele>260</ele>
        <time>2011-07-04T07:01:18Z</time>
      </trkpt>
      <trkpt lat="45.20182" lon="5.67504">
        <ele>260</ele>
        <time>2011-07-04T07:01:19Z</time>
      </trkpt>
      <trkpt lat="45.20185" lon="5.67511">
        <ele>260</ele>
        <time>2011-07-04T07:01:20Z</time>
      </trkpt>
      <trkpt lat="45.20186" lon="5.6752">
        <ele>260</ele>
        <time>2011-07-04T07:01:21Z</time>
      </trkpt>
      <trkpt lat="45.20188" lon="5.67528">
        <ele>260</ele>
        <time>2011-07-04T07:01:22Z</time>
      </trkpt>
      <trkpt lat="45.2019" lon="5.67536">
        <ele>260</ele>
        <time>2011-07-04T07:01:23Z</time>
      </trkpt>
      <trkpt lat="45.2019" lon="5.67546">
        <ele>260</ele>
        <time>2011-07-04T07:01:24Z</time>
      </trkpt>
      <trkpt lat="45.20192" lon="5.67555">
        <ele>260</ele>
        <time>2011-07-04T07:01:25Z</time>
      </trkpt>
      <trkpt lat="45.20193" lon="5.67563">
        <ele>260</ele>
        <time>2011-07-04T07:01:26Z</time>
      </trkpt>
      <trkpt lat="45.20193" lon="5.67572">
        <ele>260</ele>
        <time>2011-07-04T07:01:27Z</time>
      </trkpt>
      <trkpt lat="45.20195" lon="5.67581">
        <ele>260</ele>
        <time>2011-07-04T07:01:28Z</time>
      </trkpt>
      <trkpt lat="45.20196" lon="5.67588">
        <ele>260</ele>
        <time>2011-07-04T07:01:29Z</time>
      </trkpt>
      <trkpt lat="45.20198" lon="5.67597">
        <ele>260</ele>
        <time>2011-07-04T07:01:30Z</time>
      </trkpt>
      <trkpt lat="45.20197" lon="5.67606">
        <ele>261</ele>
        <time>2011-07-04T07:01:31Z</time>
      </trkpt>
      <trkpt lat="45.20198" lon="5.67614">
        <ele>261</ele>
        <time>2011-07-04T07:01:32Z</time>
      </trkpt>
      <trkpt lat="45.202" lon="5.67621">
        <ele>261</ele>
        <time>2011-07-04T07:01:33Z</time>
      </trkpt>
      <trkpt lat="45.202" lon="5.67628">
        <ele>260</ele>
        <time>2011-07-04T07:01:34Z</time>
      </trkpt>
      <trkpt lat="45.20202" lon="5.67638">
        <ele>260</ele>
        <time>2011-07-04T07:01:35Z</time>
      </trkpt>
      <trkpt lat="45.20203" lon="5.67644">
        <ele>260</ele>
        <time>2011-07-04T07:01:36Z</time>
      </trkpt>
      <trkpt lat="45.20202" lon="5.67652">
        <ele>261</ele>
        <time>2011-07-04T07:01:37Z</time>
      </trkpt>
      <trkpt lat="45.20202" lon="5.67662">
        <ele>261</ele>
        <time>2011-07-04T07:01:38Z</time>
      </trkpt>
      <trkpt lat="45.20201" lon="5.67671">
        <ele>260</ele>
        <time>2011-07-04T07:01:39Z</time>
      </trkpt>
      <trkpt lat="45.202" lon="5.67679">
        <ele>260</ele>
        <time>2011-07-04T07:01:40Z</time>
      </trkpt>
      <trkpt lat="45.20201" lon="5.67686">
        <ele>260</ele>
        <time>2011-07-04T07:01:41Z</time>
      </trkpt>
      <trkpt lat="45.20203" lon="5.67694">
        <ele>261</ele>
        <time>2011-07-04T07:01:42Z</time>
      </trkpt>
      <trkpt lat="45.20204" lon="5.677">
        <ele>261</ele>
        <time>2011-07-04T07:01:43Z</time>
      </trkpt>
      <trkpt lat="45.20206" lon="5.67708">
        <ele>261</ele>
        <time>2011-07-04T07:01:44Z</time>
      </trkpt>
      <trkpt lat="45.20207" lon="5.67716">
        <ele>260</ele>
        <time>2011-07-04T07:01:45Z</time>
      </trkpt>
      <trkpt lat="45.2021" lon="5.67723">
        <ele>261</ele>
        <time>2011-07-04T07:01:46Z</time>
      </trkpt>
      <trkpt lat="45.20215" lon="5.67728">
        <ele>261</ele>
        <time>2011-07-04T07:01:47Z</time>
      </trkpt>
      <trkpt lat="45.20218" lon="5.67734">
        <ele>261</ele>
        <time>2011-07-04T07:01:48Z</time>
      </trkpt>
      <trkpt lat="45.20222" lon="5.6774">
        <ele>261</ele>
        <time>2011-07-04T07:01:49Z</time>
      </trkpt>
      <trkpt lat="45.20225" lon="5.67746">
        <ele>261</ele>
        <time>2011-07-04T07:01:50Z</time>
      </trkpt>
      <trkpt lat="45.20229" lon="5.67752">
        <ele>261</ele>
        <time>2011-07-04T07:01:51Z</time>
      </trkpt>
      <trkpt lat="45.20232" lon="5.67758">
        <ele>261</ele>
        <time>2011-07-04T07:01:52Z</time>
      </trkpt>
      <trkpt lat="45.20236" lon="5.67763">
        <ele>261</ele>
        <time>2011-07-04T07:01:53Z</time>
      </trkpt>
      <trkpt lat="45.20238" lon="5.67769">
        <ele>261</ele>
        <time>2011-07-04T07:01:54Z</time>
      </trkpt>
      <trkpt lat="45.20242" lon="5.67776">
        <ele>261</ele>
        <time>2011-07-04T07:01:55Z</time>
      </trkpt>
      <trkpt lat="45.2025" lon="5.67792">
        <ele>261</ele>
        <time>2011-07-04T07:01:57Z</time>
      </trkpt>
      <trkpt lat="45.20254" lon="5.67798">
        <ele>261</ele>
        <time>2011-07-04T07:01:58Z</time>
      </trkpt>
      <trkpt lat="45.20257" lon="5.67805">
        <ele>261</ele>
        <time>2011-07-04T07:01:59Z</time>
      </trkpt>
      <trkpt lat="45.20259" lon="5.67811">
        <ele>261</ele>
        <time>2011-07-04T07:02:00Z</time>
      </trkpt>
      <trkpt lat="45.20262" lon="5.67816">
        <ele>261</ele>
        <time>2011-07-04T07:02:01Z</time>
      </trkpt>
      <trkpt lat="45.20266" lon="5.67824">
        <ele>261</ele>
        <time>2011-07-04T07:02:02Z</time>
      </trkpt>
      <trkpt lat="45.20269" lon="5.67831">
        <ele>260</ele>
        <time>2011-07-04T07:02:03Z</time>
      </trkpt>
      <trkpt lat="45.20274" lon="5.67838">
        <ele>260</ele>
        <time>2011-07-04T07:02:04Z</time>
      </trkpt>
      <trkpt lat="45.20278" lon="5.67844">
        <ele>261</ele>
        <time>2011-07-04T07:02:05Z</time>
      </trkpt>
      <trkpt lat="45.20282" lon="5.67852">
        <ele>261</ele>
        <time>2011-07-04T07:02:06Z</time>
      </trkpt>
      <trkpt lat="45.20286" lon="5.67858">
        <ele>262</ele>
        <time>2011-07-04T07:02:07Z</time>
      </trkpt>
      <trkpt lat="45.2029" lon="5.67864">
        <ele>261</ele>
        <time>2011-07-04T07:02:08Z</time>
      </trkpt>
      <trkpt lat="45.20293" lon="5.6787">
        <ele>262</ele>
        <time>2011-07-04T07:02:09Z</time>
      </trkpt>
      <trkpt lat="45.20297" lon="5.67877">
        <ele>261</ele>
        <time>2011-07-04T07:02:10Z</time>
      </trkpt>
      <trkpt lat="45.20301" lon="5.67884">
        <ele>261</ele>
        <time>2011-07-04T07:02:11Z</time>
      </trkpt>
      <trkpt lat="45.20304" lon="5.67891">
        <ele>261</ele>
        <time>2011-07-04T07:02:12Z</time>
      </trkpt>
      <trkpt lat="45.20308" lon="5.67898">
        <ele>261</ele>
        <time>2011-07-04T07:02:13Z</time>
      </trkpt>
      <trkpt lat="45.20312" lon="5.67902">
        <ele>261</ele>
        <time>2011-07-04T07:02:14Z</time>
      </trkpt>
      <trkpt lat="45.20316" lon="5.6791">
        <ele>261</ele>
        <time>2011-07-04T07:02:15Z</time>
      </trkpt>
      <trkpt lat="45.20319" lon="5.67917">
        <ele>262</ele>
        <time>2011-07-04T07:02:16Z</time>
      </trkpt>
      <trkpt lat="45.20324" lon="5.67923">
        <ele>260</ele>
        <time>2011-07-04T07:02:17Z</time>
      </trkpt>
      <trkpt lat="45.20328" lon="5.6793">
        <ele>260</ele>
        <time>2011-07-04T07:02:18Z</time>
      </trkpt>
      <trkpt lat="45.20331" lon="5.67936">
        <ele>260</ele>
        <time>2011-07-04T07:02:19Z</time>
      </trkpt>
      <trkpt lat="45.20334" lon="5.67943">
        <ele>260</ele>
        <time>2011-07-04T07:02:20Z</time>
      </trkpt>
      <trkpt lat="45.20337" lon="5.67949">
        <ele>259</ele>
        <time>2011-07-04T07:02:21Z</time>
      </trkpt>
      <trkpt lat="45.20341" lon="5.67955">
        <ele>259</ele>
        <time>2011-07-04T07:02:22Z</time>
      </trkpt>
      <trkpt lat="45.20343" lon="5.67962">
        <ele>259</ele>
        <time>2011-07-04T07:02:23Z</time>
      </trkpt>
      <trkpt lat="45.20347" lon="5.67969">
        <ele>258</ele>
        <time>2011-07-04T07:02:24Z</time>
      </trkpt>
      <trkpt lat="45.2035" lon="5.67976">
        <ele>257</ele>
        <time>2011-07-04T07:02:25Z</time>
      </trkpt>
      <trkpt lat="45.20353" lon="5.67983">
        <ele>257</ele>
        <time>2011-07-04T07:02:26Z</time>
      </trkpt>
      <trkpt lat="45.20356" lon="5.6799">
        <ele>257</ele>
        <time>2011-07-04T07:02:27Z</time>
      </trkpt>
      <trkpt lat="45.20359" lon="5.67997">
        <ele>257</ele>
        <time>2011-07-04T07:02:28Z</time>
      </trkpt>
      <trkpt lat="45.20362" lon="5.68003">
        <ele>257</ele>
        <time>2011-07-04T07:02:29Z</time>
      </trkpt>
      <trkpt lat="45.20364" lon="5.6801">
        <ele>257</ele>
        <time>2011-07-04T07:02:30Z</time>
      </trkpt>
      <trkpt lat="45.20367" lon="5.68016">
        <ele>258</ele>
        <time>2011-07-04T07:02:31Z</time>
      </trkpt>
      <trkpt lat="45.2037" lon="5.68022">
        <ele>258</ele>
        <time>2011-07-04T07:02:32Z</time>
      </trkpt>
      <trkpt lat="45.20374" lon="5.68028">
        <ele>258</ele>
        <time>2011-07-04T07:02:33Z</time>
      </trkpt>
      <trkpt lat="45.20377" lon="5.68035">
        <ele>258</ele>
        <time>2011-07-04T07:02:34Z</time>
      </trkpt>
      <trkpt lat="45.2038" lon="5.68042">
        <ele>258</ele>
        <time>2011-07-04T07:02:35Z</time>
      </trkpt>
      <trkpt lat="45.2039" lon="5.68061">
        <ele>259</ele>
        <time>2011-07-04T07:02:38Z</time>
      </trkpt>
      <trkpt lat="45.20393" lon="5.68067">
        <ele>259</ele>
        <time>2011-07-04T07:02:39Z</time>
      </trkpt>
      <trkpt lat="45.20397" lon="5.68073">
        <ele>259</ele>
        <time>2011-07-04T07:02:40Z</time>
      </trkpt>
      <trkpt lat="45.204" lon="5.68079">
        <ele>259</ele>
        <time>2011-07-04T07:02:41Z</time>
      </trkpt>
      <trkpt lat="45.20404" lon="5.68086">
        <ele>259</ele>
        <time>2011-07-04T07:02:42Z</time>
      </trkpt>
      <trkpt lat="45.20406" lon="5.68093">
        <ele>259</ele>
        <time>2011-07-04T07:02:43Z</time>
      </trkpt>
      <trkpt lat="45.20413" lon="5.68107">
        <ele>259</ele>
        <time>2011-07-04T07:02:45Z</time>
      </trkpt>
      <trkpt lat="45.20417" lon="5.68114">
        <ele>259</ele>
        <time>2011-07-04T07:02:46Z</time>
      </trkpt>
      <trkpt lat="45.2042" lon="5.6812">
        <ele>259</ele>
        <time>2011-07-04T07:02:47Z</time>
      </trkpt>
      <trkpt lat="45.20424" lon="5.68126">
        <ele>258</ele>
        <time>2011-07-04T07:02:48Z</time>
      </trkpt>
      <trkpt lat="45.20429" lon="5.68133">
        <ele>258</ele>
        <time>2011-07-04T07:02:49Z</time>
      </trkpt>
      <trkpt lat="45.20433" lon="5.6814">
        <ele>259</ele>
        <time>2011-07-04T07:02:50Z</time>
      </trkpt>
      <trkpt lat="45.20435" lon="5.68147">
        <ele>259</ele>
        <time>2011-07-04T07:02:51Z</time>
      </trkpt>
      <trkpt lat="45.20438" lon="5.68155">
        <ele>259</ele>
        <time>2011-07-04T07:02:52Z</time>
      </trkpt>
      <trkpt lat="45.20444" lon="5.68162">
        <ele>259</ele>
        <time>2011-07-04T07:02:53Z</time>
      </trkpt>
      <trkpt lat="45.20446" lon="5.68168">
        <ele>259</ele>
        <time>2011-07-04T07:02:54Z</time>
      </trkpt>
      <trkpt lat="45.2045" lon="5.68175">
        <ele>259</ele>
        <time>2011-07-04T07:02:55Z</time>
      </trkpt>
      <trkpt lat="45.20458" lon="5.68184">
        <ele>260</ele>
        <time>2011-07-04T07:02:57Z</time>
      </trkpt>
      <trkpt lat="45.20462" lon="5.6819">
        <ele>260</ele>
        <time>2011-07-04T07:02:58Z</time>
      </trkpt>
      <trkpt lat="45.20466" lon="5.68194">
        <ele>260</ele>
        <time>2011-07-04T07:02:59Z</time>
      </trkpt>
      <trkpt lat="45.20472" lon="5.68199">
        <ele>260</ele>
        <time>2011-07-04T07:03:00Z</time>
      </trkpt>
      <trkpt lat="45.20476" lon="5.68204">
        <ele>260</ele>
        <time>2011-07-04T07:03:01Z</time>
      </trkpt>
      <trkpt lat="45.20481" lon="5.68209">
        <ele>259</ele>
        <time>2011-07-04T07:03:02Z</time>
      </trkpt>
      <trkpt lat="45.20486" lon="5.68212">
        <ele>260</ele>
        <time>2011-07-04T07:03:03Z</time>
      </trkpt>
      <trkpt lat="45.20492" lon="5.68216">
        <ele>260</ele>
        <time>2011-07-04T07:03:04Z</time>
      </trkpt>
      <trkpt lat="45.20497" lon="5.68219">
        <ele>260</ele>
        <time>2011-07-04T07:03:05Z</time>
      </trkpt>
      <trkpt lat="45.20502" lon="5.68222">
        <ele>260</ele>
        <time>2011-07-04T07:03:06Z</time>
      </trkpt>
      <trkpt lat="45.20507" lon="5.68226">
        <ele>260</ele>
        <time>2011-07-04T07:03:07Z</time>
      </trkpt>
      <trkpt lat="45.20511" lon="5.6823">
        <ele>260</ele>
        <time>2011-07-04T07:03:08Z</time>
      </trkpt>
      <trkpt lat="45.20515" lon="5.68232">
        <ele>260</ele>
        <time>2011-07-04T07:03:09Z</time>
      </trkpt>
      <trkpt lat="45.20519" lon="5.68234">
        <ele>261</ele>
        <time>2011-07-04T07:03:10Z</time>
      </trkpt>
      <trkpt lat="45.20524" lon="5.68238">
        <ele>261</ele>
        <time>2011-07-04T07:03:11Z</time>
      </trkpt>
      <trkpt lat="45.20532" lon="5.68243">
        <ele>260</ele>
        <time>2011-07-04T07:03:13Z</time>
      </trkpt>
      <trkpt lat="45.20538" lon="5.68248">
        <ele>260</ele>
        <time>2011-07-04T07:03:15Z</time>
      </trkpt>
      <trkpt lat="45.20541" lon="5.68252">
        <ele>259</ele>
        <time>2011-07-04T07:03:19Z</time>
      </trkpt>
      <trkpt lat="45.20556" lon="5.68259">
        <ele>259</ele>
        <time>2011-07-04T07:03:50Z</time>
      </trkpt>
      <trkpt lat="45.20567" lon="5.68262">
        <ele>260</ele>
        <time>2011-07-04T07:03:52Z</time>
      </trkpt>
      <trkpt lat="45.20579" lon="5.68266">
        <ele>260</ele>
        <time>2011-07-04T07:03:54Z</time>
      </trkpt>
      <trkpt lat="45.2059" lon="5.68272">
        <ele>260</ele>
        <time>2011-07-04T07:03:56Z</time>
      </trkpt>
      <trkpt lat="45.20605" lon="5.68279">
        <ele>261</ele>
        <time>2011-07-04T07:03:59Z</time>
      </trkpt>
      <trkpt lat="45.20611" lon="5.6828">
        <ele>260</ele>
        <time>2011-07-04T07:04:00Z</time>
      </trkpt>
      <trkpt lat="45.20615" lon="5.68283">
        <ele>260</ele>
        <time>2011-07-04T07:04:01Z</time>
      </trkpt>
      <trkpt lat="45.20621" lon="5.68282">
        <ele>260</ele>
        <time>2011-07-04T07:04:02Z</time>
      </trkpt>
      <trkpt lat="45.20626" lon="5.68285">
        <ele>261</ele>
        <time>2011-07-04T07:04:03Z</time>
      </trkpt>
      <trkpt lat="45.20631" lon="5.68288">
        <ele>262</ele>
        <time>2011-07-04T07:04:04Z</time>
      </trkpt>
      <trkpt lat="45.20636" lon="5.6829">
        <ele>263</ele>
        <time>2011-07-04T07:04:05Z</time>
      </trkpt>
      <trkpt lat="45.20642" lon="5.68291">
        <ele>262</ele>
        <time>2011-07-04T07:04:06Z</time>
      </trkpt>
      <trkpt lat="45.20646" lon="5.68294">
        <ele>262</ele>
        <time>2011-07-04T07:04:07Z</time>
      </trkpt>
      <trkpt lat="45.20651" lon="5.68295">
        <ele>262</ele>
        <time>2011-07-04T07:04:08Z</time>
      </trkpt>
      <trkpt lat="45.2066" lon="5.68295">
        <ele>262</ele>
        <time>2011-07-04T07:04:10Z</time>
      </trkpt>
      <trkpt lat="45.20665" lon="5.68295">
        <ele>263</ele>
        <time>2011-07-04T07:04:11Z</time>
      </trkpt>
      <trkpt lat="45.20671" lon="5.68297">
        <ele>263</ele>
        <time>2011-07-04T07:04:12Z</time>
      </trkpt>
      <trkpt lat="45.20677" lon="5.68299">
        <ele>262</ele>
        <time>2011-07-04T07:04:13Z</time>
      </trkpt>
      <trkpt lat="45.20681" lon="5.683">
        <ele>262</ele>
        <time>2011-07-04T07:04:14Z</time>
      </trkpt>
      <trkpt lat="45.2069" lon="5.68302">
        <ele>263</ele>
        <time>2011-07-04T07:04:16Z</time>
      </trkpt>
      <trkpt lat="45.20695" lon="5.68303">
        <ele>263</ele>
        <time>2011-07-04T07:04:17Z</time>
      </trkpt>
      <trkpt lat="45.20703" lon="5.68308">
        <ele>265</ele>
        <time>2011-07-04T07:04:19Z</time>
      </trkpt>
      <trkpt lat="45.20707" lon="5.68309">
        <ele>265</ele>
        <time>2011-07-04T07:04:20Z</time>
      </trkpt>
      <trkpt lat="45.20712" lon="5.68311">
        <ele>265</ele>
        <time>2011-07-04T07:04:21Z</time>
      </trkpt>
      <trkpt lat="45.20717" lon="5.68313">
        <ele>265</ele>
        <time>2011-07-04T07:04:22Z</time>
      </trkpt>
      <trkpt lat="45.20721" lon="5.68316">
        <ele>265</ele>
        <time>2011-07-04T07:04:23Z</time>
      </trkpt>
      <trkpt lat="45.20726" lon="5.68319">
        <ele>264</ele>
        <time>2011-07-04T07:04:24Z</time>
      </trkpt>
      <trkpt lat="45.2073" lon="5.68322">
        <ele>264</ele>
        <time>2011-07-04T07:04:25Z</time>
      </trkpt>
      <trkpt lat="45.20734" lon="5.68327">
        <ele>265</ele>
        <time>2011-07-04T07:04:26Z</time>
      </trkpt>
      <trkpt lat="45.20738" lon="5.68331">
        <ele>265</ele>
        <time>2011-07-04T07:04:27Z</time>
      </trkpt>
      <trkpt lat="45.20742" lon="5.68335">
        <ele>265</ele>
        <time>2011-07-04T07:04:28Z</time>
      </trkpt>
      <trkpt lat="45.2075" lon="5.68343">
        <ele>266</ele>
        <time>2011-07-04T07:04:30Z</time>
      </trkpt>
      <trkpt lat="45.20757" lon="5.68352">
        <ele>266</ele>
        <time>2011-07-04T07:04:32Z</time>
      </trkpt>
      <trkpt lat="45.20764" lon="5.68362">
        <ele>267</ele>
        <time>2011-07-04T07:04:34Z</time>
      </trkpt>
      <trkpt lat="45.2077" lon="5.68371">
        <ele>266</ele>
        <time>2011-07-04T07:04:36Z</time>
      </trkpt>
      <trkpt lat="45.20774" lon="5.68376">
        <ele>267</ele>
        <time>2011-07-04T07:04:37Z</time>
      </trkpt>
      <trkpt lat="45.20777" lon="5.6838">
        <ele>267</ele>
        <time>2011-07-04T07:04:38Z</time>
      </trkpt>
      <trkpt lat="45.20781" lon="5.68385">
        <ele>267</ele>
        <time>2011-07-04T07:04:39Z</time>
      </trkpt>
      <trkpt lat="45.20785" lon="5.6839">
        <ele>268</ele>
        <time>2011-07-04T07:04:40Z</time>
      </trkpt>
      <trkpt lat="45.20789" lon="5.68395">
        <ele>268</ele>
        <time>2011-07-04T07:04:41Z</time>
      </trkpt>
      <trkpt lat="45.20792" lon="5.68399">
        <ele>268</ele>
        <time>2011-07-04T07:04:42Z</time>
      </trkpt>
      <trkpt lat="45.20796" lon="5.68404">
        <ele>268</ele>
        <time>2011-07-04T07:04:43Z</time>
      </trkpt>
      <trkpt lat="45.20804" lon="5.68413">
        <ele>268</ele>
        <time>2011-07-04T07:04:45Z</time>
      </trkpt>
      <trkpt lat="45.20807" lon="5.68418">
        <ele>267</ele>
        <time>2011-07-04T07:04:46Z</time>
      </trkpt>
      <trkpt lat="45.20811" lon="5.68424">
        <ele>268</ele>
        <time>2011-07-04T07:04:47Z</time>
      </trkpt>
      <trkpt lat="45.20814" lon="5.68429">
        <ele>268</ele>
        <time>2011-07-04T07:04:48Z</time>
      </trkpt>
      <trkpt lat="45.20818" lon="5.68434">
        <ele>268</ele>
        <time>2011-07-04T07:04:49Z</time>
      </trkpt>
      <trkpt lat="45.20822" lon="5.68439">
        <ele>268</ele>
        <time>2011-07-04T07:04:50Z</time>
      </trkpt>
      <trkpt lat="45.20825" lon="5.68444">
        <ele>268</ele>
        <time>2011-07-04T07:04:51Z</time>
      </trkpt>
      <trkpt lat="45.20829" lon="5.68449">
        <ele>268</ele>
        <time>2011-07-04T07:04:52Z</time>
      </trkpt>
      <trkpt lat="45.20833" lon="5.68455">
        <ele>268</ele>
        <time>2011-07-04T07:04:53Z</time>
      </trkpt>
      <trkpt lat="45.20836" lon="5.6846">
        <ele>268</ele>
        <time>2011-07-04T07:04:54Z</time>
      </trkpt>
      <trkpt lat="45.2084" lon="5.68466">
        <ele>268</ele>
        <time>2011-07-04T07:04:55Z</time>
      </trkpt>
      <trkpt lat="45.20844" lon="5.68471">
        <ele>268</ele>
        <time>2011-07-04T07:04:56Z</time>
      </trkpt>
      <trkpt lat="45.20852" lon="5.68482">
        <ele>268</ele>
        <time>2011-07-04T07:04:58Z</time>
      </trkpt>
      <trkpt lat="45.20856" lon="5.68488">
        <ele>268</ele>
        <time>2011-07-04T07:04:59Z</time>
      </trkpt>
      <trkpt lat="45.20861" lon="5.68494">
        <ele>268</ele>
        <time>2011-07-04T07:05:00Z</time>
      </trkpt>
      <trkpt lat="45.20865" lon="5.685">
        <ele>268</ele>
        <time>2011-07-04T07:05:01Z</time>
      </trkpt>
      <trkpt lat="45.2087" lon="5.68506">
        <ele>267</ele>
        <time>2011-07-04T07:05:02Z</time>
      </trkpt>
      <trkpt lat="45.20874" lon="5.68513">
        <ele>268</ele>
        <time>2011-07-04T07:05:03Z</time>
      </trkpt>
      <trkpt lat="45.20878" lon="5.68519">
        <ele>267</ele>
        <time>2011-07-04T07:05:04Z</time>
      </trkpt>
      <trkpt lat="45.20882" lon="5.68524">
        <ele>268</ele>
        <time>2011-07-04T07:05:05Z</time>
      </trkpt>
      <trkpt lat="45.20886" lon="5.68531">
        <ele>268</ele>
        <time>2011-07-04T07:05:06Z</time>
      </trkpt>
      <trkpt lat="45.20888" lon="5.68538">
        <ele>268</ele>
        <time>2011-07-04T07:05:07Z</time>
      </trkpt>
      <trkpt lat="45.2089" lon="5.68546">
        <ele>268</ele>
        <time>2011-07-04T07:05:08Z</time>
      </trkpt>
      <trkpt lat="45.20889" lon="5.68555">
        <ele>268</ele>
        <time>2011-07-04T07:05:09Z</time>
      </trkpt>
      <trkpt lat="45.20884" lon="5.68562">
        <ele>268</ele>
        <time>2011-07-04T07:05:10Z</time>
      </trkpt>
      <trkpt lat="45.20877" lon="5.68568">
        <ele>268</ele>
        <time>2011-07-04T07:05:11Z</time>
      </trkpt>
      <trkpt lat="45.20872" lon="5.68573">
        <ele>268</ele>
        <time>2011-07-04T07:05:12Z</time>
      </trkpt>
      <trkpt lat="45.20865" lon="5.68579">
        <ele>268</ele>
        <time>2011-07-04T07:05:13Z</time>
      </trkpt>
      <trkpt lat="45.2086" lon="5.68585">
        <ele>267</ele>
        <time>2011-07-04T07:05:14Z</time>
      </trkpt>
      <trkpt lat="45.20853" lon="5.68591">
        <ele>267</ele>
        <time>2011-07-04T07:05:15Z</time>
      </trkpt>
      <trkpt lat="45.20847" lon="5.68598">
        <ele>267</ele>
        <time>2011-07-04T07:05:16Z</time>
      </trkpt>
      <trkpt lat="45.2084" lon="5.68601">
        <ele>267</ele>
        <time>2011-07-04T07:05:17Z</time>
      </trkpt>
      <trkpt lat="45.20834" lon="5.68603">
        <ele>267</ele>
        <time>2011-07-04T07:05:18Z</time>
      </trkpt>
      <trkpt lat="45.20828" lon="5.68601">
        <ele>267</ele>
        <time>2011-07-04T07:05:19Z</time>
      </trkpt>
      <trkpt lat="45.20822" lon="5.686">
        <ele>267</ele>
        <time>2011-07-04T07:05:20Z</time>
      </trkpt>
      <trkpt lat="45.20815" lon="5.68598">
        <ele>267</ele>
        <time>2011-07-04T07:05:22Z</time>
      </trkpt>
      <trkpt lat="45.20817" lon="5.68591">
        <ele>267</ele>
        <time>2011-07-04T07:05:24Z</time>
      </trkpt>
      <trkpt lat="45.20824" lon="5.68584">
        <ele>267</ele>
        <time>2011-07-04T07:05:25Z</time>
      </trkpt>
      <trkpt lat="45.20834" lon="5.68572">
        <ele>267</ele>
        <time>2011-07-04T07:05:26Z</time>
      </trkpt>
      <trkpt lat="45.20841" lon="5.68564">
        <ele>267</ele>
        <time>2011-07-04T07:05:27Z</time>
      </trkpt>
      <trkpt lat="45.20849" lon="5.68556">
        <ele>268</ele>
        <time>2011-07-04T07:05:28Z</time>
      </trkpt>
      <trkpt lat="45.20854" lon="5.68549">
        <ele>268</ele>
        <time>2011-07-04T07:05:29Z</time>
      </trkpt>
      <trkpt lat="45.2086" lon="5.68542">
        <ele>268</ele>
        <time>2011-07-04T07:05:30Z</time>
      </trkpt>
      <trkpt lat="45.20866" lon="5.68533">
        <ele>268</ele>
        <time>2011-07-04T07:05:31Z</time>
      </trkpt>
      <trkpt lat="45.20873" lon="5.68522">
        <ele>268</ele>
        <time>2011-07-04T07:05:32Z</time>
      </trkpt>
      <trkpt lat="45.20882" lon="5.68511">
        <ele>268</ele>
        <time>2011-07-04T07:05:33Z</time>
      </trkpt>
      <trkpt lat="45.20888" lon="5.68502">
        <ele>267</ele>
        <time>2011-07-04T07:05:34Z</time>
      </trkpt>
      <trkpt lat="45.20894" lon="5.68492">
        <ele>268</ele>
        <time>2011-07-04T07:05:35Z</time>
      </trkpt>
      <trkpt lat="45.20902" lon="5.68485">
        <ele>268</ele>
        <time>2011-07-04T07:05:36Z</time>
      </trkpt>
      <trkpt lat="45.20908" lon="5.68479">
        <ele>268</ele>
        <time>2011-07-04T07:05:37Z</time>
      </trkpt>
      <trkpt lat="45.20914" lon="5.68475">
        <ele>268</ele>
        <time>2011-07-04T07:05:38Z</time>
      </trkpt>
      <trkpt lat="45.2092" lon="5.68473">
        <ele>268</ele>
        <time>2011-07-04T07:05:39Z</time>
      </trkpt>
      <trkpt lat="45.20925" lon="5.68472">
        <ele>268</ele>
        <time>2011-07-04T07:05:40Z</time>
      </trkpt>
      <trkpt lat="45.2093" lon="5.68472">
        <ele>269</ele>
        <time>2011-07-04T07:05:41Z</time>
      </trkpt>
      <trkpt lat="45.20936" lon="5.68481">
        <ele>268</ele>
        <time>2011-07-04T07:05:43Z</time>
      </trkpt>
      <trkpt lat="45.20939" lon="5.68486">
        <ele>268</ele>
        <time>2011-07-04T07:05:44Z</time>
      </trkpt>
      <trkpt lat="45.20947" lon="5.68486">
        <ele>268</ele>
        <time>2011-07-04T07:05:45Z</time>
      </trkpt>
      <trkpt lat="45.20958" lon="5.68486">
        <ele>268</ele>
        <time>2011-07-04T07:05:47Z</time>
      </trkpt>
      <trkpt lat="45.20962" lon="5.68486">
        <ele>268</ele>
        <time>2011-07-04T07:05:48Z</time>
      </trkpt>
      <trkpt lat="45.20968" lon="5.68483">
        <ele>268</ele>
        <time>2011-07-04T07:05:49Z</time>
      </trkpt>
      <trkpt lat="45.20974" lon="5.6848">
        <ele>268</ele>
        <time>2011-07-04T07:05:50Z</time>
      </trkpt>
      <trkpt lat="45.20979" lon="5.68476">
        <ele>268</ele>
        <time>2011-07-04T07:05:51Z</time>
      </trkpt>
      <trkpt lat="45.20985" lon="5.68472">
        <ele>268</ele>
        <time>2011-07-04T07:05:52Z</time>
      </trkpt>
      <trkpt lat="45.2099" lon="5.68467">
        <ele>268</ele>
        <time>2011-07-04T07:05:53Z</time>
      </trkpt>
      <trkpt lat="45.20996" lon="5.68464">
        <ele>268</ele>
        <time>2011-07-04T07:05:54Z</time>
      </trkpt>
      <trkpt lat="45.21002" lon="5.68459">
        <ele>268</ele>
        <time>2011-07-04T07:05:55Z</time>
      </trkpt>
      <trkpt lat="45.21009" lon="5.68455">
        <ele>268</ele>
        <time>2011-07-04T07:05:56Z</time>
      </trkpt>
      <trkpt lat="45.2102" lon="5.68447">
        <ele>268</ele>
        <time>2011-07-04T07:05:58Z</time>
      </trkpt>
      <trkpt lat="45.21026" lon="5.68442">
        <ele>268</ele>
        <time>2011-07-04T07:05:59Z</time>
      </trkpt>
      <trkpt lat="45.21032" lon="5.68437">
        <ele>267</ele>
        <time>2011-07-04T07:06:00Z</time>
      </trkpt>
      <trkpt lat="45.21038" lon="5.68433">
        <ele>267</ele>
        <time>2011-07-04T07:06:01Z</time>
      </trkpt>
      <trkpt lat="45.21044" lon="5.68429">
        <ele>267</ele>
        <time>2011-07-04T07:06:02Z</time>
      </trkpt>
      <trkpt lat="45.21049" lon="5.68427">
        <ele>268</ele>
        <time>2011-07-04T07:06:03Z</time>
      </trkpt>
      <trkpt lat="45.21056" lon="5.68423">
        <ele>268</ele>
        <time>2011-07-04T07:06:04Z</time>
      </trkpt>
      <trkpt lat="45.2107" lon="5.68418">
        <ele>268</ele>
        <time>2011-07-04T07:06:06Z</time>
      </trkpt>
      <trkpt lat="45.21076" lon="5.68417">
        <ele>268</ele>
        <time>2011-07-04T07:06:07Z</time>
      </trkpt>
      <trkpt lat="45.21083" lon="5.68416">
        <ele>269</ele>
        <time>2011-07-04T07:06:08Z</time>
      </trkpt>
      <trkpt lat="45.2109" lon="5.68417">
        <ele>269</ele>
        <time>2011-07-04T07:06:09Z</time>
      </trkpt>
      <trkpt lat="45.21098" lon="5.68419">
        <ele>269</ele>
        <time>2011-07-04T07:06:10Z</time>
      </trkpt>
      <trkpt lat="45.21106" lon="5.68422">
        <ele>268</ele>
        <time>2011-07-04T07:06:11Z</time>
      </trkpt>
      <trkpt lat="45.21116" lon="5.68423">
        <ele>269</ele>
        <time>2011-07-04T07:06:12Z</time>
      </trkpt>
      <trkpt lat="45.21124" lon="5.68429">
        <ele>269</ele>
        <time>2011-07-04T07:06:13Z</time>
      </trkpt>
      <trkpt lat="45.21131" lon="5.68435">
        <ele>268</ele>
        <time>2011-07-04T07:06:14Z</time>
      </trkpt>
      <trkpt lat="45.21136" lon="5.68446">
        <ele>268</ele>
        <time>2011-07-04T07:06:15Z</time>
      </trkpt>
      <trkpt lat="45.21141" lon="5.68454">
        <ele>268</ele>
        <time>2011-07-04T07:06:16Z</time>
      </trkpt>
      <trkpt lat="45.21144" lon="5.68464">
        <ele>269</ele>
        <time>2011-07-04T07:06:17Z</time>
      </trkpt>
      <trkpt lat="45.21148" lon="5.68478">
        <ele>268</ele>
        <time>2011-07-04T07:06:19Z</time>
      </trkpt>
      <trkpt lat="45.21147" lon="5.68488">
        <ele>268</ele>
        <time>2011-07-04T07:06:20Z</time>
      </trkpt>
      <trkpt lat="45.21142" lon="5.68499">
        <ele>268</ele>
        <time>2011-07-04T07:06:21Z</time>
      </trkpt>
      <trkpt lat="45.21139" lon="5.6851">
        <ele>268</ele>
        <time>2011-07-04T07:06:22Z</time>
      </trkpt>
      <trkpt lat="45.21138" lon="5.6852">
        <ele>268</ele>
        <time>2011-07-04T07:06:23Z</time>
      </trkpt>
      <trkpt lat="45.21138" lon="5.68531">
        <ele>268</ele>
        <time>2011-07-04T07:06:24Z</time>
      </trkpt>
      <trkpt lat="45.21138" lon="5.68541">
        <ele>268</ele>
        <time>2011-07-04T07:06:25Z</time>
      </trkpt>
      <trkpt lat="45.21124" lon="5.68562">
        <ele>267</ele>
        <time>2011-07-04T07:06:27Z</time>
      </trkpt>
      <trkpt lat="45.21119" lon="5.6857">
        <ele>267</ele>
        <time>2011-07-04T07:06:28Z</time>
      </trkpt>
      <trkpt lat="45.21116" lon="5.68577">
        <ele>267</ele>
        <time>2011-07-04T07:06:29Z</time>
      </trkpt>
      <trkpt lat="45.21114" lon="5.68583">
        <ele>267</ele>
        <time>2011-07-04T07:06:30Z</time>
      </trkpt>
      <trkpt lat="45.21113" lon="5.68593">
        <ele>266</ele>
        <time>2011-07-04T07:06:31Z</time>
      </trkpt>
      <trkpt lat="45.2111" lon="5.68599">
        <ele>266</ele>
        <time>2011-07-04T07:06:32Z</time>
      </trkpt>
      <trkpt lat="45.21108" lon="5.68607">
        <ele>266</ele>
        <time>2011-07-04T07:06:33Z</time>
      </trkpt>
      <trkpt lat="45.21106" lon="5.68615">
        <ele>265</ele>
        <time>2011-07-04T07:06:34Z</time>
      </trkpt>
      <trkpt lat="45.21104" lon="5.68626">
        <ele>264</ele>
        <time>2011-07-04T07:06:35Z</time>
      </trkpt>
      <trkpt lat="45.21102" lon="5.68634">
        <ele>264</ele>
        <time>2011-07-04T07:06:36Z</time>
      </trkpt>
      <trkpt lat="45.211" lon="5.68643">
        <ele>264</ele>
        <time>2011-07-04T07:06:37Z</time>
      </trkpt>
      <trkpt lat="45.21099" lon="5.6865">
        <ele>264</ele>
        <time>2011-07-04T07:06:38Z</time>
      </trkpt>
      <trkpt lat="45.21097" lon="5.68656">
        <ele>264</ele>
        <time>2011-07-04T07:06:39Z</time>
      </trkpt>
      <trkpt lat="45.21093" lon="5.68663">
        <ele>263</ele>
        <time>2011-07-04T07:06:40Z</time>
      </trkpt>
      <trkpt lat="45.21092" lon="5.6867">
        <ele>264</ele>
        <time>2011-07-04T07:06:41Z</time>
      </trkpt>
      <trkpt lat="45.2109" lon="5.68678">
        <ele>264</ele>
        <time>2011-07-04T07:06:42Z</time>
      </trkpt>
      <trkpt lat="45.21089" lon="5.68685">
        <ele>264</ele>
        <time>2011-07-04T07:06:43Z</time>
      </trkpt>
      <trkpt lat="45.21087" lon="5.68693">
        <ele>264</ele>
        <time>2011-07-04T07:06:44Z</time>
      </trkpt>
      <trkpt lat="45.21085" lon="5.68701">
        <ele>265</ele>
        <time>2011-07-04T07:06:45Z</time>
      </trkpt>
      <trkpt lat="45.21083" lon="5.68708">
        <ele>265</ele>
        <time>2011-07-04T07:06:46Z</time>
      </trkpt>
      <trkpt lat="45.21082" lon="5.68716">
        <ele>265</ele>
        <time>2011-07-04T07:06:47Z</time>
      </trkpt>
      <trkpt lat="45.21079" lon="5.68723">
        <ele>266</ele>
        <time>2011-07-04T07:06:48Z</time>
      </trkpt>
      <trkpt lat="45.21078" lon="5.6873">
        <ele>265</ele>
        <time>2011-07-04T07:06:49Z</time>
      </trkpt>
      <trkpt lat="45.21076" lon="5.68738">
        <ele>266</ele>
        <time>2011-07-04T07:06:50Z</time>
      </trkpt>
      <trkpt lat="45.21074" lon="5.68746">
        <ele>266</ele>
        <time>2011-07-04T07:06:51Z</time>
      </trkpt>
      <trkpt lat="45.21072" lon="5.68754">
        <ele>265</ele>
        <time>2011-07-04T07:06:52Z</time>
      </trkpt>
      <trkpt lat="45.2107" lon="5.68762">
        <ele>265</ele>
        <time>2011-07-04T07:06:53Z</time>
      </trkpt>
      <trkpt lat="45.21068" lon="5.6877">
        <ele>265</ele>
        <time>2011-07-04T07:06:54Z</time>
      </trkpt>
      <trkpt lat="45.21067" lon="5.68778">
        <ele>265</ele>
        <time>2011-07-04T07:06:55Z</time>
      </trkpt>
      <trkpt lat="45.21065" lon="5.68786">
        <ele>265</ele>
        <time>2011-07-04T07:06:56Z</time>
      </trkpt>
      <trkpt lat="45.21062" lon="5.68802">
        <ele>266</ele>
        <time>2011-07-04T07:06:58Z</time>
      </trkpt>
      <trkpt lat="45.21061" lon="5.6881">
        <ele>265</ele>
        <time>2011-07-04T07:06:59Z</time>
      </trkpt>
      <trkpt lat="45.2106" lon="5.68817">
        <ele>266</ele>
        <time>2011-07-04T07:07:00Z</time>
      </trkpt>
      <trkpt lat="45.21058" lon="5.68826">
        <ele>266</ele>
        <time>2011-07-04T07:07:01Z</time>
      </trkpt>
      <trkpt lat="45.21057" lon="5.68833">
        <ele>266</ele>
        <time>2011-07-04T07:07:02Z</time>
      </trkpt>
      <trkpt lat="45.21056" lon="5.68842">
        <ele>266</ele>
        <time>2011-07-04T07:07:03Z</time>
      </trkpt>
      <trkpt lat="45.21055" lon="5.68849">
        <ele>266</ele>
        <time>2011-07-04T07:07:04Z</time>
      </trkpt>
      <trkpt lat="45.21054" lon="5.68858">
        <ele>266</ele>
        <time>2011-07-04T07:07:05Z</time>
      </trkpt>
      <trkpt lat="45.21053" lon="5.68866">
        <ele>266</ele>
        <time>2011-07-04T07:07:06Z</time>
      </trkpt>
      <trkpt lat="45.21052" lon="5.68875">
        <ele>266</ele>
        <time>2011-07-04T07:07:07Z</time>
      </trkpt>
      <trkpt lat="45.2105" lon="5.68884">
        <ele>265</ele>
        <time>2011-07-04T07:07:08Z</time>
      </trkpt>
      <trkpt lat="45.21048" lon="5.68892">
        <ele>265</ele>
        <time>2011-07-04T07:07:09Z</time>
      </trkpt>
      <trkpt lat="45.21047" lon="5.689">
        <ele>266</ele>
        <time>2011-07-04T07:07:10Z</time>
      </trkpt>
      <trkpt lat="45.21045" lon="5.68909">
        <ele>266</ele>
        <time>2011-07-04T07:07:11Z</time>
      </trkpt>
      <trkpt lat="45.21044" lon="5.68917">
        <ele>266</ele>
        <time>2011-07-04T07:07:12Z</time>
      </trkpt>
      <trkpt lat="45.21042" lon="5.68926">
        <ele>266</ele>
        <time>2011-07-04T07:07:13Z</time>
      </trkpt>
      <trkpt lat="45.21041" lon="5.68934">
        <ele>266</ele>
        <time>2011-07-04T07:07:14Z</time>
      </trkpt>
      <trkpt lat="45.2104" lon="5.68943">
        <ele>266</ele>
        <time>2011-07-04T07:07:15Z</time>
      </trkpt>
      <trkpt lat="45.2104" lon="5.68951">
        <ele>266</ele>
        <time>2011-07-04T07:07:16Z</time>
      </trkpt>
      <trkpt lat="45.2104" lon="5.68959">
        <ele>267</ele>
        <time>2011-07-04T07:07:17Z</time>
      </trkpt>
      <trkpt lat="45.21039" lon="5.68967">
        <ele>267</ele>
        <time>2011-07-04T07:07:18Z</time>
      </trkpt>
      <trkpt lat="45.21038" lon="5.68975">
        <ele>267</ele>
        <time>2011-07-04T07:07:19Z</time>
      </trkpt>
      <trkpt lat="45.21037" lon="5.68984">
        <ele>268</ele>
        <time>2011-07-04T07:07:20Z</time>
      </trkpt>
      <trkpt lat="45.21035" lon="5.68992">
        <ele>268</ele>
        <time>2011-07-04T07:07:21Z</time>
      </trkpt>
      <trkpt lat="45.21034" lon="5.69">
        <ele>268</ele>
        <time>2011-07-04T07:07:22Z</time>
      </trkpt>
      <trkpt lat="45.21033" lon="5.69008">
        <ele>268</ele>
        <time>2011-07-04T07:07:23Z</time>
      </trkpt>
      <trkpt lat="45.21032" lon="5.69016">
        <ele>267</ele>
        <time>2011-07-04T07:07:24Z</time>
      </trkpt>
      <trkpt lat="45.21031" lon="5.69025">
        <ele>267</ele>
        <time>2011-07-04T07:07:25Z</time>
      </trkpt>
      <trkpt lat="45.2103" lon="5.69034">
        <ele>266</ele>
        <time>2011-07-04T07:07:26Z</time>
      </trkpt>
      <trkpt lat="45.21027" lon="5.69043">
        <ele>266</ele>
        <time>2011-07-04T07:07:27Z</time>
      </trkpt>
      <trkpt lat="45.21026" lon="5.69051">
        <ele>266</ele>
        <time>2011-07-04T07:07:28Z</time>
      </trkpt>
      <trkpt lat="45.21025" lon="5.69059">
        <ele>266</ele>
        <time>2011-07-04T07:07:29Z</time>
      </trkpt>
      <trkpt lat="45.21023" lon="5.69069">
        <ele>265</ele>
        <time>2011-07-04T07:07:30Z</time>
      </trkpt>
      <trkpt lat="45.21023" lon="5.69077">
        <ele>265</ele>
        <time>2011-07-04T07:07:31Z</time>
      </trkpt>
      <trkpt lat="45.21022" lon="5.69085">
        <ele>264</ele>
        <time>2011-07-04T07:07:32Z</time>
      </trkpt>
      <trkpt lat="45.2102" lon="5.69093">
        <ele>264</ele>
        <time>2011-07-04T07:07:33Z</time>
      </trkpt>
      <trkpt lat="45.2102" lon="5.69102">
        <ele>264</ele>
        <time>2011-07-04T07:07:34Z</time>
      </trkpt>
      <trkpt lat="45.21018" lon="5.69111">
        <ele>263</ele>
        <time>2011-07-04T07:07:35Z</time>
      </trkpt>
      <trkpt lat="45.21017" lon="5.6912">
        <ele>264</ele>
        <time>2011-07-04T07:07:36Z</time>
      </trkpt>
      <trkpt lat="45.21016" lon="5.69128">
        <ele>264</ele>
        <time>2011-07-04T07:07:37Z</time>
      </trkpt>
      <trkpt lat="45.21014" lon="5.69137">
        <ele>264</ele>
        <time>2011-07-04T07:07:38Z</time>
      </trkpt>
      <trkpt lat="45.21013" lon="5.69145">
        <ele>264</ele>
        <time>2011-07-04T07:07:39Z</time>
      </trkpt>
      <trkpt lat="45.21012" lon="5.69153">
        <ele>265</ele>
        <time>2011-07-04T07:07:40Z</time>
      </trkpt>
      <trkpt lat="45.21011" lon="5.69162">
        <ele>265</ele>
        <time>2011-07-04T07:07:41Z</time>
      </trkpt>
      <trkpt lat="45.2101" lon="5.69171">
        <ele>265</ele>
        <time>2011-07-04T07:07:42Z</time>
      </trkpt>
      <trkpt lat="45.21009" lon="5.69181">
        <ele>265</ele>
        <time>2011-07-04T07:07:43Z</time>
      </trkpt>
      <trkpt lat="45.21008" lon="5.69189">
        <ele>266</ele>
        <time>2011-07-04T07:07:44Z</time>
      </trkpt>
      <trkpt lat="45.21008" lon="5.69198">
        <ele>267</ele>
        <time>2011-07-04T07:07:45Z</time>
      </trkpt>
      <trkpt lat="45.21006" lon="5.69208">
        <ele>267</ele>
        <time>2011-07-04T07:07:46Z</time>
      </trkpt>
      <trkpt lat="45.21006" lon="5.69217">
        <ele>267</ele>
        <time>2011-07-04T07:07:47Z</time>
      </trkpt>
      <trkpt lat="45.21006" lon="5.69226">
        <ele>268</ele>
        <time>2011-07-04T07:07:48Z</time>
      </trkpt>
      <trkpt lat="45.21005" lon="5.69235">
        <ele>268</ele>
        <time>2011-07-04T07:07:49Z</time>
      </trkpt>
      <trkpt lat="45.21003" lon="5.69244">
        <ele>268</ele>
        <time>2011-07-04T07:07:50Z</time>
      </trkpt>
      <trkpt lat="45.21002" lon="5.69253">
        <ele>268</ele>
        <time>2011-07-04T07:07:51Z</time>
      </trkpt>
      <trkpt lat="45.21001" lon="5.69262">
        <ele>268</ele>
        <time>2011-07-04T07:07:52Z</time>
      </trkpt>
      <trkpt lat="45.20999" lon="5.69271">
        <ele>268</ele>
        <time>2011-07-04T07:07:53Z</time>
      </trkpt>
      <trkpt lat="45.20998" lon="5.6928">
        <ele>268</ele>
        <time>2011-07-04T07:07:54Z</time>
      </trkpt>
      <trkpt lat="45.20997" lon="5.6929">
        <ele>268</ele>
        <time>2011-07-04T07:07:55Z</time>
      </trkpt>
      <trkpt lat="45.20996" lon="5.69298">
        <ele>268</ele>
        <time>2011-07-04T07:07:56Z</time>
      </trkpt>
      <trkpt lat="45.20993" lon="5.69316">
        <ele>268</ele>
        <time>2011-07-04T07:07:58Z</time>
      </trkpt>
      <trkpt lat="45.20992" lon="5.69326">
        <ele>268</ele>
        <time>2011-07-04T07:07:59Z</time>
      </trkpt>
      <trkpt lat="45.2099" lon="5.69335">
        <ele>267</ele>
        <time>2011-07-04T07:08:00Z</time>
      </trkpt>
      <trkpt lat="45.20989" lon="5.69344">
        <ele>267</ele>
        <time>2011-07-04T07:08:01Z</time>
      </trkpt>
      <trkpt lat="45.20987" lon="5.69353">
        <ele>267</ele>
        <time>2011-07-04T07:08:02Z</time>
      </trkpt>
      <trkpt lat="45.20985" lon="5.69362">
        <ele>267</ele>
        <time>2011-07-04T07:08:03Z</time>
      </trkpt>
      <trkpt lat="45.20983" lon="5.69371">
        <ele>267</ele>
        <time>2011-07-04T07:08:04Z</time>
      </trkpt>
      <trkpt lat="45.2098" lon="5.69387">
        <ele>267</ele>
        <time>2011-07-04T07:08:06Z</time>
      </trkpt>
      <trkpt lat="45.20977" lon="5.69394">
        <ele>267</ele>
        <time>2011-07-04T07:08:07Z</time>
      </trkpt>
      <trkpt lat="45.20975" lon="5.69403">
        <ele>267</ele>
        <time>2011-07-04T07:08:08Z</time>
      </trkpt>
      <trkpt lat="45.20973" lon="5.69411">
        <ele>267</ele>
        <time>2011-07-04T07:08:09Z</time>
      </trkpt>
      <trkpt lat="45.2097" lon="5.69417">
        <ele>267</ele>
        <time>2011-07-04T07:08:10Z</time>
      </trkpt>
      <trkpt lat="45.20967" lon="5.69425">
        <ele>267</ele>
        <time>2011-07-04T07:08:11Z</time>
      </trkpt>
      <trkpt lat="45.20964" lon="5.69432">
        <ele>267</ele>
        <time>2011-07-04T07:08:12Z</time>
      </trkpt>
      <trkpt lat="45.20959" lon="5.69446">
        <ele>267</ele>
        <time>2011-07-04T07:08:14Z</time>
      </trkpt>
      <trkpt lat="45.20948" lon="5.69471">
        <ele>267</ele>
        <time>2011-07-04T07:08:18Z</time>
      </trkpt>
      <trkpt lat="45.20948" lon="5.69471">
        <ele>267</ele>
        <time>2011-07-04T07:08:18Z</time>
      </trkpt>
      <trkpt lat="45.20948" lon="5.69471">
        <ele>267</ele>
        <time>2011-07-04T07:08:18Z</time>
      </trkpt>
      <trkpt lat="45.20946" lon="5.69478">
        <ele>267</ele>
        <time>2011-07-04T07:08:19Z</time>
      </trkpt>
      <trkpt lat="45.20944" lon="5.69488">
        <ele>267</ele>
        <time>2011-07-04T07:08:20Z</time>
      </trkpt>
      <trkpt lat="45.20942" lon="5.69496">
        <ele>267</ele>
        <time>2011-07-04T07:08:21Z</time>
      </trkpt>
      <trkpt lat="45.20939" lon="5.69506">
        <ele>267</ele>
        <time>2011-07-04T07:08:22Z</time>
      </trkpt>
      <trkpt lat="45.20937" lon="5.69516">
        <ele>267</ele>
        <time>2011-07-04T07:08:23Z</time>
      </trkpt>
      <trkpt lat="45.20934" lon="5.69525">
        <ele>267</ele>
        <time>2011-07-04T07:08:24Z</time>
      </trkpt>
      <trkpt lat="45.20932" lon="5.69532">
        <ele>267</ele>
        <time>2011-07-04T07:08:25Z</time>
      </trkpt>
      <trkpt lat="45.2093" lon="5.69539">
        <ele>268</ele>
        <time>2011-07-04T07:08:26Z</time>
      </trkpt>
      <trkpt lat="45.20926" lon="5.69543">
        <ele>268</ele>
        <time>2011-07-04T07:08:27Z</time>
      </trkpt>
      <trkpt lat="45.20921" lon="5.69548">
        <ele>268</ele>
        <time>2011-07-04T07:08:28Z</time>
      </trkpt>
      <trkpt lat="45.20916" lon="5.69552">
        <ele>268</ele>
        <time>2011-07-04T07:08:29Z</time>
      </trkpt>
      <trkpt lat="45.2091" lon="5.69555">
        <ele>268</ele>
        <time>2011-07-04T07:08:30Z</time>
      </trkpt>
      <trkpt lat="45.20904" lon="5.69561">
        <ele>268</ele>
        <time>2011-07-04T07:08:31Z</time>
      </trkpt>
      <trkpt lat="45.20897" lon="5.69567">
        <ele>268</ele>
        <time>2011-07-04T07:08:32Z</time>
      </trkpt>
      <trkpt lat="45.20891" lon="5.69572">
        <ele>269</ele>
        <time>2011-07-04T07:08:33Z</time>
      </trkpt>
      <trkpt lat="45.20885" lon="5.69578">
        <ele>269</ele>
        <time>2011-07-04T07:08:34Z</time>
      </trkpt>
      <trkpt lat="45.20881" lon="5.69584">
        <ele>269</ele>
        <time>2011-07-04T07:08:35Z</time>
      </trkpt>
      <trkpt lat="45.20876" lon="5.6959">
        <ele>268</ele>
        <time>2011-07-04T07:08:36Z</time>
      </trkpt>
      <trkpt lat="45.20872" lon="5.69596">
        <ele>268</ele>
        <time>2011-07-04T07:08:37Z</time>
      </trkpt>
      <trkpt lat="45.20866" lon="5.69601">
        <ele>268</ele>
        <time>2011-07-04T07:08:38Z</time>
      </trkpt>
      <trkpt lat="45.2086" lon="5.69608">
        <ele>267</ele>
        <time>2011-07-04T07:08:39Z</time>
      </trkpt>
      <trkpt lat="45.20854" lon="5.69614">
        <ele>267</ele>
        <time>2011-07-04T07:08:40Z</time>
      </trkpt>
      <trkpt lat="45.20849" lon="5.69621">
        <ele>268</ele>
        <time>2011-07-04T07:08:41Z</time>
      </trkpt>
      <trkpt lat="45.20844" lon="5.69628">
        <ele>268</ele>
        <time>2011-07-04T07:08:42Z</time>
      </trkpt>
      <trkpt lat="45.20838" lon="5.69634">
        <ele>269</ele>
        <time>2011-07-04T07:08:43Z</time>
      </trkpt>
      <trkpt lat="45.20833" lon="5.6964">
        <ele>269</ele>
        <time>2011-07-04T07:08:44Z</time>
      </trkpt>
      <trkpt lat="45.20827" lon="5.69648">
        <ele>269</ele>
        <time>2011-07-04T07:08:45Z</time>
      </trkpt>
      <trkpt lat="45.20821" lon="5.69654">
        <ele>269</ele>
        <time>2011-07-04T07:08:46Z</time>
      </trkpt>
      <trkpt lat="45.20814" lon="5.69661">
        <ele>268</ele>
        <time>2011-07-04T07:08:47Z</time>
      </trkpt>
      <trkpt lat="45.20808" lon="5.69668">
        <ele>269</ele>
        <time>2011-07-04T07:08:48Z</time>
      </trkpt>
      <trkpt lat="45.20803" lon="5.69674">
        <ele>269</ele>
        <time>2011-07-04T07:08:49Z</time>
      </trkpt>
      <trkpt lat="45.20799" lon="5.69683">
        <ele>267</ele>
        <time>2011-07-04T07:08:50Z</time>
      </trkpt>
      <trkpt lat="45.20794" lon="5.6969">
        <ele>266</ele>
        <time>2011-07-04T07:08:51Z</time>
      </trkpt>
      <trkpt lat="45.20789" lon="5.69697">
        <ele>266</ele>
        <time>2011-07-04T07:08:52Z</time>
      </trkpt>
      <trkpt lat="45.20784" lon="5.69702">
        <ele>265</ele>
        <time>2011-07-04T07:08:53Z</time>
      </trkpt>
      <trkpt lat="45.20778" lon="5.69709">
        <ele>265</ele>
        <time>2011-07-04T07:08:54Z</time>
      </trkpt>
      <trkpt lat="45.20774" lon="5.69716">
        <ele>265</ele>
        <time>2011-07-04T07:08:55Z</time>
      </trkpt>
      <trkpt lat="45.20768" lon="5.69722">
        <ele>265</ele>
        <time>2011-07-04T07:08:56Z</time>
      </trkpt>
      <trkpt lat="45.20759" lon="5.69735">
        <ele>266</ele>
        <time>2011-07-04T07:08:58Z</time>
      </trkpt>
      <trkpt lat="45.20754" lon="5.69742">
        <ele>267</ele>
        <time>2011-07-04T07:08:59Z</time>
      </trkpt>
      <trkpt lat="45.20751" lon="5.69749">
        <ele>268</ele>
        <time>2011-07-04T07:09:00Z</time>
      </trkpt>
      <trkpt lat="45.20747" lon="5.69755">
        <ele>269</ele>
        <time>2011-07-04T07:09:01Z</time>
      </trkpt>
      <trkpt lat="45.20742" lon="5.69761">
        <ele>271</ele>
        <time>2011-07-04T07:09:02Z</time>
      </trkpt>
      <trkpt lat="45.20738" lon="5.69767">
        <ele>271</ele>
        <time>2011-07-04T07:09:03Z</time>
      </trkpt>
      <trkpt lat="45.20734" lon="5.69774">
        <ele>273</ele>
        <time>2011-07-04T07:09:04Z</time>
      </trkpt>
      <trkpt lat="45.20731" lon="5.69779">
        <ele>273</ele>
        <time>2011-07-04T07:09:05Z</time>
      </trkpt>
      <trkpt lat="45.20727" lon="5.69788">
        <ele>275</ele>
        <time>2011-07-04T07:09:07Z</time>
      </trkpt>
      <trkpt lat="45.20721" lon="5.69796">
        <ele>274</ele>
        <time>2011-07-04T07:09:09Z</time>
      </trkpt>
      <trkpt lat="45.20716" lon="5.69799">
        <ele>274</ele>
        <time>2011-07-04T07:09:10Z</time>
      </trkpt>
      <trkpt lat="45.20709" lon="5.69802">
        <ele>273</ele>
        <time>2011-07-04T07:09:12Z</time>
      </trkpt>
      <trkpt lat="45.20704" lon="5.69804">
        <ele>273</ele>
        <time>2011-07-04T07:09:14Z</time>
      </trkpt>
      <trkpt lat="45.20699" lon="5.69805">
        <ele>271</ele>
        <time>2011-07-04T07:09:18Z</time>
      </trkpt>
      <trkpt lat="45.20695" lon="5.69807">
        <ele>271</ele>
        <time>2011-07-04T07:09:20Z</time>
      </trkpt>
      <trkpt lat="45.20687" lon="5.69813">
        <ele>271</ele>
        <time>2011-07-04T07:09:22Z</time>
      </trkpt>
      <trkpt lat="45.20684" lon="5.69818">
        <ele>271</ele>
        <time>2011-07-04T07:09:23Z</time>
      </trkpt>
      <trkpt lat="45.2068" lon="5.69822">
        <ele>271</ele>
        <time>2011-07-04T07:09:24Z</time>
      </trkpt>
      <trkpt lat="45.20673" lon="5.6983">
        <ele>271</ele>
        <time>2011-07-04T07:09:26Z</time>
      </trkpt>
      <trkpt lat="45.20666" lon="5.69839">
        <ele>271</ele>
        <time>2011-07-04T07:09:28Z</time>
      </trkpt>
      <trkpt lat="45.20661" lon="5.69843">
        <ele>272</ele>
        <time>2011-07-04T07:09:29Z</time>
      </trkpt>
      <trkpt lat="45.20656" lon="5.69846">
        <ele>272</ele>
        <time>2011-07-04T07:09:30Z</time>
      </trkpt>
      <trkpt lat="45.2065" lon="5.6985">
        <ele>272</ele>
        <time>2011-07-04T07:09:31Z</time>
      </trkpt>
      <trkpt lat="45.20645" lon="5.69852">
        <ele>272</ele>
        <time>2011-07-04T07:09:32Z</time>
      </trkpt>
      <trkpt lat="45.20641" lon="5.69856">
        <ele>272</ele>
        <time>2011-07-04T07:09:33Z</time>
      </trkpt>
      <trkpt lat="45.20636" lon="5.69859">
        <ele>272</ele>
        <time>2011-07-04T07:09:34Z</time>
      </trkpt>
      <trkpt lat="45.20632" lon="5.69862">
        <ele>272</ele>
        <time>2011-07-04T07:09:35Z</time>
      </trkpt>
      <trkpt lat="45.20627" lon="5.69865">
        <ele>272</ele>
        <time>2011-07-04T07:09:36Z</time>
      </trkpt>
      <trkpt lat="45.20622" lon="5.69868">
        <ele>272</ele>
        <time>2011-07-04T07:09:37Z</time>
      </trkpt>
      <trkpt lat="45.20616" lon="5.69877">
        <ele>271</ele>
        <time>2011-07-04T07:09:39Z</time>
      </trkpt>
      <trkpt lat="45.20611" lon="5.69882">
        <ele>271</ele>
        <time>2011-07-04T07:09:41Z</time>
      </trkpt>
      <trkpt lat="45.20607" lon="5.69884">
        <ele>271</ele>
        <time>2011-07-04T07:09:43Z</time>
      </trkpt>
      <trkpt lat="45.20602" lon="5.69882">
        <ele>271</ele>
        <time>2011-07-04T07:09:46Z</time>
      </trkpt>
      <trkpt lat="45.20596" lon="5.6988">
        <ele>271</ele>
        <time>2011-07-04T07:09:51Z</time>
      </trkpt>
      <trkpt lat="45.2059" lon="5.69878">
        <ele>271</ele>
        <time>2011-07-04T07:09:55Z</time>
      </trkpt>
    </trkseg>
  </trk>
</gpx>